Darstellungsparameter: Aktuell verwendete Einstellungen:
Skalierung der Graphiken ... ?
xyx+y,   Skalierungsfaktor:      Skalierung: Modus: x, Faktor: 1
Darstellungszeitraum ... ?
Vom - - bis: - -   Zeitraum: 29.06.2014 - 28.12.2014
Min/Max/Avg-Anzeige ... ?
Zeige MMA aktuell
Zeige MMA Monat
Zeige MMA alles
Zeige --A aktuell
Zeige --A Monat
Zeige --A alles
Keine MMA-Anzeige
MMA:
Minimum Maximum Average (ber die Originaldaten)
MMA-Basis: 29.06.2014 - 28.12.2014
Quicknavigation für Darstellung... ?
Tage:      1T, 2T, 3T, 5T -1T -2T -3T -5T +1T +2T +3T +5T
Wochen: 1W, 2W, 3W -1W -2W -3W +1W +2W +3W
Monate: 1M, 3M, 6M -1M -3M -6M +1M +3M +6M
Jahre:    1J, 3J, 5J, 10J -1J -3J -5J -10J +1J +3J +5J +10J
Nutze für die Darstellung ... ?
Originaldaten oder Mittelwerte auf ...
Stundenbasis Tagesbasis Wochenbasis
Monatsbasis Jahresbasis      Datenbasis: Original-Daten
Darstellen als:
Statistik (Auto) Statistik J:M      Darstellung:
Zur Graphik,    zurück zur Übersicht aller Sensoren.
 
Tabellarische Datenbersicht: ?
 
Sensor: Nr:Datum:Temp:Abs-Feuchte:Windchill:Wind:
Aussen-T/F 1 29-06-2014 00:10:00 14.4 C 11.99 g/m*3 14.4 C 0 km/h
2 29-06-2014 00:15:00 14.4 C 11.99 g/m*3 14.4 C 0 km/h
3 29-06-2014 00:20:00 14.5 C 12.06 g/m*3 14.5 C 1.6 km/h
4 29-06-2014 00:25:00 14.5 C 12.06 g/m*3 14.5 C 1.6 km/h
5 29-06-2014 00:30:00 14.5 C 12.06 g/m*3 14.5 C 1.6 km/h
6 29-06-2014 00:35:00 14.5 C 12.06 g/m*3 14.5 C 0 km/h
7 29-06-2014 00:40:00 14.5 C 12.06 g/m*3 14.5 C 0 km/h
8 29-06-2014 00:45:00 14.4 C 11.99 g/m*3 14.4 C 0 km/h
9 29-06-2014 00:50:00 14.4 C 11.99 g/m*3 14.4 C 0 km/h
10 29-06-2014 00:55:00 14.4 C 11.99 g/m*3 14.4 C 0 km/h
11 29-06-2014 01:00:00 14.4 C 11.99 g/m*3 14.4 C 0 km/h
12 29-06-2014 01:05:00 14.4 C 11.99 g/m*3 14.4 C 0 km/h
13 29-06-2014 01:10:00 14.4 C 11.99 g/m*3 14.4 C 0 km/h
14 29-06-2014 01:15:00 14.4 C 11.99 g/m*3 14.4 C 0 km/h
15 29-06-2014 01:20:00 14.4 C 11.99 g/m*3 14.4 C 0 km/h
16 29-06-2014 04:45:00 14.2 C 11.97 g/m*3 14.2 C 3.2 km/h
17 29-06-2014 04:50:00 14.1 C 11.77 g/m*3 14.1 C 0 km/h
18 29-06-2014 04:55:00 14.1 C 11.77 g/m*3 14.1 C 1.6 km/h
19 29-06-2014 05:00:00 14.1 C 11.77 g/m*3 14.1 C 1.6 km/h
20 29-06-2014 05:05:00 14.1 C 11.77 g/m*3 14.1 C 11.3 km/h
21 29-06-2014 05:10:00 13.9 C 11.63 g/m*3 13.9 C 4.8 km/h
22 29-06-2014 05:15:00 13.8 C 11.56 g/m*3 13.8 C 6.4 km/h
23 29-06-2014 05:20:00 13.8 C 11.56 g/m*3 13.8 C 4.8 km/h
24 29-06-2014 05:25:00 13.8 C 11.56 g/m*3 13.8 C 3.2 km/h
25 29-06-2014 05:30:00 13.7 C 11.49 g/m*3 13.7 C 4.8 km/h
Sensor: Nr:Datum:Temp:Abs-Feuchte:Windchill:Wind:
Aussen-T/F 26 29-06-2014 05:35:00 13.7 C 11.49 g/m*3 13.7 C 4.8 km/h
27 29-06-2014 05:40:00 13.7 C 11.49 g/m*3 13.7 C 4.8 km/h
28 29-06-2014 05:45:00 13.7 C 11.49 g/m*3 13.7 C 0 km/h
29 29-06-2014 05:50:00 13.7 C 11.49 g/m*3 13.7 C 6.4 km/h
30 29-06-2014 05:55:00 13.7 C 11.49 g/m*3 13.7 C 1.6 km/h
31 29-06-2014 06:00:00 13.7 C 11.49 g/m*3 13.7 C 3.2 km/h
32 29-06-2014 06:05:00 13.6 C 11.42 g/m*3 13.6 C 8.1 km/h
33 29-06-2014 06:10:00 13.7 C 11.49 g/m*3 13.7 C 6.4 km/h
34 29-06-2014 06:15:00 13.7 C 11.49 g/m*3 13.7 C 4.8 km/h
35 29-06-2014 06:20:00 13.7 C 11.49 g/m*3 13.7 C 3.2 km/h
36 29-06-2014 06:25:00 13.6 C 11.42 g/m*3 13.6 C 6.4 km/h
37 29-06-2014 06:30:00 13.6 C 11.42 g/m*3 13.6 C 6.4 km/h
38 29-06-2014 06:35:00 13.6 C 11.42 g/m*3 13.6 C 6.4 km/h
39 29-06-2014 06:40:00 13.5 C 11.35 g/m*3 13.5 C 3.2 km/h
40 29-06-2014 06:45:00 13.4 C 11.16 g/m*3 13.4 C 3.2 km/h
41 29-06-2014 06:50:00 13.3 C 11.09 g/m*3 13.3 C 6.4 km/h
42 29-06-2014 06:55:00 13.3 C 11.09 g/m*3 13.3 C 3.2 km/h
43 29-06-2014 07:00:00 13.3 C 11.09 g/m*3 13.3 C 3.2 km/h
44 29-06-2014 07:05:00 13.3 C 11.09 g/m*3 13.3 C 0 km/h
45 29-06-2014 07:10:00 13.3 C 11.09 g/m*3 13.3 C 0 km/h
46 29-06-2014 07:15:00 13.3 C 11.09 g/m*3 13.3 C 1.6 km/h
47 29-06-2014 07:20:00 13.3 C 11.09 g/m*3 13.3 C 0 km/h
48 29-06-2014 07:25:00 13.3 C 11.09 g/m*3 13.3 C 0 km/h
49 29-06-2014 07:30:00 13.3 C 11.09 g/m*3 13.3 C 0 km/h
50 29-06-2014 07:35:00 13.3 C 11.09 g/m*3 13.3 C 0 km/h
Sensor: Nr:Datum:Temp:Abs-Feuchte:Windchill:Wind:
Aussen-T/F 51 29-06-2014 07:40:00 13.3 C 11.09 g/m*3 13.3 C 0 km/h
52 29-06-2014 07:45:00 13.2 C 11.02 g/m*3 13.2 C 0 km/h
53 29-06-2014 07:50:00 13.2 C 11.02 g/m*3 13.2 C 0 km/h
54 29-06-2014 07:55:00 13.2 C 11.02 g/m*3 13.2 C 0 km/h
55 29-06-2014 08:00:00 13.2 C 11.02 g/m*3 13.2 C 0 km/h
56 29-06-2014 08:05:00 13.2 C 11.02 g/m*3 13.2 C 0 km/h
57 29-06-2014 08:10:00 13.3 C 11.09 g/m*3 13.3 C 0 km/h
58 29-06-2014 08:15:00 13.2 C 11.02 g/m*3 13.2 C 0 km/h
59 29-06-2014 08:20:00 13.2 C 11.02 g/m*3 13.2 C 0 km/h
60 29-06-2014 08:25:00 13.3 C 11.09 g/m*3 13.3 C 0 km/h
61 29-06-2014 08:30:00 13.3 C 11.09 g/m*3 13.3 C 0 km/h
62 29-06-2014 08:35:00 13.3 C 11.09 g/m*3 13.3 C 0 km/h
63 29-06-2014 08:40:00 13.3 C 11.09 g/m*3 13.3 C 0 km/h
64 29-06-2014 08:45:00 13.3 C 11.09 g/m*3 13.3 C 0 km/h
65 29-06-2014 08:50:00 13.3 C 11.09 g/m*3 13.3 C 0 km/h
66 29-06-2014 08:55:00 13.3 C 11.09 g/m*3 13.3 C 0 km/h
67 29-06-2014 09:00:00 13.3 C 11.21 g/m*3 13.3 C 0 km/h
68 29-06-2014 09:05:00 13.3 C 11.21 g/m*3 13.3 C 0 km/h
69 29-06-2014 09:10:00 13.3 C 11.21 g/m*3 13.3 C 0 km/h
70 29-06-2014 09:15:00 13.3 C 11.21 g/m*3 13.3 C 0 km/h
71 29-06-2014 09:20:00 13.3 C 11.21 g/m*3 13.3 C 0 km/h
72 29-06-2014 09:25:00 13.3 C 11.21 g/m*3 13.3 C 0 km/h
73 29-06-2014 09:30:00 13.3 C 11.21 g/m*3 13.3 C 0 km/h
74 29-06-2014 09:35:00 13.3 C 11.21 g/m*3 13.3 C 0 km/h
75 29-06-2014 09:40:00 13.3 C 11.21 g/m*3 13.3 C 0 km/h
Sensor: Nr:Datum:Temp:Abs-Feuchte:Windchill:Wind:
Aussen-T/F 76 29-06-2014 09:45:00 13.3 C 11.21 g/m*3 13.3 C 3.2 km/h
77 29-06-2014 09:50:00 13.3 C 11.21 g/m*3 13.3 C 0 km/h
78 29-06-2014 09:55:00 13.4 C 11.28 g/m*3 13.4 C 1.6 km/h
79 29-06-2014 10:00:00 13.4 C 11.28 g/m*3 13.4 C 4.8 km/h
80 29-06-2014 10:05:00 13.4 C 11.28 g/m*3 13.4 C 4.8 km/h
81 29-06-2014 10:10:00 13.5 C 11.35 g/m*3 13.5 C 1.6 km/h
82 29-06-2014 10:15:00 13.6 C 11.42 g/m*3 13.6 C 0 km/h
83 29-06-2014 10:20:00 13.7 C 11.49 g/m*3 13.7 C 0 km/h
84 29-06-2014 10:25:00 13.7 C 11.49 g/m*3 13.7 C 0 km/h
85 29-06-2014 10:30:00 13.7 C 11.49 g/m*3 13.7 C 0 km/h
86 29-06-2014 10:35:00 13.7 C 11.49 g/m*3 13.7 C 0 km/h
87 29-06-2014 10:40:00 13.7 C 11.49 g/m*3 13.7 C 0 km/h
88 29-06-2014 10:45:00 13.8 C 11.56 g/m*3 13.8 C 0 km/h
89 29-06-2014 10:50:00 13.8 C 11.56 g/m*3 13.8 C 0 km/h
90 29-06-2014 10:55:00 13.9 C 11.63 g/m*3 13.9 C 0 km/h
91 29-06-2014 11:00:00 14 C 11.7 g/m*3 14 C 0 km/h
92 29-06-2014 11:05:00 13.9 C 11.63 g/m*3 13.9 C 3.2 km/h
93 29-06-2014 11:10:00 13.8 C 11.56 g/m*3 13.8 C 3.2 km/h
94 29-06-2014 11:15:00 13.8 C 11.56 g/m*3 13.8 C 0 km/h
95 29-06-2014 11:20:00 13.8 C 11.56 g/m*3 13.8 C 0 km/h
96 29-06-2014 11:25:00 13.8 C 11.56 g/m*3 13.8 C 3.2 km/h
97 29-06-2014 11:30:00 13.8 C 11.56 g/m*3 13.8 C 0 km/h
98 29-06-2014 11:35:00 13.8 C 11.56 g/m*3 13.8 C 0 km/h
99 29-06-2014 11:40:00 13.8 C 11.56 g/m*3 13.8 C 0 km/h
100 29-06-2014 11:45:00 13.8 C 11.56 g/m*3 13.8 C 1.6 km/h
Sensor: Nr:Datum:Temp:Abs-Feuchte:Windchill:Wind:
Aussen-T/F 101 29-06-2014 11:50:00 13.9 C 11.51 g/m*3 13.9 C 1.6 km/h
102 29-06-2014 11:55:00 13.9 C 11.51 g/m*3 13.9 C 0 km/h
103 29-06-2014 12:00:00 14.1 C 11.65 g/m*3 14.1 C 0 km/h
104 29-06-2014 12:05:00 14.1 C 11.77 g/m*3 14.1 C 0 km/h
105 29-06-2014 12:10:00 14.2 C 11.84 g/m*3 14.2 C 0 km/h
106 29-06-2014 12:15:00 14.3 C 11.92 g/m*3 14.3 C 0 km/h
107 29-06-2014 12:20:00 14.3 C 11.79 g/m*3 14.3 C 0 km/h
108 29-06-2014 12:25:00 14.3 C 11.79 g/m*3 14.3 C 0 km/h
109 29-06-2014 12:30:00 14.3 C 11.79 g/m*3 14.3 C 0 km/h
110 29-06-2014 12:35:00 14.4 C 11.87 g/m*3 14.4 C 0 km/h
111 29-06-2014 12:40:00 14.6 C 12.01 g/m*3 14.6 C 0 km/h
112 29-06-2014 12:45:00 14.8 C 12.16 g/m*3 14.8 C 0 km/h
113 29-06-2014 12:50:00 14.9 C 12.11 g/m*3 14.9 C 0 km/h
114 29-06-2014 12:55:00 15.1 C 12.13 g/m*3 15.1 C 0 km/h
115 29-06-2014 13:00:00 15.7 C 12.44 g/m*3 15.7 C 3.2 km/h
116 29-06-2014 13:05:00 16.1 C 11.79 g/m*3 16.1 C 4.8 km/h
117 29-06-2014 13:10:00 16.3 C 11.79 g/m*3 16.3 C 4.8 km/h
118 29-06-2014 13:15:00 16.5 C 12.22 g/m*3 16.5 C 1.6 km/h
119 29-06-2014 13:20:00 16.6 C 11.72 g/m*3 16.6 C 3.2 km/h
120 29-06-2014 13:25:00 16.8 C 12.58 g/m*3 16.8 C 0 km/h
121 29-06-2014 13:30:00 16.8 C 12.44 g/m*3 16.8 C 1.6 km/h
122 29-06-2014 13:35:00 16.9 C 12.37 g/m*3 16.9 C 1.6 km/h
123 29-06-2014 13:40:00 17.2 C 12.3 g/m*3 17.2 C 8.1 km/h
124 29-06-2014 13:45:00 17.2 C 11.72 g/m*3 17.2 C 6.4 km/h
125 29-06-2014 13:50:00 17.2 C 11.72 g/m*3 17.2 C 6.4 km/h
Sensor: Nr:Datum:Temp:Abs-Feuchte:Windchill:Wind:
Aussen-T/F 126 29-06-2014 13:55:00 17.4 C 11.86 g/m*3 17.4 C 3.2 km/h
127 29-06-2014 14:50:00 18.6 C 12.41 g/m*3 18.6 C 6.4 km/h
128 29-06-2014 14:55:00 18.8 C 12.4 g/m*3 18.8 C 4.8 km/h
129 29-06-2014 15:00:00 18.9 C 12.8 g/m*3 18.9 C 4.8 km/h
130 29-06-2014 15:05:00 18.9 C 12.15 g/m*3 18.9 C 6.4 km/h
131 29-06-2014 15:10:00 18.8 C 12.56 g/m*3 18.8 C 1.6 km/h
132 29-06-2014 15:15:00 18.6 C 12.89 g/m*3 18.6 C 1.6 km/h
133 29-06-2014 15:20:00 18.3 C 12.98 g/m*3 18.3 C 0 km/h
134 29-06-2014 15:25:00 18 C 13.21 g/m*3 18 C 0 km/h
135 29-06-2014 15:30:00 17.7 C 12.98 g/m*3 17.7 C 0 km/h
136 29-06-2014 15:35:00 17.2 C 12.89 g/m*3 17.2 C 0 km/h
137 29-06-2014 15:40:00 16.7 C 12.79 g/m*3 16.7 C 0 km/h
138 29-06-2014 15:45:00 16.4 C 12.7 g/m*3 16.4 C 0 km/h
139 29-06-2014 15:50:00 16.2 C 12.69 g/m*3 16.2 C 0 km/h
140 29-06-2014 15:55:00 16.1 C 12.61 g/m*3 16.1 C 0 km/h
141 29-06-2014 16:00:00 15.8 C 12.52 g/m*3 15.8 C 0 km/h
142 29-06-2014 16:05:00 15.7 C 12.44 g/m*3 15.7 C 0 km/h
143 29-06-2014 16:10:00 15.6 C 12.5 g/m*3 15.6 C 0 km/h
144 29-06-2014 16:15:00 15.4 C 12.35 g/m*3 15.4 C 3.2 km/h
145 29-06-2014 16:20:00 15.2 C 12.2 g/m*3 15.2 C 1.6 km/h
146 29-06-2014 16:25:00 15.2 C 12.33 g/m*3 15.2 C 1.6 km/h
147 29-06-2014 16:30:00 15.2 C 12.33 g/m*3 15.2 C 1.6 km/h
148 29-06-2014 16:35:00 15.3 C 12.41 g/m*3 15.3 C 4.8 km/h
149 29-06-2014 16:40:00 15.4 C 12.22 g/m*3 15.4 C 3.2 km/h
150 29-06-2014 16:45:00 15.7 C 12.44 g/m*3 15.7 C 3.2 km/h
Sensor: Nr:Datum:Temp:Abs-Feuchte:Windchill:Wind:
Aussen-T/F 151 29-06-2014 16:50:00 16.1 C 12.47 g/m*3 16.1 C 3.2 km/h
152 29-06-2014 16:55:00 16.4 C 12.56 g/m*3 16.4 C 4.8 km/h
153 29-06-2014 17:00:00 16.4 C 12.56 g/m*3 16.4 C 8.1 km/h
154 29-06-2014 17:05:00 16.6 C 12.29 g/m*3 16.6 C 9.7 km/h
155 29-06-2014 17:10:00 16.4 C 11.58 g/m*3 16.4 C 19.3 km/h
156 29-06-2014 17:15:00 16.6 C 11.72 g/m*3 16.6 C 12.9 km/h
157 29-06-2014 17:20:00 16.6 C 12.15 g/m*3 16.6 C 9.7 km/h
158 29-06-2014 17:25:00 16.4 C 12 g/m*3 16.4 C 6.4 km/h
159 29-06-2014 17:30:00 16.3 C 11.65 g/m*3 16.3 C 11.3 km/h
160 29-06-2014 17:35:00 16.2 C 11.03 g/m*3 16.2 C 9.7 km/h
161 29-06-2014 17:40:00 16.1 C 10.97 g/m*3 16.1 C 8.1 km/h
162 29-06-2014 17:45:00 15.9 C 11.1 g/m*3 15.9 C 11.3 km/h
163 29-06-2014 17:50:00 15.7 C 11.51 g/m*3 15.7 C 6.4 km/h
164 29-06-2014 17:55:00 15.6 C 11.7 g/m*3 15.6 C 0 km/h
165 29-06-2014 18:00:00 15.4 C 11.82 g/m*3 15.4 C 0 km/h
166 29-06-2014 18:05:00 15.3 C 11.75 g/m*3 15.3 C 0 km/h
167 29-06-2014 18:10:00 15.3 C 11.88 g/m*3 15.3 C 3.2 km/h
168 29-06-2014 18:15:00 15.4 C 11.56 g/m*3 15.4 C 6.4 km/h
169 29-06-2014 18:20:00 15.6 C 11.57 g/m*3 15.6 C 6.4 km/h
170 29-06-2014 18:25:00 15.8 C 11.85 g/m*3 15.8 C 6.4 km/h
171 29-06-2014 18:30:00 16.3 C 11.79 g/m*3 16.3 C 3.2 km/h
172 29-06-2014 18:35:00 16.7 C 11.8 g/m*3 16.7 C 3.2 km/h
173 29-06-2014 18:40:00 16.8 C 11.87 g/m*3 16.8 C 0 km/h
174 29-06-2014 18:45:00 16.5 C 11.65 g/m*3 16.5 C 3.2 km/h
175 29-06-2014 18:50:00 16.1 C 11.93 g/m*3 16.1 C 0 km/h
Sensor: Nr:Datum:Temp:Abs-Feuchte:Windchill:Wind:
Aussen-T/F 176 29-06-2014 18:55:00 15.5 C 11.76 g/m*3 15.5 C 0 km/h
177 29-06-2014 19:00:00 15.2 C 11.81 g/m*3 15.2 C 0 km/h
178 29-06-2014 19:05:00 14.9 C 11.6 g/m*3 14.9 C 0 km/h
179 29-06-2014 19:10:00 14.7 C 11.58 g/m*3 14.7 C 0 km/h
180 29-06-2014 19:15:00 14.7 C 11.58 g/m*3 14.7 C 0 km/h
181 29-06-2014 19:20:00 14.7 C 11.71 g/m*3 14.7 C 0 km/h
182 29-06-2014 19:25:00 14.7 C 11.71 g/m*3 14.7 C 0 km/h
183 29-06-2014 19:30:00 14.3 C 11.55 g/m*3 14.3 C 0 km/h
184 29-06-2014 19:35:00 14.3 C 11.67 g/m*3 14.3 C 0 km/h
185 29-06-2014 19:40:00 14.4 C 11.74 g/m*3 14.4 C 0 km/h
186 29-06-2014 19:45:00 14.4 C 11.74 g/m*3 14.4 C 0 km/h
187 29-06-2014 19:50:00 14.4 C 11.74 g/m*3 14.4 C 0 km/h
188 29-06-2014 19:55:00 14.4 C 11.87 g/m*3 14.4 C 0 km/h
189 29-06-2014 20:00:00 14.4 C 11.87 g/m*3 14.4 C 0 km/h
190 29-06-2014 20:05:00 14.4 C 11.87 g/m*3 14.4 C 0 km/h
191 29-06-2014 20:10:00 14.4 C 11.87 g/m*3 14.4 C 0 km/h
192 29-06-2014 20:15:00 14.3 C 11.79 g/m*3 14.3 C 0 km/h
193 29-06-2014 20:20:00 14.3 C 11.67 g/m*3 14.3 C 0 km/h
194 29-06-2014 20:25:00 14.2 C 11.6 g/m*3 14.2 C 0 km/h
195 29-06-2014 20:30:00 14.2 C 11.6 g/m*3 14.2 C 0 km/h
196 29-06-2014 20:35:00 14.2 C 11.6 g/m*3 14.2 C 1.6 km/h
197 29-06-2014 20:40:00 14.2 C 11.6 g/m*3 14.2 C 0 km/h
198 29-06-2014 20:45:00 14.1 C 11.65 g/m*3 14.1 C 0 km/h
199 29-06-2014 20:50:00 14.1 C 11.65 g/m*3 14.1 C 0 km/h
200 29-06-2014 20:55:00 13.8 C 11.32 g/m*3 13.8 C 0 km/h
Sensor: Nr:Datum:Temp:Abs-Feuchte:Windchill:Wind:
Aussen-T/F 201 29-06-2014 21:00:00 13.8 C 11.32 g/m*3 13.8 C 0 km/h
202 29-06-2014 21:05:00 13.8 C 11.32 g/m*3 13.8 C 0 km/h
203 29-06-2014 21:10:00 13.8 C 11.32 g/m*3 13.8 C 0 km/h
204 30-06-2014 01:15:00 12.3 C 10.86 g/m*3 12.3 C 0 km/h
205 30-06-2014 01:20:00 12.3 C 10.86 g/m*3 12.3 C 0 km/h
206 30-06-2014 01:25:00 12.3 C 10.86 g/m*3 12.3 C 0 km/h
207 30-06-2014 01:30:00 12.3 C 10.86 g/m*3 12.3 C 0 km/h
208 30-06-2014 02:25:00 12.8 C 10.98 g/m*3 12.8 C 0 km/h
209 30-06-2014 02:30:00 12.8 C 10.98 g/m*3 12.8 C 0 km/h
210 30-06-2014 02:35:00 12.8 C 10.98 g/m*3 12.8 C 0 km/h
211 30-06-2014 02:40:00 12.8 C 10.87 g/m*3 12.8 C 0 km/h
212 30-06-2014 02:45:00 12.8 C 10.87 g/m*3 12.8 C 0 km/h
213 30-06-2014 02:50:00 12.8 C 10.87 g/m*3 12.8 C 0 km/h
214 30-06-2014 02:55:00 12.8 C 10.87 g/m*3 12.8 C 0 km/h
215 30-06-2014 03:00:00 12.8 C 10.87 g/m*3 12.8 C 0 km/h
216 30-06-2014 03:05:00 12.8 C 10.87 g/m*3 12.8 C 0 km/h
217 30-06-2014 03:10:00 12.8 C 10.87 g/m*3 12.8 C 0 km/h
218 30-06-2014 03:15:00 12.8 C 10.87 g/m*3 12.8 C 0 km/h
219 30-06-2014 03:20:00 12.8 C 10.87 g/m*3 12.8 C 0 km/h
220 30-06-2014 03:25:00 12.8 C 10.87 g/m*3 12.8 C 0 km/h
221 30-06-2014 03:30:00 12.7 C 10.8 g/m*3 12.7 C 0 km/h
222 30-06-2014 03:35:00 12.7 C 10.8 g/m*3 12.7 C 0 km/h
223 30-06-2014 03:40:00 12.7 C 10.8 g/m*3 12.7 C 0 km/h
224 30-06-2014 03:45:00 12.7 C 10.8 g/m*3 12.7 C 0 km/h
225 30-06-2014 03:50:00 12.7 C 10.8 g/m*3 12.7 C 0 km/h
Sensor: Nr:Datum:Temp:Abs-Feuchte:Windchill:Wind:
Aussen-T/F 226 30-06-2014 03:55:00 12.7 C 10.8 g/m*3 12.7 C 0 km/h
227 30-06-2014 04:00:00 12.7 C 10.91 g/m*3 12.7 C 0 km/h
228 30-06-2014 04:05:00 12.7 C 10.91 g/m*3 12.7 C 0 km/h
229 30-06-2014 04:10:00 12.6 C 10.84 g/m*3 12.6 C 0 km/h
230 30-06-2014 04:15:00 12.6 C 10.84 g/m*3 12.6 C 0 km/h
231 30-06-2014 04:20:00 12.6 C 10.84 g/m*3 12.6 C 0 km/h
232 30-06-2014 04:25:00 12.6 C 10.84 g/m*3 12.6 C 0 km/h
233 30-06-2014 04:30:00 12.5 C 10.77 g/m*3 12.5 C 0 km/h
234 30-06-2014 04:35:00 12.5 C 10.66 g/m*3 12.5 C 0 km/h
235 30-06-2014 04:40:00 12.5 C 10.66 g/m*3 12.5 C 0 km/h
236 30-06-2014 04:45:00 12.4 C 10.6 g/m*3 12.4 C 0 km/h
237 30-06-2014 04:50:00 12.4 C 10.6 g/m*3 12.4 C 0 km/h
238 30-06-2014 04:55:00 12.3 C 10.53 g/m*3 12.3 C 0 km/h
239 30-06-2014 05:00:00 12.3 C 10.53 g/m*3 12.3 C 0 km/h
240 30-06-2014 05:05:00 12.3 C 10.64 g/m*3 12.3 C 0 km/h
241 30-06-2014 05:10:00 12.2 C 10.58 g/m*3 12.2 C 0 km/h
242 30-06-2014 05:15:00 12.1 C 10.4 g/m*3 12.1 C 0 km/h
243 30-06-2014 05:20:00 12.1 C 10.4 g/m*3 12.1 C 0 km/h
244 30-06-2014 05:25:00 11.9 C 10.27 g/m*3 11.9 C 0 km/h
245 30-06-2014 05:30:00 11.9 C 10.27 g/m*3 11.9 C 0 km/h
246 30-06-2014 05:35:00 11.8 C 10.21 g/m*3 11.8 C 0 km/h
247 30-06-2014 05:40:00 11.8 C 10.21 g/m*3 11.8 C 0 km/h
248 30-06-2014 05:45:00 11.7 C 10.15 g/m*3 11.7 C 0 km/h
249 30-06-2014 05:50:00 11.8 C 10.21 g/m*3 11.8 C 0 km/h
250 30-06-2014 05:55:00 11.8 C 10.21 g/m*3 11.8 C 0 km/h
Sensor: Nr:Datum:Temp:Abs-Feuchte:Windchill:Wind:
Aussen-T/F 251 30-06-2014 06:00:00 11.8 C 10.21 g/m*3 11.8 C 0 km/h
252 30-06-2014 06:05:00 11.8 C 10.21 g/m*3 11.8 C 0 km/h
253 30-06-2014 06:10:00 11.8 C 10.21 g/m*3 11.8 C 0 km/h
254 30-06-2014 06:15:00 11.8 C 10.31 g/m*3 11.8 C 1.6 km/h
255 30-06-2014 06:20:00 11.8 C 10.31 g/m*3 11.8 C 0 km/h
256 30-06-2014 06:25:00 11.8 C 10.31 g/m*3 11.8 C 0 km/h
257 30-06-2014 06:30:00 11.9 C 10.38 g/m*3 11.9 C 0 km/h
258 30-06-2014 06:35:00 12 C 10.44 g/m*3 12 C 0 km/h
259 30-06-2014 06:40:00 12.1 C 10.51 g/m*3 12.1 C 0 km/h
260 30-06-2014 06:45:00 12.2 C 10.58 g/m*3 12.2 C 0 km/h
261 30-06-2014 06:50:00 12.2 C 10.58 g/m*3 12.2 C 0 km/h
262 30-06-2014 06:55:00 12.3 C 10.64 g/m*3 12.3 C 3.2 km/h
263 30-06-2014 07:00:00 12.4 C 10.71 g/m*3 12.4 C 8.1 km/h
264 30-06-2014 07:05:00 12.4 C 10.71 g/m*3 12.4 C 4.8 km/h
265 30-06-2014 07:10:00 12.4 C 10.71 g/m*3 12.4 C 1.6 km/h
266 30-06-2014 07:15:00 12.4 C 10.71 g/m*3 12.4 C 3.2 km/h
267 30-06-2014 07:20:00 12.4 C 10.71 g/m*3 12.4 C 0 km/h
268 30-06-2014 07:25:00 12.5 C 10.77 g/m*3 12.5 C 1.6 km/h
269 30-06-2014 07:30:00 12.5 C 10.66 g/m*3 12.5 C 0 km/h
270 30-06-2014 07:35:00 12.5 C 10.66 g/m*3 12.5 C 0 km/h
271 30-06-2014 07:40:00 12.6 C 10.73 g/m*3 12.6 C 0 km/h
272 30-06-2014 07:45:00 12.6 C 10.84 g/m*3 12.6 C 0 km/h
273 30-06-2014 07:50:00 12.7 C 10.91 g/m*3 12.7 C 0 km/h
274 30-06-2014 07:55:00 12.9 C 11.05 g/m*3 12.9 C 1.6 km/h
275 30-06-2014 08:00:00 13.1 C 11.18 g/m*3 13.1 C 3.2 km/h
Sensor: Nr:Datum:Temp:Abs-Feuchte:Windchill:Wind:
Aussen-T/F 276 30-06-2014 08:05:00 13.1 C 11.07 g/m*3 13.1 C 3.2 km/h
277 30-06-2014 08:10:00 13.3 C 11.21 g/m*3 13.3 C 3.2 km/h
278 30-06-2014 08:15:00 13.5 C 11.23 g/m*3 13.5 C 0 km/h
279 30-06-2014 08:20:00 13.7 C 11.37 g/m*3 13.7 C 3.2 km/h
280 30-06-2014 08:25:00 13.9 C 11.27 g/m*3 13.9 C 1.6 km/h
281 30-06-2014 08:30:00 14.1 C 11.29 g/m*3 14.1 C 0 km/h
282 30-06-2014 08:35:00 14.3 C 11.3 g/m*3 14.3 C 1.6 km/h
283 30-06-2014 08:40:00 14.6 C 11.26 g/m*3 14.6 C 0 km/h
284 30-06-2014 08:45:00 14.7 C 11.08 g/m*3 14.7 C 3.2 km/h
285 30-06-2014 08:50:00 14.8 C 11.15 g/m*3 14.8 C 0 km/h
286 30-06-2014 08:55:00 14.9 C 11.47 g/m*3 14.9 C 0 km/h
287 30-06-2014 09:00:00 14.9 C 11.47 g/m*3 14.9 C 0 km/h
288 30-06-2014 09:05:00 14.8 C 11.53 g/m*3 14.8 C 0 km/h
289 30-06-2014 09:10:00 14.8 C 11.53 g/m*3 14.8 C 0 km/h
290 30-06-2014 09:15:00 14.8 C 11.53 g/m*3 14.8 C 1.6 km/h
291 30-06-2014 09:20:00 14.7 C 11.46 g/m*3 14.7 C 0 km/h
292 30-06-2014 09:25:00 14.6 C 11.51 g/m*3 14.6 C 0 km/h
293 30-06-2014 09:30:00 14.6 C 11.51 g/m*3 14.6 C 4.8 km/h
294 30-06-2014 09:35:00 14.6 C 11.51 g/m*3 14.6 C 1.6 km/h
295 30-06-2014 09:40:00 14.5 C 11.07 g/m*3 14.5 C 1.6 km/h
296 30-06-2014 09:45:00 14.7 C 11.33 g/m*3 14.7 C 3.2 km/h
297 30-06-2014 09:50:00 14.9 C 11.34 g/m*3 14.9 C 4.8 km/h
298 30-06-2014 09:55:00 15.3 C 10.71 g/m*3 15.3 C 12.9 km/h
299 30-06-2014 10:00:00 15.7 C 10.84 g/m*3 15.7 C 8.1 km/h
300 30-06-2014 10:05:00 16.1 C 10.83 g/m*3 16.1 C 6.4 km/h
Sensor: Nr:Datum:Temp:Abs-Feuchte:Windchill:Wind:
Aussen-T/F 301 30-06-2014 10:10:00 16.4 C 11.03 g/m*3 16.4 C 8.1 km/h
302 30-06-2014 10:15:00 16.6 C 10.59 g/m*3 16.6 C 14.5 km/h
303 30-06-2014 10:20:00 16.5 C 10.39 g/m*3 16.5 C 14.5 km/h
304 30-06-2014 10:25:00 16.6 C 10.59 g/m*3 16.6 C 11.3 km/h
305 30-06-2014 10:30:00 16.7 C 10.37 g/m*3 16.7 C 4.8 km/h
306 30-06-2014 10:35:00 16.9 C 11.08 g/m*3 16.9 C 4.8 km/h
307 30-06-2014 10:40:00 17 C 11 g/m*3 17 C 6.4 km/h
308 30-06-2014 10:45:00 17.1 C 10.19 g/m*3 17.1 C 11.3 km/h
309 30-06-2014 10:50:00 16.9 C 11.22 g/m*3 16.9 C 4.8 km/h
310 30-06-2014 10:55:00 16.7 C 10.23 g/m*3 16.7 C 6.4 km/h
311 30-06-2014 11:00:00 16.8 C 10.15 g/m*3 16.8 C 9.7 km/h
312 30-06-2014 11:05:00 17.1 C 9.9 g/m*3 17.1 C 4.8 km/h
313 30-06-2014 11:10:00 17.6 C 10.5 g/m*3 17.6 C 6.4 km/h
314 30-06-2014 11:15:00 17.8 C 10.78 g/m*3 17.8 C 9.7 km/h
315 30-06-2014 11:20:00 17.9 C 10.23 g/m*3 17.9 C 14.5 km/h
316 30-06-2014 11:25:00 17.4 C 10.37 g/m*3 17.4 C 16.1 km/h
317 30-06-2014 11:30:00 17.3 C 10.31 g/m*3 17.3 C 9.7 km/h
318 30-06-2014 11:35:00 17.1 C 10.77 g/m*3 17.1 C 8.1 km/h
319 30-06-2014 11:40:00 16.9 C 10.64 g/m*3 16.9 C 9.7 km/h
320 30-06-2014 11:45:00 16.7 C 10.94 g/m*3 16.7 C 3.2 km/h
321 30-06-2014 11:50:00 16.7 C 10.94 g/m*3 16.7 C 6.4 km/h
322 30-06-2014 11:55:00 17 C 10.71 g/m*3 17 C 8.1 km/h
323 30-06-2014 12:00:00 17.3 C 10.46 g/m*3 17.3 C 4.8 km/h
324 30-06-2014 12:05:00 17.3 C 10.16 g/m*3 17.3 C 9.7 km/h
325 30-06-2014 12:10:00 17.2 C 10.25 g/m*3 17.2 C 9.7 km/h
Sensor: Nr:Datum:Temp:Abs-Feuchte:Windchill:Wind:
Aussen-T/F 326 30-06-2014 12:15:00 17.1 C 10.34 g/m*3 17.1 C 16.1 km/h
327 30-06-2014 12:20:00 16.9 C 11.36 g/m*3 16.9 C 4.8 km/h
328 30-06-2014 12:25:00 17 C 11.58 g/m*3 17 C 3.2 km/h
329 30-06-2014 12:30:00 17.3 C 10.75 g/m*3 17.3 C 3.2 km/h
330 30-06-2014 12:35:00 17.8 C 11.08 g/m*3 17.8 C 4.8 km/h
331 30-06-2014 12:40:00 18.3 C 10.16 g/m*3 18.3 C 6.4 km/h
332 30-06-2014 12:45:00 18.7 C 11.37 g/m*3 18.7 C 1.6 km/h
333 30-06-2014 12:50:00 19.1 C 9.67 g/m*3 19.1 C 16.1 km/h
334 30-06-2014 12:55:00 19.2 C 9.73 g/m*3 19.2 C 11.3 km/h
335 30-06-2014 13:00:00 19.4 C 9.18 g/m*3 19.4 C 14.5 km/h
336 30-06-2014 13:05:00 19.7 C 9.17 g/m*3 19.7 C 12.9 km/h
337 30-06-2014 13:10:00 19.9 C 9.28 g/m*3 19.9 C 12.9 km/h
338 30-06-2014 13:15:00 20.2 C 9.79 g/m*3 20.2 C 14.5 km/h
339 30-06-2014 13:20:00 20.4 C 9.2 g/m*3 20.4 C 17.7 km/h
340 30-06-2014 13:25:00 20.6 C 9.49 g/m*3 20.6 C 17.7 km/h
341 30-06-2014 13:30:00 20.6 C 9.84 g/m*3 20.6 C 16.1 km/h
342 30-06-2014 13:35:00 20.2 C 9.62 g/m*3 20.2 C 9.7 km/h
343 30-06-2014 13:40:00 20 C 10.2 g/m*3 20 C 9.7 km/h
344 30-06-2014 13:45:00 20.1 C 9.56 g/m*3 20.1 C 12.9 km/h
345 30-06-2014 13:50:00 20.1 C 9.56 g/m*3 20.1 C 14.5 km/h
346 30-06-2014 13:55:00 20.4 C 9.73 g/m*3 20.4 C 16.1 km/h
347 30-06-2014 14:00:00 20.8 C 8.87 g/m*3 20.8 C 11.3 km/h
348 30-06-2014 14:05:00 21.2 C 8.9 g/m*3 21.2 C 11.3 km/h
349 30-06-2014 14:10:00 21.1 C 8.29 g/m*3 21.1 C 11.3 km/h
350 30-06-2014 14:15:00 20.8 C 8.33 g/m*3 20.8 C 16.1 km/h
Sensor: Nr:Datum:Temp:Abs-Feuchte:Windchill:Wind:
Aussen-T/F 351 30-06-2014 14:20:00 20.6 C 8.59 g/m*3 20.6 C 11.3 km/h
352 30-06-2014 14:25:00 20.6 C 8.59 g/m*3 20.6 C 12.9 km/h
353 30-06-2014 14:30:00 20.4 C 8.49 g/m*3 20.4 C 14.5 km/h
354 30-06-2014 14:35:00 20.1 C 8.87 g/m*3 20.1 C 11.3 km/h
355 30-06-2014 14:40:00 19.9 C 8.08 g/m*3 19.9 C 8.1 km/h
356 30-06-2014 14:45:00 19.9 C 8.93 g/m*3 19.9 C 9.7 km/h
357 30-06-2014 14:50:00 20.1 C 8.87 g/m*3 20.1 C 12.9 km/h
358 30-06-2014 14:55:00 20.8 C 9.42 g/m*3 20.8 C 12.9 km/h
359 30-06-2014 15:00:00 21.5 C 9.81 g/m*3 21.5 C 12.9 km/h
360 30-06-2014 15:05:00 21.8 C 9.59 g/m*3 21.8 C 16.1 km/h
361 30-06-2014 15:10:00 22.1 C 9.17 g/m*3 22.1 C 17.7 km/h
362 30-06-2014 15:15:00 22.1 C 9.17 g/m*3 22.1 C 20.9 km/h
363 30-06-2014 15:20:00 22 C 8.93 g/m*3 22 C 12.9 km/h
364 30-06-2014 15:25:00 21.4 C 8.44 g/m*3 21.4 C 12.9 km/h
365 30-06-2014 15:30:00 20.9 C 8.56 g/m*3 20.9 C 9.7 km/h
366 30-06-2014 15:35:00 20.8 C 9.23 g/m*3 20.8 C 17.7 km/h
367 30-06-2014 15:40:00 21 C 8.79 g/m*3 21 C 16.1 km/h
368 30-06-2014 15:45:00 20.7 C 8.82 g/m*3 20.7 C 22.5 km/h
369 30-06-2014 15:50:00 20.2 C 9.27 g/m*3 20.2 C 14.5 km/h
370 30-06-2014 15:55:00 19.9 C 9.79 g/m*3 19.9 C 14.5 km/h
371 30-06-2014 16:00:00 19.9 C 9.62 g/m*3 19.9 C 12.9 km/h
372 30-06-2014 16:05:00 19.9 C 9.45 g/m*3 19.9 C 9.7 km/h
373 30-06-2014 16:10:00 20.5 C 9.96 g/m*3 20.5 C 12.9 km/h
374 30-06-2014 16:15:00 21.1 C 9.4 g/m*3 21.1 C 14.5 km/h
375 30-06-2014 16:20:00 20.6 C 9.13 g/m*3 20.6 C 17.7 km/h
Sensor: Nr:Datum:Temp:Abs-Feuchte:Windchill:Wind:
Aussen-T/F 376 30-06-2014 16:25:00 19.9 C 9.28 g/m*3 19.9 C 14.5 km/h
377 30-06-2014 16:30:00 19.7 C 9.68 g/m*3 19.7 C 9.7 km/h
378 30-06-2014 16:35:00 19.6 C 9.62 g/m*3 19.6 C 17.7 km/h
379 30-06-2014 16:40:00 19.6 C 9.45 g/m*3 19.6 C 17.7 km/h
380 30-06-2014 16:45:00 19.7 C 9.68 g/m*3 19.7 C 17.7 km/h
381 30-06-2014 16:50:00 19.6 C 9.28 g/m*3 19.6 C 17.7 km/h
382 30-06-2014 16:55:00 19.5 C 9.23 g/m*3 19.5 C 17.7 km/h
383 30-06-2014 17:00:00 19.7 C 8.66 g/m*3 19.7 C 12.9 km/h
384 30-06-2014 17:05:00 19.6 C 9.12 g/m*3 19.6 C 14.5 km/h
385 30-06-2014 17:10:00 19.4 C 8.68 g/m*3 19.4 C 12.9 km/h
386 30-06-2014 17:15:00 19.3 C 8.29 g/m*3 19.3 C 12.9 km/h
387 30-06-2014 17:20:00 19.3 C 8.46 g/m*3 19.3 C 16.1 km/h
388 30-06-2014 17:25:00 19.3 C 8.79 g/m*3 19.3 C 14.5 km/h
389 30-06-2014 17:30:00 19.6 C 8.61 g/m*3 19.6 C 16.1 km/h
390 30-06-2014 17:35:00 19.6 C 8.44 g/m*3 19.6 C 8.1 km/h
391 30-06-2014 17:40:00 19.3 C 8.63 g/m*3 19.3 C 11.3 km/h
392 30-06-2014 17:45:00 19.3 C 8.46 g/m*3 19.3 C 8.1 km/h
393 30-06-2014 17:50:00 19.3 C 8.79 g/m*3 19.3 C 8.1 km/h
394 30-06-2014 17:55:00 19.8 C 8.71 g/m*3 19.8 C 9.7 km/h
395 30-06-2014 18:00:00 19.8 C 8.03 g/m*3 19.8 C 14.5 km/h
396 30-06-2014 18:05:00 20 C 8.99 g/m*3 20 C 11.3 km/h
397 30-06-2014 18:10:00 20.6 C 9.31 g/m*3 20.6 C 12.9 km/h
398 30-06-2014 18:15:00 20.4 C 8.67 g/m*3 20.4 C 16.1 km/h
399 30-06-2014 18:20:00 20.2 C 9.09 g/m*3 20.2 C 20.9 km/h
400 30-06-2014 18:25:00 20.3 C 8.79 g/m*3 20.3 C 17.7 km/h
Sensor: Nr:Datum:Temp:Abs-Feuchte:Windchill:Wind:
Aussen-T/F 401 30-06-2014 18:30:00 20.1 C 8.87 g/m*3 20.1 C 12.9 km/h
402 30-06-2014 18:35:00 19.7 C 8.32 g/m*3 19.7 C 11.3 km/h
403 30-06-2014 18:40:00 19.2 C 7.91 g/m*3 19.2 C 11.3 km/h
404 30-06-2014 18:45:00 18.9 C 8.26 g/m*3 18.9 C 8.1 km/h
405 30-06-2014 18:50:00 18.8 C 8.21 g/m*3 18.8 C 8.1 km/h
406 30-06-2014 18:55:00 18.7 C 8.01 g/m*3 18.7 C 6.4 km/h
407 30-06-2014 19:00:00 18.8 C 8.86 g/m*3 18.8 C 14.5 km/h
408 30-06-2014 19:05:00 18.8 C 8.7 g/m*3 18.8 C 12.9 km/h
409 30-06-2014 19:10:00 18.9 C 8.75 g/m*3 18.9 C 11.3 km/h
410 30-06-2014 19:15:00 18.8 C 8.86 g/m*3 18.8 C 8.1 km/h
411 30-06-2014 19:20:00 18.8 C 8.86 g/m*3 18.8 C 11.3 km/h
412 30-06-2014 19:25:00 18.8 C 9.02 g/m*3 18.8 C 11.3 km/h
413 30-06-2014 19:30:00 18.7 C 8.97 g/m*3 18.7 C 9.7 km/h
414 30-06-2014 19:35:00 18.6 C 9.07 g/m*3 18.6 C 14.5 km/h
415 30-06-2014 19:40:00 18.6 C 9.07 g/m*3 18.6 C 9.7 km/h
416 30-06-2014 19:45:00 18.4 C 8.81 g/m*3 18.4 C 11.3 km/h
417 30-06-2014 19:50:00 18.4 C 8.81 g/m*3 18.4 C 8.1 km/h
418 30-06-2014 19:55:00 18.3 C 9.07 g/m*3 18.3 C 12.9 km/h
419 30-06-2014 20:00:00 18.3 C 8.91 g/m*3 18.3 C 8.1 km/h
420 30-06-2014 20:05:00 18.1 C 8.81 g/m*3 18.1 C 4.8 km/h
421 30-06-2014 20:10:00 17.9 C 9.01 g/m*3 17.9 C 9.7 km/h
422 30-06-2014 20:15:00 17.7 C 8.9 g/m*3 17.7 C 9.7 km/h
423 30-06-2014 20:20:00 17.6 C 8.85 g/m*3 17.6 C 9.7 km/h
424 30-06-2014 20:25:00 17.6 C 8.7 g/m*3 17.6 C 8.1 km/h
425 30-06-2014 20:30:00 17.5 C 8.65 g/m*3 17.5 C 6.4 km/h
Sensor: Nr:Datum:Temp:Abs-Feuchte:Windchill:Wind:
Aussen-T/F 426 30-06-2014 20:35:00 17.4 C 8.89 g/m*3 17.4 C 6.4 km/h
427 30-06-2014 20:40:00 17.3 C 8.69 g/m*3 17.3 C 6.4 km/h
428 30-06-2014 20:45:00 17.2 C 8.93 g/m*3 17.2 C 6.4 km/h
429 30-06-2014 20:50:00 17.1 C 9.46 g/m*3 17.1 C 1.6 km/h
430 30-06-2014 20:55:00 17 C 9.69 g/m*3 17 C 1.6 km/h
431 30-06-2014 21:00:00 16.7 C 9.81 g/m*3 16.7 C 1.6 km/h
432 30-06-2014 21:05:00 16.3 C 9.71 g/m*3 16.3 C 0 km/h
433 30-06-2014 21:10:00 16.1 C 10.01 g/m*3 16.1 C 3.2 km/h
434 30-06-2014 21:15:00 15.8 C 9.96 g/m*3 15.8 C 0 km/h
435 30-06-2014 21:20:00 15.6 C 9.97 g/m*3 15.6 C 0 km/h
436 30-06-2014 21:25:00 15.3 C 10.19 g/m*3 15.3 C 0 km/h
437 30-06-2014 21:30:00 15.2 C 10.25 g/m*3 15.2 C 0 km/h
438 30-06-2014 21:35:00 15 C 10.13 g/m*3 15 C 0 km/h
439 30-06-2014 21:40:00 14.8 C 10.01 g/m*3 14.8 C 0 km/h
440 30-06-2014 21:45:00 14.6 C 10.01 g/m*3 14.6 C 0 km/h
441 30-06-2014 21:50:00 14.5 C 10.2 g/m*3 14.5 C 0 km/h
442 30-06-2014 21:55:00 14.3 C 10.07 g/m*3 14.3 C 0 km/h
443 30-06-2014 22:00:00 14.2 C 9.89 g/m*3 14.2 C 0 km/h
444 30-06-2014 22:05:00 14.1 C 9.95 g/m*3 14.1 C 1.6 km/h
445 30-06-2014 22:10:00 13.9 C 9.95 g/m*3 13.9 C 1.6 km/h
446 30-06-2014 22:15:00 13.7 C 9.71 g/m*3 13.7 C 1.6 km/h
447 30-06-2014 22:20:00 13.5 C 9.71 g/m*3 13.5 C 1.6 km/h
448 30-06-2014 22:25:00 13.3 C 9.47 g/m*3 13.3 C 1.6 km/h
449 30-06-2014 22:30:00 13.2 C 9.42 g/m*3 13.2 C 1.6 km/h
450 30-06-2014 22:35:00 13.1 C 9.36 g/m*3 13.1 C 0 km/h
Sensor: Nr:Datum:Temp:Abs-Feuchte:Windchill:Wind:
Aussen-T/F 451 30-06-2014 22:40:00 13.1 C 9.47 g/m*3 13.1 C 0 km/h
452 30-06-2014 22:45:00 12.9 C 9.58 g/m*3 12.9 C 1.6 km/h
453 30-06-2014 22:50:00 12.8 C 9.41 g/m*3 12.8 C 0 km/h
454 30-06-2014 22:55:00 12.8 C 9.3 g/m*3 12.8 C 0 km/h
455 30-06-2014 23:00:00 12.7 C 9.35 g/m*3 12.7 C 0 km/h
456 30-06-2014 23:05:00 12.6 C 9.29 g/m*3 12.6 C 1.6 km/h
457 30-06-2014 23:10:00 12.6 C 9.29 g/m*3 12.6 C 0 km/h
458 30-06-2014 23:15:00 12.5 C 9.35 g/m*3 12.5 C 0 km/h
459 30-06-2014 23:20:00 12.4 C 9.18 g/m*3 12.4 C 0 km/h
460 30-06-2014 23:25:00 12.3 C 9.23 g/m*3 12.3 C 0 km/h
461 30-06-2014 23:30:00 12.2 C 9.28 g/m*3 12.2 C 0 km/h
462 30-06-2014 23:35:00 12.1 C 9.22 g/m*3 12.1 C 0 km/h
463 30-06-2014 23:40:00 11.9 C 9.21 g/m*3 11.9 C 0 km/h
464 30-06-2014 23:45:00 11.9 C 9.21 g/m*3 11.9 C 0 km/h
465 30-06-2014 23:50:00 11.8 C 9.16 g/m*3 11.8 C 0 km/h
466 30-06-2014 23:55:00 11.7 C 9.1 g/m*3 11.7 C 0 km/h
467 01-07-2014 00:00:00 11.6 C 9.15 g/m*3 11.6 C 0 km/h
468 01-07-2014 00:05:00 11.4 C 9.03 g/m*3 11.4 C 0 km/h
469 01-07-2014 00:10:00 11.3 C 8.98 g/m*3 11.3 C 0 km/h
470 01-07-2014 00:15:00 11.3 C 9.08 g/m*3 11.3 C 0 km/h
471 01-07-2014 00:20:00 11.2 C 9.12 g/m*3 11.2 C 0 km/h
472 01-07-2014 00:25:00 11.2 C 9.12 g/m*3 11.2 C 0 km/h
473 01-07-2014 00:30:00 11.2 C 9.02 g/m*3 11.2 C 0 km/h
474 01-07-2014 00:35:00 11.1 C 8.86 g/m*3 11.1 C 1.6 km/h
475 01-07-2014 00:40:00 11.1 C 8.86 g/m*3 11.1 C 0 km/h
Sensor: Nr:Datum:Temp:Abs-Feuchte:Windchill:Wind:
Aussen-T/F 476 01-07-2014 00:45:00 10.9 C 8.75 g/m*3 10.9 C 0 km/h
477 01-07-2014 00:50:00 10.8 C 8.8 g/m*3 10.8 C 0 km/h
478 01-07-2014 00:55:00 10.7 C 8.74 g/m*3 10.7 C 0 km/h
479 01-07-2014 01:00:00 10.6 C 8.78 g/m*3 10.6 C 0 km/h
480 01-07-2014 01:05:00 10.5 C 8.73 g/m*3 10.5 C 0 km/h
481 01-07-2014 01:10:00 10.4 C 8.67 g/m*3 10.4 C 0 km/h
482 01-07-2014 01:15:00 10.4 C 8.67 g/m*3 10.4 C 0 km/h
483 01-07-2014 01:20:00 10.3 C 8.62 g/m*3 10.3 C 0 km/h
484 01-07-2014 01:25:00 10.3 C 8.62 g/m*3 10.3 C 0 km/h
485 01-07-2014 01:30:00 10.3 C 8.71 g/m*3 10.3 C 0 km/h
486 01-07-2014 01:35:00 10.2 C 8.66 g/m*3 10.2 C 0 km/h
487 01-07-2014 01:40:00 10.2 C 8.66 g/m*3 10.2 C 0 km/h
488 01-07-2014 01:45:00 10.2 C 8.66 g/m*3 10.2 C 0 km/h
489 01-07-2014 01:50:00 10.2 C 8.66 g/m*3 10.2 C 0 km/h
490 01-07-2014 01:55:00 10.1 C 8.7 g/m*3 10.1 C 0 km/h
491 01-07-2014 02:00:00 10.1 C 8.7 g/m*3 10.1 C 0 km/h
492 01-07-2014 02:05:00 10.1 C 8.61 g/m*3 10.1 C 1.6 km/h
493 01-07-2014 02:10:00 10 C 8.55 g/m*3 10 C 0 km/h
494 01-07-2014 02:15:00 9.9 C 8.5 g/m*3 9.9 C 0 km/h
495 01-07-2014 02:20:00 9.8 C 8.54 g/m*3 9.8 C 0 km/h
496 01-07-2014 02:25:00 9.8 C 8.54 g/m*3 9.8 C 0 km/h
497 01-07-2014 02:30:00 9.7 C 8.48 g/m*3 9.7 C 0 km/h
498 01-07-2014 02:35:00 9.7 C 8.48 g/m*3 9.7 C 1.6 km/h
499 01-07-2014 02:40:00 9.7 C 8.48 g/m*3 9.7 C 0 km/h
500 01-07-2014 02:45:00 9.7 C 8.57 g/m*3 9.7 C 0 km/h
Sensor: Nr:Datum:Temp:Abs-Feuchte:Windchill:Wind:
Aussen-T/F 501 01-07-2014 02:50:00 9.7 C 8.57 g/m*3 9.7 C 0 km/h
502 01-07-2014 02:55:00 9.7 C 8.57 g/m*3 9.7 C 0 km/h
503 01-07-2014 03:00:00 9.6 C 8.52 g/m*3 9.6 C 0 km/h
504 01-07-2014 03:05:00 9.6 C 8.52 g/m*3 9.6 C 1.6 km/h
505 01-07-2014 03:10:00 9.6 C 8.52 g/m*3 9.6 C 0 km/h
506 01-07-2014 03:15:00 9.5 C 8.47 g/m*3 9.5 C 0 km/h
507 01-07-2014 03:20:00 9.4 C 8.41 g/m*3 9.4 C 0 km/h
508 01-07-2014 03:25:00 9.4 C 8.41 g/m*3 9.4 C 0 km/h
509 01-07-2014 03:30:00 9.3 C 8.36 g/m*3 9.3 C 0 km/h
510 01-07-2014 03:35:00 9.3 C 8.36 g/m*3 9.3 C 0 km/h
511 01-07-2014 03:40:00 9.2 C 8.3 g/m*3 9.2 C 0 km/h
512 01-07-2014 03:45:00 9.2 C 8.3 g/m*3 9.2 C 0 km/h
513 01-07-2014 03:50:00 9.1 C 8.25 g/m*3 9.1 C 0 km/h
514 01-07-2014 03:55:00 9.1 C 8.25 g/m*3 9.1 C 0 km/h
515 01-07-2014 04:00:00 9 C 8.29 g/m*3 9 C 0 km/h
516 01-07-2014 04:05:00 9.1 C 8.34 g/m*3 9.1 C 0 km/h
517 01-07-2014 04:10:00 9.1 C 8.34 g/m*3 9.1 C 0 km/h
518 01-07-2014 04:15:00 9.1 C 8.34 g/m*3 9.1 C 0 km/h
519 01-07-2014 04:20:00 9 C 8.29 g/m*3 9 C 0 km/h
520 01-07-2014 04:25:00 9 C 8.29 g/m*3 9 C 0 km/h
521 01-07-2014 04:30:00 9 C 8.29 g/m*3 9 C 0 km/h
522 01-07-2014 04:35:00 8.9 C 8.23 g/m*3 8.9 C 0 km/h
523 01-07-2014 04:40:00 8.9 C 8.23 g/m*3 8.9 C 0 km/h
524 01-07-2014 04:45:00 8.8 C 8.18 g/m*3 8.8 C 0 km/h
525 01-07-2014 04:50:00 8.8 C 8.18 g/m*3 8.8 C 0 km/h
Sensor: Nr:Datum:Temp:Abs-Feuchte:Windchill:Wind:
Aussen-T/F 526 01-07-2014 04:55:00 8.8 C 8.18 g/m*3 8.8 C 0 km/h
527 01-07-2014 05:00:00 8.7 C 8.13 g/m*3 8.7 C 0 km/h
528 01-07-2014 05:05:00 8.7 C 8.22 g/m*3 8.7 C 0 km/h
529 01-07-2014 05:10:00 8.7 C 8.22 g/m*3 8.7 C 0 km/h
530 01-07-2014 05:15:00 8.7 C 8.22 g/m*3 8.7 C 0 km/h
531 01-07-2014 05:20:00 8.7 C 8.22 g/m*3 8.7 C 0 km/h
532 01-07-2014 05:25:00 8.8 C 8.27 g/m*3 8.8 C 0 km/h
533 01-07-2014 05:30:00 8.8 C 8.27 g/m*3 8.8 C 0 km/h
534 01-07-2014 05:35:00 8.8 C 8.27 g/m*3 8.8 C 0 km/h
535 01-07-2014 05:40:00 8.8 C 8.27 g/m*3 8.8 C 0 km/h
536 01-07-2014 05:45:00 8.8 C 8.27 g/m*3 8.8 C 0 km/h
537 01-07-2014 05:50:00 8.7 C 8.22 g/m*3 8.7 C 0 km/h
538 01-07-2014 05:55:00 8.7 C 8.22 g/m*3 8.7 C 0 km/h
539 01-07-2014 06:00:00 8.7 C 8.22 g/m*3 8.7 C 0 km/h
540 01-07-2014 06:05:00 8.7 C 8.22 g/m*3 8.7 C 0 km/h
541 01-07-2014 06:10:00 8.7 C 8.22 g/m*3 8.7 C 0 km/h
542 01-07-2014 06:15:00 8.7 C 8.22 g/m*3 8.7 C 0 km/h
543 01-07-2014 06:20:00 8.8 C 8.27 g/m*3 8.8 C 0 km/h
544 01-07-2014 06:25:00 8.8 C 8.27 g/m*3 8.8 C 0 km/h
545 01-07-2014 06:30:00 8.8 C 8.27 g/m*3 8.8 C 0 km/h
546 01-07-2014 06:35:00 8.8 C 8.27 g/m*3 8.8 C 0 km/h
547 01-07-2014 06:40:00 8.9 C 8.32 g/m*3 8.9 C 0 km/h
548 01-07-2014 06:45:00 8.9 C 8.32 g/m*3 8.9 C 0 km/h
549 01-07-2014 06:50:00 9.1 C 8.52 g/m*3 9.1 C 0 km/h
550 01-07-2014 06:55:00 9.2 C 8.57 g/m*3 9.2 C 0 km/h
Sensor: Nr:Datum:Temp:Abs-Feuchte:Windchill:Wind:
Aussen-T/F 551 01-07-2014 07:00:00 9.3 C 8.63 g/m*3 9.3 C 0 km/h
552 01-07-2014 07:05:00 9.4 C 8.68 g/m*3 9.4 C 0 km/h
553 01-07-2014 07:10:00 9.6 C 8.79 g/m*3 9.6 C 1.6 km/h
554 01-07-2014 07:15:00 9.7 C 8.85 g/m*3 9.7 C 0 km/h
555 01-07-2014 07:20:00 9.8 C 8.91 g/m*3 9.8 C 0 km/h
556 01-07-2014 07:25:00 9.8 C 8.91 g/m*3 9.8 C 1.6 km/h
557 01-07-2014 07:30:00 9.9 C 8.87 g/m*3 9.9 C 0 km/h
558 01-07-2014 07:35:00 10 C 8.93 g/m*3 10 C 0 km/h
559 01-07-2014 07:40:00 10 C 8.93 g/m*3 10 C 0 km/h
560 01-07-2014 07:45:00 10.1 C 8.98 g/m*3 10.1 C 0 km/h
561 01-07-2014 07:50:00 10.2 C 9.04 g/m*3 10.2 C 0 km/h
562 01-07-2014 07:55:00 10.3 C 9.1 g/m*3 10.3 C 0 km/h
563 01-07-2014 08:00:00 10.4 C 9.16 g/m*3 10.4 C 0 km/h
564 01-07-2014 08:05:00 10.8 C 9.39 g/m*3 10.8 C 0 km/h
565 01-07-2014 08:10:00 11.1 C 9.47 g/m*3 11.1 C 0 km/h
566 01-07-2014 08:15:00 11.4 C 9.55 g/m*3 11.4 C 0 km/h
567 01-07-2014 08:20:00 11.7 C 9.62 g/m*3 11.7 C 0 km/h
568 01-07-2014 08:25:00 11.9 C 9.64 g/m*3 11.9 C 0 km/h
569 01-07-2014 08:30:00 12.2 C 9.6 g/m*3 12.2 C 0 km/h
570 01-07-2014 08:35:00 12.4 C 9.83 g/m*3 12.4 C 0 km/h
571 01-07-2014 08:40:00 12.8 C 9.86 g/m*3 12.8 C 0 km/h
572 01-07-2014 08:45:00 13.1 C 9.93 g/m*3 13.1 C 0 km/h
573 01-07-2014 08:50:00 13.2 C 9.99 g/m*3 13.2 C 0 km/h
574 01-07-2014 08:55:00 13.6 C 10.12 g/m*3 13.6 C 0 km/h
575 01-07-2014 09:00:00 13.7 C 10.18 g/m*3 13.7 C 0 km/h
Sensor: Nr:Datum:Temp:Abs-Feuchte:Windchill:Wind:
Aussen-T/F 576 01-07-2014 09:05:00 14.1 C 10.32 g/m*3 14.1 C 0 km/h
577 01-07-2014 09:10:00 14.3 C 10.2 g/m*3 14.3 C 1.6 km/h
578 01-07-2014 09:15:00 14.6 C 10.14 g/m*3 14.6 C 0 km/h
579 01-07-2014 09:20:00 14.5 C 10.07 g/m*3 14.5 C 0 km/h
580 01-07-2014 09:25:00 14.5 C 10.32 g/m*3 14.5 C 0 km/h
581 01-07-2014 09:30:00 14.6 C 10.26 g/m*3 14.6 C 0 km/h
582 01-07-2014 09:35:00 14.5 C 10.07 g/m*3 14.5 C 3.2 km/h
583 01-07-2014 09:40:00 14.4 C 9.89 g/m*3 14.4 C 1.6 km/h
584 01-07-2014 09:45:00 14.4 C 9.77 g/m*3 14.4 C 1.6 km/h
585 01-07-2014 09:50:00 14.6 C 10.01 g/m*3 14.6 C 3.2 km/h
586 01-07-2014 09:55:00 15 C 9.87 g/m*3 15 C 3.2 km/h
587 01-07-2014 10:00:00 15.3 C 9.92 g/m*3 15.3 C 1.6 km/h
588 01-07-2014 10:05:00 15.8 C 9.96 g/m*3 15.8 C 3.2 km/h
589 01-07-2014 10:10:00 16 C 9.81 g/m*3 16 C 3.2 km/h
590 01-07-2014 10:15:00 16.3 C 9.99 g/m*3 16.3 C 3.2 km/h
591 01-07-2014 10:20:00 16.7 C 10.23 g/m*3 16.7 C 4.8 km/h
592 01-07-2014 10:25:00 16.9 C 10.07 g/m*3 16.9 C 4.8 km/h
593 01-07-2014 10:30:00 17.1 C 10.34 g/m*3 17.1 C 3.2 km/h
594 01-07-2014 10:35:00 17.3 C 10.46 g/m*3 17.3 C 3.2 km/h
595 01-07-2014 10:40:00 17.5 C 10.44 g/m*3 17.5 C 4.8 km/h
596 01-07-2014 10:45:00 17.7 C 10.11 g/m*3 17.7 C 1.6 km/h
597 01-07-2014 10:50:00 17.9 C 9.92 g/m*3 17.9 C 4.8 km/h
598 01-07-2014 10:55:00 18 C 9.98 g/m*3 18 C 3.2 km/h
599 01-07-2014 11:00:00 18.1 C 10.2 g/m*3 18.1 C 3.2 km/h
600 01-07-2014 11:05:00 18.2 C 10.1 g/m*3 18.2 C 4.8 km/h
Sensor: Nr:Datum:Temp:Abs-Feuchte:Windchill:Wind:
Aussen-T/F 601 01-07-2014 11:10:00 18.2 C 9.79 g/m*3 18.2 C 4.8 km/h
602 01-07-2014 11:15:00 18.4 C 10.54 g/m*3 18.4 C 1.6 km/h
603 01-07-2014 11:20:00 18.7 C 10.25 g/m*3 18.7 C 4.8 km/h
604 01-07-2014 11:25:00 18.9 C 10.04 g/m*3 18.9 C 9.7 km/h
605 01-07-2014 11:30:00 19.1 C 10.49 g/m*3 19.1 C 4.8 km/h
606 01-07-2014 11:35:00 19.2 C 10.22 g/m*3 19.2 C 4.8 km/h
607 01-07-2014 11:40:00 19.3 C 10.45 g/m*3 19.3 C 4.8 km/h
608 01-07-2014 11:45:00 19.4 C 10.18 g/m*3 19.4 C 8.1 km/h
609 01-07-2014 11:50:00 19.6 C 10.3 g/m*3 19.6 C 6.4 km/h
610 01-07-2014 11:55:00 19.7 C 10.53 g/m*3 19.7 C 4.8 km/h
611 01-07-2014 12:00:00 19.7 C 10.02 g/m*3 19.7 C 8.1 km/h
612 01-07-2014 12:05:00 19.7 C 9.85 g/m*3 19.7 C 6.4 km/h
613 01-07-2014 12:10:00 19.9 C 10.14 g/m*3 19.9 C 6.4 km/h
614 01-07-2014 12:15:00 20.1 C 10.6 g/m*3 20.1 C 4.8 km/h
615 01-07-2014 12:20:00 20.3 C 10.38 g/m*3 20.3 C 6.4 km/h
616 01-07-2014 12:25:00 20.3 C 10.02 g/m*3 20.3 C 12.9 km/h
617 01-07-2014 12:30:00 20.2 C 9.79 g/m*3 20.2 C 4.8 km/h
618 01-07-2014 12:35:00 20.3 C 10.2 g/m*3 20.3 C 6.4 km/h
619 01-07-2014 12:40:00 20.2 C 10.32 g/m*3 20.2 C 4.8 km/h
620 01-07-2014 12:45:00 20.4 C 10.08 g/m*3 20.4 C 9.7 km/h
621 01-07-2014 12:50:00 20.6 C 9.84 g/m*3 20.6 C 8.1 km/h
622 01-07-2014 12:55:00 20.7 C 9.36 g/m*3 20.7 C 9.7 km/h
623 01-07-2014 13:00:00 20.8 C 9.6 g/m*3 20.8 C 8.1 km/h
624 01-07-2014 13:05:00 21 C 9.89 g/m*3 21 C 6.4 km/h
625 01-07-2014 13:10:00 21.1 C 9.21 g/m*3 21.1 C 8.1 km/h
Sensor: Nr:Datum:Temp:Abs-Feuchte:Windchill:Wind:
Aussen-T/F 626 01-07-2014 13:15:00 21.3 C 9.88 g/m*3 21.3 C 8.1 km/h
627 01-07-2014 13:20:00 21.2 C 9.45 g/m*3 21.2 C 8.1 km/h
628 01-07-2014 13:25:00 20.7 C 9.18 g/m*3 20.7 C 11.3 km/h
629 01-07-2014 13:30:00 20.4 C 10.44 g/m*3 20.4 C 1.6 km/h
630 01-07-2014 13:35:00 20.2 C 10.14 g/m*3 20.2 C 4.8 km/h
631 01-07-2014 13:40:00 20.3 C 9.67 g/m*3 20.3 C 4.8 km/h
632 01-07-2014 13:45:00 21.1 C 9.77 g/m*3 21.1 C 6.4 km/h
633 01-07-2014 13:50:00 21.7 C 9.54 g/m*3 21.7 C 3.2 km/h
634 01-07-2014 13:55:00 21.7 C 9.54 g/m*3 21.7 C 6.4 km/h
635 01-07-2014 14:00:00 21.7 C 9.16 g/m*3 21.7 C 8.1 km/h
636 01-07-2014 14:05:00 21.5 C 8.86 g/m*3 21.5 C 6.4 km/h
637 01-07-2014 14:10:00 21.1 C 9.03 g/m*3 21.1 C 4.8 km/h
638 01-07-2014 14:15:00 20.9 C 9.47 g/m*3 20.9 C 8.1 km/h
639 01-07-2014 14:20:00 20.9 C 8.92 g/m*3 20.9 C 3.2 km/h
640 01-07-2014 14:25:00 21.3 C 9.51 g/m*3 21.3 C 8.1 km/h
641 01-07-2014 14:30:00 21.7 C 9.16 g/m*3 21.7 C 3.2 km/h
642 01-07-2014 14:35:00 22.1 C 9.37 g/m*3 22.1 C 11.3 km/h
643 01-07-2014 14:40:00 21.9 C 8.68 g/m*3 21.9 C 6.4 km/h
644 01-07-2014 14:45:00 21.4 C 9.56 g/m*3 21.4 C 3.2 km/h
645 01-07-2014 14:50:00 21.3 C 9.13 g/m*3 21.3 C 6.4 km/h
646 01-07-2014 14:55:00 21.7 C 9.35 g/m*3 21.7 C 8.1 km/h
647 01-07-2014 15:00:00 22.2 C 8.83 g/m*3 22.2 C 14.5 km/h
648 01-07-2014 15:05:00 22.6 C 9.04 g/m*3 22.6 C 4.8 km/h
649 01-07-2014 15:10:00 22.7 C 8.89 g/m*3 22.7 C 8.1 km/h
650 01-07-2014 15:15:00 22.9 C 8.79 g/m*3 22.9 C 11.3 km/h
Sensor: Nr:Datum:Temp:Abs-Feuchte:Windchill:Wind:
Aussen-T/F 651 01-07-2014 15:20:00 23.1 C 8.48 g/m*3 23.1 C 11.3 km/h
652 01-07-2014 15:25:00 22.7 C 8.49 g/m*3 22.7 C 8.1 km/h
653 01-07-2014 15:30:00 22.2 C 8.05 g/m*3 22.2 C 4.8 km/h
654 01-07-2014 15:35:00 21.9 C 7.72 g/m*3 21.9 C 4.8 km/h
655 01-07-2014 15:40:00 21.8 C 8.06 g/m*3 21.8 C 1.6 km/h
656 01-07-2014 15:45:00 22 C 8.93 g/m*3 22 C 6.4 km/h
657 01-07-2014 15:50:00 22.2 C 8.25 g/m*3 22.2 C 12.9 km/h
658 01-07-2014 15:55:00 22.1 C 8.39 g/m*3 22.1 C 11.3 km/h
659 01-07-2014 16:00:00 21.8 C 8.06 g/m*3 21.8 C 6.4 km/h
660 01-07-2014 16:05:00 21.6 C 8.53 g/m*3 21.6 C 6.4 km/h
661 01-07-2014 16:10:00 21.3 C 8.02 g/m*3 21.3 C 6.4 km/h
662 01-07-2014 16:15:00 21.2 C 8.34 g/m*3 21.2 C 8.1 km/h
663 01-07-2014 16:20:00 21.3 C 8.57 g/m*3 21.3 C 11.3 km/h
664 01-07-2014 16:25:00 21.6 C 8.16 g/m*3 21.6 C 6.4 km/h
665 01-07-2014 16:30:00 21.4 C 8.81 g/m*3 21.4 C 8.1 km/h
666 01-07-2014 16:35:00 21.2 C 8.52 g/m*3 21.2 C 4.8 km/h
667 01-07-2014 16:40:00 21.1 C 8.48 g/m*3 21.1 C 9.7 km/h
668 01-07-2014 16:45:00 21.1 C 8.29 g/m*3 21.1 C 6.4 km/h
669 01-07-2014 16:50:00 21.1 C 8.29 g/m*3 21.1 C 6.4 km/h
670 01-07-2014 16:55:00 21.1 C 8.48 g/m*3 21.1 C 9.7 km/h
671 01-07-2014 17:00:00 21.1 C 8.29 g/m*3 21.1 C 6.4 km/h
672 01-07-2014 17:05:00 20.9 C 8.2 g/m*3 20.9 C 8.1 km/h
673 01-07-2014 17:10:00 20.7 C 8.28 g/m*3 20.7 C 4.8 km/h
674 01-07-2014 17:15:00 20.5 C 8.01 g/m*3 20.5 C 8.1 km/h
675 01-07-2014 17:20:00 20.5 C 8.54 g/m*3 20.5 C 8.1 km/h
Sensor: Nr:Datum:Temp:Abs-Feuchte:Windchill:Wind:
Aussen-T/F 676 01-07-2014 17:25:00 20.6 C 8.23 g/m*3 20.6 C 9.7 km/h
677 01-07-2014 17:30:00 20.6 C 8.41 g/m*3 20.6 C 4.8 km/h
678 01-07-2014 17:35:00 20.6 C 8.23 g/m*3 20.6 C 6.4 km/h
679 01-07-2014 17:40:00 20.9 C 8.56 g/m*3 20.9 C 6.4 km/h
680 01-07-2014 17:45:00 21.2 C 8.15 g/m*3 21.2 C 9.7 km/h
681 01-07-2014 17:50:00 21.1 C 8.29 g/m*3 21.1 C 8.1 km/h
682 01-07-2014 17:55:00 20.9 C 8.56 g/m*3 20.9 C 4.8 km/h
683 01-07-2014 18:00:00 20.8 C 8.33 g/m*3 20.8 C 4.8 km/h
684 01-07-2014 18:05:00 20.7 C 8.28 g/m*3 20.7 C 4.8 km/h
685 01-07-2014 18:10:00 20.8 C 8.87 g/m*3 20.8 C 3.2 km/h
686 01-07-2014 18:15:00 20.8 C 8.51 g/m*3 20.8 C 3.2 km/h
687 01-07-2014 18:20:00 20.8 C 8.33 g/m*3 20.8 C 6.4 km/h
688 01-07-2014 18:25:00 20.6 C 8.59 g/m*3 20.6 C 4.8 km/h
689 01-07-2014 18:30:00 20.7 C 8.46 g/m*3 20.7 C 4.8 km/h
690 01-07-2014 18:35:00 20.7 C 8.46 g/m*3 20.7 C 9.7 km/h
691 01-07-2014 18:40:00 20.6 C 8.23 g/m*3 20.6 C 11.3 km/h
692 01-07-2014 18:45:00 20.6 C 8.59 g/m*3 20.6 C 4.8 km/h
693 01-07-2014 18:50:00 20.8 C 8.87 g/m*3 20.8 C 8.1 km/h
694 01-07-2014 18:55:00 21.2 C 8.34 g/m*3 21.2 C 8.1 km/h
695 01-07-2014 19:00:00 21.6 C 8.91 g/m*3 21.6 C 4.8 km/h
696 01-07-2014 19:05:00 21.8 C 8.63 g/m*3 21.8 C 6.4 km/h
697 01-07-2014 19:10:00 22.1 C 8.78 g/m*3 22.1 C 4.8 km/h
698 01-07-2014 19:15:00 22.2 C 8.83 g/m*3 22.2 C 9.7 km/h
699 01-07-2014 19:20:00 21.9 C 8.68 g/m*3 21.9 C 8.1 km/h
700 01-07-2014 19:25:00 21.7 C 8.39 g/m*3 21.7 C 8.1 km/h
Sensor: Nr:Datum:Temp:Abs-Feuchte:Windchill:Wind:
Aussen-T/F 701 01-07-2014 19:30:00 21.4 C 8.06 g/m*3 21.4 C 8.1 km/h
702 01-07-2014 19:35:00 21.3 C 8.2 g/m*3 21.3 C 9.7 km/h
703 01-07-2014 19:40:00 21.2 C 7.97 g/m*3 21.2 C 11.3 km/h
704 01-07-2014 19:45:00 21.2 C 8.15 g/m*3 21.2 C 9.7 km/h
705 01-07-2014 19:50:00 21.2 C 8.15 g/m*3 21.2 C 9.7 km/h
706 01-07-2014 19:55:00 21.1 C 8.11 g/m*3 21.1 C 11.3 km/h
707 01-07-2014 20:00:00 20.9 C 8.01 g/m*3 20.9 C 6.4 km/h
708 01-07-2014 20:05:00 20.9 C 8.38 g/m*3 20.9 C 9.7 km/h
709 01-07-2014 20:10:00 20.9 C 8.2 g/m*3 20.9 C 6.4 km/h
710 01-07-2014 20:15:00 20.8 C 8.15 g/m*3 20.8 C 6.4 km/h
711 01-07-2014 20:20:00 20.6 C 7.87 g/m*3 20.6 C 8.1 km/h
712 01-07-2014 20:25:00 20.6 C 8.23 g/m*3 20.6 C 4.8 km/h
713 01-07-2014 20:30:00 20.5 C 8.36 g/m*3 20.5 C 4.8 km/h
714 01-07-2014 20:35:00 20.5 C 8.19 g/m*3 20.5 C 6.4 km/h
715 01-07-2014 20:40:00 20.4 C 7.96 g/m*3 20.4 C 4.8 km/h
716 01-07-2014 20:45:00 20.3 C 8.27 g/m*3 20.3 C 4.8 km/h
717 01-07-2014 20:50:00 20.1 C 8.17 g/m*3 20.1 C 8.1 km/h
718 01-07-2014 20:55:00 20 C 8.12 g/m*3 20 C 6.4 km/h
719 01-07-2014 21:00:00 19.9 C 8.08 g/m*3 19.9 C 6.4 km/h
720 01-07-2014 21:05:00 19.7 C 8.15 g/m*3 19.7 C 6.4 km/h
721 01-07-2014 21:10:00 19.6 C 8.61 g/m*3 19.6 C 3.2 km/h
722 01-07-2014 21:15:00 19.3 C 8.29 g/m*3 19.3 C 3.2 km/h
723 01-07-2014 21:20:00 18.9 C 9.23 g/m*3 18.9 C 1.6 km/h
724 01-07-2014 21:25:00 18.3 C 9.07 g/m*3 18.3 C 1.6 km/h
725 01-07-2014 21:30:00 17.7 C 9.05 g/m*3 17.7 C 0 km/h
Sensor: Nr:Datum:Temp:Abs-Feuchte:Windchill:Wind:
Aussen-T/F 726 01-07-2014 21:35:00 17.3 C 8.84 g/m*3 17.3 C 3.2 km/h
727 01-07-2014 21:40:00 16.9 C 8.92 g/m*3 16.9 C 0 km/h
728 01-07-2014 21:45:00 16.5 C 8.85 g/m*3 16.5 C 0 km/h
729 01-07-2014 21:50:00 16.2 C 9.38 g/m*3 16.2 C 1.6 km/h
730 01-07-2014 21:55:00 16 C 9.54 g/m*3 16 C 0 km/h
731 01-07-2014 22:00:00 15.8 C 9.69 g/m*3 15.8 C 0 km/h
732 01-07-2014 22:05:00 15.5 C 9.39 g/m*3 15.5 C 1.6 km/h
733 01-07-2014 22:10:00 15.3 C 9.27 g/m*3 15.3 C 1.6 km/h
734 01-07-2014 22:15:00 15.1 C 9.16 g/m*3 15.1 C 3.2 km/h
735 01-07-2014 22:20:00 14.8 C 9.25 g/m*3 14.8 C 3.2 km/h
736 01-07-2014 22:25:00 14.7 C 9.07 g/m*3 14.7 C 0 km/h
737 01-07-2014 22:30:00 14.6 C 9.13 g/m*3 14.6 C 3.2 km/h
738 01-07-2014 22:35:00 14.4 C 9.02 g/m*3 14.4 C 1.6 km/h
739 01-07-2014 22:40:00 14.3 C 9.09 g/m*3 14.3 C 1.6 km/h
740 01-07-2014 22:45:00 14.2 C 9.28 g/m*3 14.2 C 0 km/h
741 01-07-2014 22:50:00 14.1 C 9.1 g/m*3 14.1 C 1.6 km/h
742 01-07-2014 22:55:00 14 C 9.05 g/m*3 14 C 1.6 km/h
743 01-07-2014 23:00:00 14 C 9.05 g/m*3 14 C 0 km/h
744 01-07-2014 23:05:00 14 C 8.93 g/m*3 14 C 1.6 km/h
745 01-07-2014 23:10:00 14 C 9.05 g/m*3 14 C 1.6 km/h
746 01-07-2014 23:15:00 13.9 C 8.99 g/m*3 13.9 C 0 km/h
747 01-07-2014 23:20:00 13.8 C 9.17 g/m*3 13.8 C 0 km/h
748 01-07-2014 23:25:00 13.7 C 9.12 g/m*3 13.7 C 0 km/h
749 01-07-2014 23:30:00 13.6 C 8.94 g/m*3 13.6 C 0 km/h
750 01-07-2014 23:35:00 13.4 C 8.83 g/m*3 13.4 C 0 km/h
Sensor: Nr:Datum:Temp:Abs-Feuchte:Windchill:Wind:
Aussen-T/F 751 01-07-2014 23:40:00 13.3 C 8.9 g/m*3 13.3 C 0 km/h
752 01-07-2014 23:45:00 13.3 C 9.01 g/m*3 13.3 C 0 km/h
753 01-07-2014 23:50:00 13.2 C 8.96 g/m*3 13.2 C 0 km/h
754 01-07-2014 23:55:00 13.1 C 8.79 g/m*3 13.1 C 0 km/h
755 02-07-2014 00:00:00 13 C 8.73 g/m*3 13 C 0 km/h
756 02-07-2014 00:05:00 13 C 8.73 g/m*3 13 C 0 km/h
757 02-07-2014 00:10:00 12.9 C 8.68 g/m*3 12.9 C 0 km/h
758 02-07-2014 00:15:00 12.8 C 8.85 g/m*3 12.8 C 0 km/h
759 02-07-2014 00:20:00 12.7 C 8.91 g/m*3 12.7 C 1.6 km/h
760 02-07-2014 00:25:00 12.6 C 8.74 g/m*3 12.6 C 0 km/h
761 02-07-2014 00:30:00 12.6 C 8.85 g/m*3 12.6 C 0 km/h
762 02-07-2014 00:35:00 12.3 C 8.69 g/m*3 12.3 C 0 km/h
763 02-07-2014 00:40:00 12.2 C 8.74 g/m*3 12.2 C 0 km/h
764 02-07-2014 00:45:00 12.1 C 8.79 g/m*3 12.1 C 0 km/h
765 02-07-2014 00:50:00 11.9 C 8.58 g/m*3 11.9 C 0 km/h
766 02-07-2014 00:55:00 11.8 C 8.63 g/m*3 11.8 C 0 km/h
767 02-07-2014 01:00:00 11.7 C 8.58 g/m*3 11.7 C 0 km/h
768 02-07-2014 01:05:00 11.5 C 8.47 g/m*3 11.5 C 0 km/h
769 02-07-2014 01:10:00 11.4 C 8.52 g/m*3 11.4 C 0 km/h
770 02-07-2014 01:15:00 11.3 C 8.47 g/m*3 11.3 C 0 km/h
771 02-07-2014 01:20:00 11.2 C 8.41 g/m*3 11.2 C 0 km/h
772 02-07-2014 01:25:00 11.1 C 8.46 g/m*3 11.1 C 0 km/h
773 02-07-2014 01:30:00 10.9 C 8.36 g/m*3 10.9 C 0 km/h
774 02-07-2014 01:35:00 10.8 C 8.4 g/m*3 10.8 C 0 km/h
775 02-07-2014 01:40:00 10.8 C 8.4 g/m*3 10.8 C 0 km/h
Sensor: Nr:Datum:Temp:Abs-Feuchte:Windchill:Wind:
Aussen-T/F 776 02-07-2014 01:45:00 10.7 C 8.35 g/m*3 10.7 C 0 km/h
777 02-07-2014 01:50:00 10.6 C 8.3 g/m*3 10.6 C 0 km/h
778 02-07-2014 01:55:00 10.6 C 8.3 g/m*3 10.6 C 0 km/h
779 02-07-2014 02:00:00 10.6 C 8.3 g/m*3 10.6 C 0 km/h
780 02-07-2014 02:05:00 10.6 C 8.3 g/m*3 10.6 C 0 km/h
781 02-07-2014 02:10:00 10.5 C 8.24 g/m*3 10.5 C 0 km/h
782 02-07-2014 02:15:00 10.5 C 8.34 g/m*3 10.5 C 0 km/h
783 02-07-2014 02:20:00 10.4 C 8.29 g/m*3 10.4 C 0 km/h
784 02-07-2014 02:25:00 10.3 C 8.24 g/m*3 10.3 C 0 km/h
785 02-07-2014 02:30:00 10.3 C 8.33 g/m*3 10.3 C 0 km/h
786 02-07-2014 02:35:00 10.2 C 8.18 g/m*3 10.2 C 0 km/h
787 02-07-2014 02:40:00 10.2 C 8.18 g/m*3 10.2 C 0 km/h
788 02-07-2014 02:45:00 10.1 C 8.13 g/m*3 10.1 C 0 km/h
789 02-07-2014 02:50:00 10.1 C 8.23 g/m*3 10.1 C 0 km/h
790 02-07-2014 02:55:00 9.9 C 8.12 g/m*3 9.9 C 0 km/h
791 02-07-2014 03:00:00 9.9 C 8.12 g/m*3 9.9 C 0 km/h
792 02-07-2014 03:05:00 9.8 C 8.16 g/m*3 9.8 C 0 km/h
793 02-07-2014 03:10:00 9.7 C 8.11 g/m*3 9.7 C 0 km/h
794 02-07-2014 03:15:00 9.7 C 8.2 g/m*3 9.7 C 0 km/h
795 02-07-2014 03:20:00 9.6 C 8.15 g/m*3 9.6 C 0 km/h
796 02-07-2014 03:25:00 9.6 C 8.15 g/m*3 9.6 C 0 km/h
797 02-07-2014 03:30:00 9.6 C 8.15 g/m*3 9.6 C 0 km/h
798 02-07-2014 03:35:00 9.5 C 8.1 g/m*3 9.5 C 0 km/h
799 02-07-2014 03:40:00 9.5 C 8.1 g/m*3 9.5 C 0 km/h
800 02-07-2014 03:45:00 9.5 C 8.1 g/m*3 9.5 C 0 km/h
Sensor: Nr:Datum:Temp:Abs-Feuchte:Windchill:Wind:
Aussen-T/F 801 02-07-2014 03:50:00 9.4 C 8.14 g/m*3 9.4 C 0 km/h
802 02-07-2014 03:55:00 9.3 C 8.09 g/m*3 9.3 C 0 km/h
803 02-07-2014 04:00:00 9.3 C 8.09 g/m*3 9.3 C 0 km/h
804 02-07-2014 04:05:00 9.3 C 8.18 g/m*3 9.3 C 0 km/h
805 02-07-2014 04:10:00 9.2 C 8.04 g/m*3 9.2 C 0 km/h
806 02-07-2014 04:15:00 9.2 C 8.13 g/m*3 9.2 C 0 km/h
807 02-07-2014 04:20:00 9.2 C 8.13 g/m*3 9.2 C 0 km/h
808 02-07-2014 04:25:00 9.1 C 8.07 g/m*3 9.1 C 0 km/h
809 02-07-2014 04:30:00 9.1 C 8.07 g/m*3 9.1 C 0 km/h
810 02-07-2014 04:35:00 9 C 8.02 g/m*3 9 C 0 km/h
811 02-07-2014 04:40:00 8.9 C 7.97 g/m*3 8.9 C 0 km/h
812 02-07-2014 04:45:00 8.9 C 8.06 g/m*3 8.9 C 0 km/h
813 02-07-2014 04:50:00 8.9 C 8.06 g/m*3 8.9 C 0 km/h
814 02-07-2014 04:55:00 8.8 C 8.01 g/m*3 8.8 C 0 km/h
815 02-07-2014 05:00:00 8.8 C 8.01 g/m*3 8.8 C 0 km/h
816 02-07-2014 05:05:00 8.8 C 8.01 g/m*3 8.8 C 0 km/h
817 02-07-2014 05:10:00 8.8 C 8.01 g/m*3 8.8 C 0 km/h
818 02-07-2014 05:15:00 8.7 C 7.96 g/m*3 8.7 C 0 km/h
819 02-07-2014 05:20:00 8.7 C 7.96 g/m*3 8.7 C 0 km/h
820 02-07-2014 05:25:00 8.7 C 7.96 g/m*3 8.7 C 0 km/h
821 02-07-2014 05:30:00 8.6 C 7.99 g/m*3 8.6 C 0 km/h
822 02-07-2014 05:35:00 8.6 C 7.99 g/m*3 8.6 C 0 km/h
823 02-07-2014 05:40:00 8.6 C 7.99 g/m*3 8.6 C 0 km/h
824 02-07-2014 05:45:00 8.6 C 7.99 g/m*3 8.6 C 0 km/h
825 02-07-2014 05:50:00 8.6 C 7.99 g/m*3 8.6 C 0 km/h
Sensor: Nr:Datum:Temp:Abs-Feuchte:Windchill:Wind:
Aussen-T/F 826 02-07-2014 05:55:00 8.6 C 7.99 g/m*3 8.6 C 0 km/h
827 02-07-2014 06:00:00 8.6 C 7.99 g/m*3 8.6 C 0 km/h
828 02-07-2014 06:05:00 8.6 C 7.99 g/m*3 8.6 C 0 km/h
829 02-07-2014 06:10:00 8.6 C 7.99 g/m*3 8.6 C 0 km/h
830 02-07-2014 06:15:00 8.6 C 7.99 g/m*3 8.6 C 0 km/h
831 02-07-2014 06:20:00 8.6 C 8.08 g/m*3 8.6 C 0 km/h
832 02-07-2014 06:25:00 8.6 C 8.08 g/m*3 8.6 C 0 km/h
833 02-07-2014 06:30:00 8.7 C 8.13 g/m*3 8.7 C 0 km/h
834 02-07-2014 06:35:00 8.7 C 8.13 g/m*3 8.7 C 0 km/h
835 02-07-2014 06:40:00 8.7 C 8.13 g/m*3 8.7 C 0 km/h
836 02-07-2014 06:45:00 8.8 C 8.18 g/m*3 8.8 C 0 km/h
837 02-07-2014 06:50:00 8.8 C 8.18 g/m*3 8.8 C 0 km/h
838 02-07-2014 06:55:00 8.9 C 8.23 g/m*3 8.9 C 0 km/h
839 02-07-2014 07:00:00 8.9 C 8.23 g/m*3 8.9 C 0 km/h
840 02-07-2014 07:05:00 9 C 8.29 g/m*3 9 C 0 km/h
841 02-07-2014 07:10:00 9.1 C 8.34 g/m*3 9.1 C 0 km/h
842 02-07-2014 07:15:00 9.2 C 8.39 g/m*3 9.2 C 0 km/h
843 02-07-2014 07:20:00 9.3 C 8.45 g/m*3 9.3 C 0 km/h
844 02-07-2014 07:25:00 9.3 C 8.45 g/m*3 9.3 C 0 km/h
845 02-07-2014 07:30:00 9.5 C 8.56 g/m*3 9.5 C 0 km/h
846 02-07-2014 07:35:00 9.6 C 8.52 g/m*3 9.6 C 1.6 km/h
847 02-07-2014 07:40:00 9.7 C 8.67 g/m*3 9.7 C 0 km/h
848 02-07-2014 07:45:00 9.8 C 8.63 g/m*3 9.8 C 0 km/h
849 02-07-2014 07:50:00 9.9 C 8.68 g/m*3 9.9 C 0 km/h
850 02-07-2014 07:55:00 10.1 C 8.79 g/m*3 10.1 C 0 km/h
Sensor: Nr:Datum:Temp:Abs-Feuchte:Windchill:Wind:
Aussen-T/F 851 02-07-2014 08:00:00 10.3 C 8.91 g/m*3 10.3 C 0 km/h
852 02-07-2014 08:05:00 10.7 C 9.13 g/m*3 10.7 C 0 km/h
853 02-07-2014 08:10:00 11.1 C 9.17 g/m*3 11.1 C 0 km/h
854 02-07-2014 08:15:00 11.5 C 9.3 g/m*3 11.5 C 0 km/h
855 02-07-2014 08:20:00 11.8 C 9.37 g/m*3 11.8 C 0 km/h
856 02-07-2014 08:25:00 12.1 C 9.44 g/m*3 12.1 C 0 km/h
857 02-07-2014 08:30:00 12.3 C 9.56 g/m*3 12.3 C 0 km/h
858 02-07-2014 08:35:00 12.8 C 9.74 g/m*3 12.8 C 0 km/h
859 02-07-2014 08:40:00 13.2 C 9.76 g/m*3 13.2 C 1.6 km/h
860 02-07-2014 08:45:00 13.6 C 9.89 g/m*3 13.6 C 3.2 km/h
861 02-07-2014 08:50:00 13.8 C 10.01 g/m*3 13.8 C 0 km/h
862 02-07-2014 08:55:00 14 C 9.89 g/m*3 14 C 0 km/h
863 02-07-2014 09:00:00 14.3 C 9.95 g/m*3 14.3 C 1.6 km/h
864 02-07-2014 09:05:00 14.4 C 9.89 g/m*3 14.4 C 0 km/h
865 02-07-2014 09:10:00 14.7 C 10.07 g/m*3 14.7 C 0 km/h
866 02-07-2014 09:15:00 14.7 C 9.95 g/m*3 14.7 C 0 km/h
867 02-07-2014 09:20:00 14.6 C 9.89 g/m*3 14.6 C 0 km/h
868 02-07-2014 09:25:00 14.4 C 9.52 g/m*3 14.4 C 1.6 km/h
869 02-07-2014 09:30:00 14.3 C 9.83 g/m*3 14.3 C 0 km/h
870 02-07-2014 09:35:00 14.3 C 9.83 g/m*3 14.3 C 1.6 km/h
871 02-07-2014 09:40:00 14.3 C 9.83 g/m*3 14.3 C 0 km/h
872 02-07-2014 09:45:00 14.4 C 9.89 g/m*3 14.4 C 3.2 km/h
873 02-07-2014 09:50:00 14.6 C 9.76 g/m*3 14.6 C 3.2 km/h
874 02-07-2014 09:55:00 14.9 C 10.2 g/m*3 14.9 C 1.6 km/h
875 02-07-2014 10:00:00 15.4 C 10.12 g/m*3 15.4 C 0 km/h
Sensor: Nr:Datum:Temp:Abs-Feuchte:Windchill:Wind:
Aussen-T/F 876 02-07-2014 10:05:00 15.9 C 10.02 g/m*3 15.9 C 4.8 km/h
877 02-07-2014 10:10:00 16.5 C 9.83 g/m*3 16.5 C 4.8 km/h
878 02-07-2014 10:15:00 16.9 C 9.78 g/m*3 16.9 C 3.2 km/h
879 02-07-2014 10:20:00 17.2 C 10.25 g/m*3 17.2 C 3.2 km/h
880 02-07-2014 10:25:00 17.5 C 10.44 g/m*3 17.5 C 1.6 km/h
881 02-07-2014 10:30:00 17.8 C 10.17 g/m*3 17.8 C 1.6 km/h
882 02-07-2014 10:35:00 18.2 C 10.26 g/m*3 18.2 C 3.2 km/h
883 02-07-2014 10:40:00 18.6 C 9.55 g/m*3 18.6 C 4.8 km/h
884 02-07-2014 10:45:00 18.9 C 10.04 g/m*3 18.9 C 4.8 km/h
885 02-07-2014 10:50:00 19.2 C 9.89 g/m*3 19.2 C 4.8 km/h
886 02-07-2014 10:55:00 19.4 C 10.01 g/m*3 19.4 C 4.8 km/h
887 02-07-2014 11:00:00 19.7 C 9.85 g/m*3 19.7 C 8.1 km/h
888 02-07-2014 11:05:00 19.8 C 9.57 g/m*3 19.8 C 6.4 km/h
889 02-07-2014 11:10:00 20 C 9.68 g/m*3 20 C 8.1 km/h
890 02-07-2014 11:15:00 20.1 C 10.08 g/m*3 20.1 C 3.2 km/h
891 02-07-2014 11:20:00 20.2 C 9.62 g/m*3 20.2 C 8.1 km/h
892 02-07-2014 11:25:00 20.3 C 9.85 g/m*3 20.3 C 6.4 km/h
893 02-07-2014 11:30:00 20.3 C 9.67 g/m*3 20.3 C 3.2 km/h
894 02-07-2014 11:35:00 20.4 C 9.55 g/m*3 20.4 C 6.4 km/h
895 02-07-2014 11:40:00 20.6 C 10.38 g/m*3 20.6 C 8.1 km/h
896 02-07-2014 11:45:00 20.7 C 10.08 g/m*3 20.7 C 8.1 km/h
897 02-07-2014 11:50:00 20.8 C 9.42 g/m*3 20.8 C 6.4 km/h
898 02-07-2014 11:55:00 20.8 C 9.78 g/m*3 20.8 C 6.4 km/h
899 02-07-2014 12:00:00 21 C 10.26 g/m*3 21 C 6.4 km/h
900 02-07-2014 12:05:00 21.3 C 9.51 g/m*3 21.3 C 8.1 km/h
Sensor: Nr:Datum:Temp:Abs-Feuchte:Windchill:Wind:
Aussen-T/F 901 02-07-2014 12:10:00 21.4 C 9.37 g/m*3 21.4 C 8.1 km/h
902 02-07-2014 12:15:00 21.4 C 9.37 g/m*3 21.4 C 9.7 km/h
903 02-07-2014 12:20:00 21.4 C 9.37 g/m*3 21.4 C 9.7 km/h
904 02-07-2014 12:25:00 21.5 C 9.62 g/m*3 21.5 C 4.8 km/h
905 02-07-2014 12:30:00 21.8 C 9.98 g/m*3 21.8 C 9.7 km/h
906 02-07-2014 12:35:00 22.1 C 9.56 g/m*3 22.1 C 9.7 km/h
907 02-07-2014 12:40:00 21.8 C 9.02 g/m*3 21.8 C 4.8 km/h
908 02-07-2014 12:45:00 21.6 C 9.48 g/m*3 21.6 C 4.8 km/h
909 02-07-2014 12:50:00 21.8 C 9.4 g/m*3 21.8 C 4.8 km/h
910 02-07-2014 12:55:00 21.9 C 9.65 g/m*3 21.9 C 4.8 km/h
911 02-07-2014 13:00:00 22.1 C 9.56 g/m*3 22.1 C 8.1 km/h
912 02-07-2014 13:05:00 22.3 C 9.48 g/m*3 22.3 C 8.1 km/h
913 02-07-2014 13:10:00 22.3 C 9.28 g/m*3 22.3 C 6.4 km/h
914 02-07-2014 13:15:00 22.3 C 9.08 g/m*3 22.3 C 9.7 km/h
915 02-07-2014 13:20:00 22.3 C 9.08 g/m*3 22.3 C 11.3 km/h
916 02-07-2014 13:25:00 22.4 C 8.94 g/m*3 22.4 C 6.4 km/h
917 02-07-2014 13:30:00 22.6 C 9.44 g/m*3 22.6 C 9.7 km/h
918 02-07-2014 13:35:00 22.7 C 10.51 g/m*3 22.7 C 9.7 km/h
919 02-07-2014 13:40:00 22.9 C 9.2 g/m*3 22.9 C 6.4 km/h
920 02-07-2014 13:45:00 23.1 C 9.1 g/m*3 23.1 C 8.1 km/h
921 02-07-2014 13:50:00 22.9 C 9.2 g/m*3 22.9 C 8.1 km/h
922 02-07-2014 13:55:00 22.8 C 9.35 g/m*3 22.8 C 12.9 km/h
923 02-07-2014 14:00:00 22.7 C 9.09 g/m*3 22.7 C 9.7 km/h
924 02-07-2014 14:05:00 22.6 C 9.44 g/m*3 22.6 C 6.4 km/h
925 02-07-2014 14:10:00 22.8 C 9.55 g/m*3 22.8 C 4.8 km/h
Sensor: Nr:Datum:Temp:Abs-Feuchte:Windchill:Wind:
Aussen-T/F 926 02-07-2014 14:15:00 23 C 9.45 g/m*3 23 C 12.9 km/h
927 02-07-2014 14:20:00 22.9 C 8.99 g/m*3 22.9 C 8.1 km/h
928 02-07-2014 14:25:00 23.1 C 9.72 g/m*3 23.1 C 12.9 km/h
929 02-07-2014 14:30:00 23.3 C 9.62 g/m*3 23.3 C 8.1 km/h
930 02-07-2014 14:35:00 23.6 C 9.78 g/m*3 23.6 C 14.5 km/h
931 02-07-2014 14:40:00 23.6 C 9.36 g/m*3 23.6 C 11.3 km/h
932 02-07-2014 14:45:00 23.7 C 9.2 g/m*3 23.7 C 8.1 km/h
933 02-07-2014 14:50:00 23.7 C 9.63 g/m*3 23.7 C 9.7 km/h
934 02-07-2014 14:55:00 23.9 C 9.95 g/m*3 23.9 C 11.3 km/h
935 02-07-2014 15:00:00 23.8 C 9.46 g/m*3 23.8 C 9.7 km/h
936 02-07-2014 15:05:00 23.7 C 9.41 g/m*3 23.7 C 12.9 km/h
937 02-07-2014 15:10:00 23.8 C 9.25 g/m*3 23.8 C 14.5 km/h
938 02-07-2014 15:15:00 23.8 C 8.82 g/m*3 23.8 C 14.5 km/h
939 02-07-2014 15:20:00 23.6 C 8.29 g/m*3 23.6 C 6.4 km/h
940 02-07-2014 15:25:00 23.7 C 8.77 g/m*3 23.7 C 9.7 km/h
941 02-07-2014 15:30:00 23.7 C 9.2 g/m*3 23.7 C 8.1 km/h
942 02-07-2014 15:35:00 23.7 C 8.98 g/m*3 23.7 C 11.3 km/h
943 02-07-2014 15:40:00 23.8 C 9.03 g/m*3 23.8 C 8.1 km/h
944 02-07-2014 15:45:00 24 C 8.7 g/m*3 24 C 11.3 km/h
945 02-07-2014 15:50:00 23.9 C 8.65 g/m*3 23.9 C 9.7 km/h
946 02-07-2014 15:55:00 24.3 C 8.41 g/m*3 24.3 C 6.4 km/h
947 02-07-2014 16:00:00 24.4 C 8.46 g/m*3 24.4 C 3.2 km/h
948 02-07-2014 16:05:00 24.4 C 8.46 g/m*3 24.4 C 8.1 km/h
949 02-07-2014 16:10:00 24.6 C 7.88 g/m*3 24.6 C 9.7 km/h
950 02-07-2014 16:15:00 24.5 C 7.83 g/m*3 24.5 C 6.4 km/h
Sensor: Nr:Datum:Temp:Abs-Feuchte:Windchill:Wind:
Aussen-T/F 951 02-07-2014 16:20:00 24.7 C 8.83 g/m*3 24.7 C 9.7 km/h
952 02-07-2014 16:25:00 25 C 8.52 g/m*3 25 C 9.7 km/h
953 02-07-2014 16:30:00 25.1 C 8.1 g/m*3 25.1 C 11.3 km/h
954 02-07-2014 16:35:00 25.1 C 8.8 g/m*3 25.1 C 11.3 km/h
955 02-07-2014 16:40:00 25.1 C 8.33 g/m*3 25.1 C 8.1 km/h
956 02-07-2014 16:45:00 25 C 7.83 g/m*3 25 C 4.8 km/h
957 02-07-2014 16:50:00 24.9 C 8.47 g/m*3 24.9 C 6.4 km/h
958 02-07-2014 16:55:00 24.7 C 8.6 g/m*3 24.7 C 6.4 km/h
959 02-07-2014 17:00:00 24.8 C 8.65 g/m*3 24.8 C 12.9 km/h
960 02-07-2014 17:05:00 24.9 C 7.55 g/m*3 24.9 C 8.1 km/h
961 02-07-2014 17:10:00 24.9 C 7.78 g/m*3 24.9 C 8.1 km/h
962 02-07-2014 17:15:00 24.9 C 7.78 g/m*3 24.9 C 9.7 km/h
963 02-07-2014 17:20:00 25 C 8.29 g/m*3 25 C 8.1 km/h
964 02-07-2014 17:25:00 25.2 C 8.85 g/m*3 25.2 C 11.3 km/h
965 02-07-2014 17:30:00 25.3 C 8.19 g/m*3 25.3 C 12.9 km/h
966 02-07-2014 17:35:00 25.2 C 8.85 g/m*3 25.2 C 6.4 km/h
967 02-07-2014 17:40:00 25.1 C 8.1 g/m*3 25.1 C 6.4 km/h
968 02-07-2014 17:45:00 25.1 C 7.64 g/m*3 25.1 C 8.1 km/h
969 02-07-2014 17:50:00 25.1 C 8.33 g/m*3 25.1 C 8.1 km/h
970 02-07-2014 17:55:00 25.4 C 7.53 g/m*3 25.4 C 8.1 km/h
971 02-07-2014 18:00:00 25.4 C 7.77 g/m*3 25.4 C 9.7 km/h
972 02-07-2014 18:05:00 25.2 C 7.68 g/m*3 25.2 C 9.7 km/h
973 02-07-2014 18:10:00 24.9 C 7.78 g/m*3 24.9 C 11.3 km/h
974 02-07-2014 18:15:00 25 C 8.29 g/m*3 25 C 4.8 km/h
975 02-07-2014 18:20:00 25.2 C 7.45 g/m*3 25.2 C 11.3 km/h
Sensor: Nr:Datum:Temp:Abs-Feuchte:Windchill:Wind:
Aussen-T/F 976 02-07-2014 18:25:00 25.1 C 7.41 g/m*3 25.1 C 8.1 km/h
977 02-07-2014 18:30:00 25.1 C 7.64 g/m*3 25.1 C 9.7 km/h
978 02-07-2014 18:35:00 24.8 C 7.97 g/m*3 24.8 C 9.7 km/h
979 02-07-2014 18:40:00 24.8 C 7.74 g/m*3 24.8 C 6.4 km/h
980 02-07-2014 18:45:00 24.7 C 7.92 g/m*3 24.7 C 6.4 km/h
981 02-07-2014 18:50:00 24.7 C 7.7 g/m*3 24.7 C 11.3 km/h
982 02-07-2014 18:55:00 24.6 C 7.65 g/m*3 24.6 C 8.1 km/h
983 02-07-2014 19:00:00 24.3 C 7.97 g/m*3 24.3 C 8.1 km/h
984 02-07-2014 19:05:00 24.3 C 7.97 g/m*3 24.3 C 9.7 km/h
985 02-07-2014 19:10:00 24.6 C 8.1 g/m*3 24.6 C 11.3 km/h
986 02-07-2014 19:15:00 24.5 C 8.06 g/m*3 24.5 C 11.3 km/h
987 02-07-2014 19:20:00 24.2 C 7.92 g/m*3 24.2 C 6.4 km/h
988 02-07-2014 19:25:00 24 C 7.83 g/m*3 24 C 9.7 km/h
989 02-07-2014 19:30:00 23.7 C 7.7 g/m*3 23.7 C 6.4 km/h
990 02-07-2014 19:35:00 23.6 C 7.44 g/m*3 23.6 C 9.7 km/h
991 02-07-2014 19:40:00 23.4 C 7.36 g/m*3 23.4 C 6.4 km/h
992 02-07-2014 19:45:00 23.4 C 7.36 g/m*3 23.4 C 11.3 km/h
993 02-07-2014 19:50:00 23.3 C 7.32 g/m*3 23.3 C 8.1 km/h
994 02-07-2014 19:55:00 23.2 C 7.48 g/m*3 23.2 C 6.4 km/h
995 02-07-2014 20:00:00 23.1 C 7.44 g/m*3 23.1 C 8.1 km/h
996 02-07-2014 20:05:00 22.9 C 7.77 g/m*3 22.9 C 6.4 km/h
997 02-07-2014 20:10:00 22.9 C 7.77 g/m*3 22.9 C 8.1 km/h
998 02-07-2014 20:15:00 22.8 C 7.92 g/m*3 22.8 C 6.4 km/h
999 02-07-2014 20:20:00 22.7 C 7.88 g/m*3 22.7 C 6.4 km/h
1000 02-07-2014 20:25:00 22.6 C 7.63 g/m*3 22.6 C 4.8 km/h
Sensor: Nr:Datum:Temp:Abs-Feuchte:Windchill:Wind:
Aussen-T/F 1001 02-07-2014 20:30:00 22.4 C 7.94 g/m*3 22.4 C 4.8 km/h
1002 02-07-2014 20:35:00 22.3 C 7.9 g/m*3 22.3 C 3.2 km/h
1003 02-07-2014 20:40:00 22.2 C 8.05 g/m*3 22.2 C 4.8 km/h
1004 02-07-2014 20:45:00 22.1 C 8.59 g/m*3 22.1 C 4.8 km/h
1005 02-07-2014 20:50:00 21.8 C 8.63 g/m*3 21.8 C 1.6 km/h
1006 02-07-2014 20:55:00 21.4 C 9 g/m*3 21.4 C 1.6 km/h
1007 02-07-2014 21:00:00 20.8 C 8.33 g/m*3 20.8 C 3.2 km/h
1008 02-07-2014 21:05:00 20.1 C 9.21 g/m*3 20.1 C 0 km/h
1009 02-07-2014 21:10:00 19.3 C 9.79 g/m*3 19.3 C 0 km/h
1010 02-07-2014 21:15:00 18.6 C 9.71 g/m*3 18.6 C 1.6 km/h
1011 02-07-2014 21:20:00 18.1 C 9.73 g/m*3 18.1 C 0 km/h
1012 02-07-2014 21:25:00 17.7 C 9.35 g/m*3 17.7 C 1.6 km/h
1013 02-07-2014 21:30:00 17.4 C 9.34 g/m*3 17.4 C 1.6 km/h
1014 02-07-2014 21:35:00 17.1 C 9.46 g/m*3 17.1 C 1.6 km/h
1015 02-07-2014 21:40:00 16.8 C 9.29 g/m*3 16.8 C 1.6 km/h
1016 02-07-2014 21:45:00 16.6 C 9.46 g/m*3 16.6 C 1.6 km/h
1017 02-07-2014 21:50:00 16.4 C 9.35 g/m*3 16.4 C 1.6 km/h
1018 02-07-2014 21:55:00 16.3 C 9.57 g/m*3 16.3 C 1.6 km/h
1019 02-07-2014 22:00:00 16.1 C 9.32 g/m*3 16.1 C 1.6 km/h
1020 02-07-2014 22:05:00 16 C 9.26 g/m*3 16 C 1.6 km/h
1021 02-07-2014 22:10:00 15.9 C 9.48 g/m*3 15.9 C 1.6 km/h
1022 02-07-2014 22:15:00 15.8 C 9.56 g/m*3 15.8 C 0 km/h
1023 02-07-2014 22:20:00 15.8 C 9.56 g/m*3 15.8 C 0 km/h
1024 02-07-2014 22:25:00 15.7 C 9.5 g/m*3 15.7 C 0 km/h
1025 02-07-2014 22:30:00 15.7 C 9.63 g/m*3 15.7 C 0 km/h
Sensor: Nr:Datum:Temp:Abs-Feuchte:Windchill:Wind:
Aussen-T/F 1026 02-07-2014 22:35:00 15.6 C 9.31 g/m*3 15.6 C 0 km/h
1027 02-07-2014 22:40:00 15.6 C 9.58 g/m*3 15.6 C 1.6 km/h
1028 02-07-2014 22:45:00 15.5 C 9.39 g/m*3 15.5 C 1.6 km/h
1029 02-07-2014 22:50:00 15.4 C 9.46 g/m*3 15.4 C 0 km/h
1030 02-07-2014 22:55:00 15.4 C 9.59 g/m*3 15.4 C 0 km/h
1031 02-07-2014 23:00:00 15.3 C 9.53 g/m*3 15.3 C 0 km/h
1032 02-07-2014 23:05:00 15.2 C 9.48 g/m*3 15.2 C 0 km/h
1033 02-07-2014 23:10:00 15.2 C 9.61 g/m*3 15.2 C 0 km/h
1034 02-07-2014 23:15:00 15.1 C 9.55 g/m*3 15.1 C 0 km/h
1035 02-07-2014 23:20:00 14.9 C 9.43 g/m*3 14.9 C 0 km/h
1036 02-07-2014 23:25:00 14.7 C 9.44 g/m*3 14.7 C 0 km/h
1037 02-07-2014 23:30:00 14.5 C 9.58 g/m*3 14.5 C 0 km/h
1038 02-07-2014 23:35:00 14.4 C 9.52 g/m*3 14.4 C 0 km/h
1039 02-07-2014 23:40:00 14.3 C 9.34 g/m*3 14.3 C 0 km/h
1040 02-07-2014 23:45:00 14.3 C 9.34 g/m*3 14.3 C 0 km/h
1041 02-07-2014 23:50:00 14.2 C 9.52 g/m*3 14.2 C 0 km/h
1042 02-07-2014 23:55:00 14.1 C 9.47 g/m*3 14.1 C 0 km/h
1043 03-07-2014 00:00:00 13.9 C 9.23 g/m*3 13.9 C 0 km/h
1044 03-07-2014 00:05:00 13.8 C 9.17 g/m*3 13.8 C 0 km/h
1045 03-07-2014 00:10:00 13.8 C 9.29 g/m*3 13.8 C 0 km/h
1046 03-07-2014 00:15:00 13.7 C 9.35 g/m*3 13.7 C 0 km/h
1047 03-07-2014 00:20:00 13.5 C 9.24 g/m*3 13.5 C 0 km/h
1048 03-07-2014 00:25:00 13.4 C 9.3 g/m*3 13.4 C 0 km/h
1049 03-07-2014 00:30:00 13.3 C 9.13 g/m*3 13.3 C 0 km/h
1050 03-07-2014 00:35:00 13.3 C 9.13 g/m*3 13.3 C 0 km/h
Sensor: Nr:Datum:Temp:Abs-Feuchte:Windchill:Wind:
Aussen-T/F 1051 03-07-2014 00:40:00 13.2 C 9.19 g/m*3 13.2 C 0 km/h
1052 03-07-2014 00:45:00 13.2 C 9.07 g/m*3 13.2 C 0 km/h
1053 03-07-2014 00:50:00 13.1 C 9.01 g/m*3 13.1 C 0 km/h
1054 03-07-2014 00:55:00 13.1 C 9.13 g/m*3 13.1 C 0 km/h
1055 03-07-2014 01:00:00 13 C 8.96 g/m*3 13 C 0 km/h
1056 03-07-2014 01:05:00 12.9 C 8.9 g/m*3 12.9 C 0 km/h
1057 03-07-2014 01:10:00 12.9 C 8.9 g/m*3 12.9 C 0 km/h
1058 03-07-2014 01:15:00 12.8 C 8.96 g/m*3 12.8 C 0 km/h
1059 03-07-2014 01:20:00 12.8 C 8.96 g/m*3 12.8 C 0 km/h
1060 03-07-2014 01:25:00 12.7 C 9.02 g/m*3 12.7 C 0 km/h
1061 03-07-2014 01:30:00 12.6 C 8.96 g/m*3 12.6 C 0 km/h
1062 03-07-2014 01:35:00 12.5 C 8.91 g/m*3 12.5 C 0 km/h
1063 03-07-2014 01:40:00 12.4 C 8.96 g/m*3 12.4 C 0 km/h
1064 03-07-2014 01:45:00 12.3 C 8.9 g/m*3 12.3 C 0 km/h
1065 03-07-2014 01:50:00 12.3 C 8.9 g/m*3 12.3 C 0 km/h
1066 03-07-2014 01:55:00 12.2 C 8.85 g/m*3 12.2 C 0 km/h
1067 03-07-2014 02:00:00 12.1 C 8.9 g/m*3 12.1 C 0 km/h
1068 03-07-2014 02:05:00 12 C 8.85 g/m*3 12 C 0 km/h
1069 03-07-2014 02:10:00 12 C 8.74 g/m*3 12 C 0 km/h
1070 03-07-2014 02:15:00 11.9 C 8.79 g/m*3 11.9 C 0 km/h
1071 03-07-2014 02:20:00 11.8 C 8.74 g/m*3 11.8 C 0 km/h
1072 03-07-2014 02:25:00 11.8 C 8.84 g/m*3 11.8 C 0 km/h
1073 03-07-2014 02:30:00 11.7 C 8.79 g/m*3 11.7 C 0 km/h
1074 03-07-2014 02:35:00 11.6 C 8.73 g/m*3 11.6 C 0 km/h
1075 03-07-2014 02:40:00 11.6 C 8.83 g/m*3 11.6 C 0 km/h
Sensor: Nr:Datum:Temp:Abs-Feuchte:Windchill:Wind:
Aussen-T/F 1076 03-07-2014 02:45:00 11.6 C 8.83 g/m*3 11.6 C 0 km/h
1077 03-07-2014 02:50:00 11.5 C 8.78 g/m*3 11.5 C 0 km/h
1078 03-07-2014 02:55:00 11.5 C 8.78 g/m*3 11.5 C 1.6 km/h
1079 03-07-2014 03:00:00 11.4 C 8.72 g/m*3 11.4 C 0 km/h
1080 03-07-2014 03:05:00 11.4 C 8.72 g/m*3 11.4 C 0 km/h
1081 03-07-2014 03:10:00 11.3 C 8.77 g/m*3 11.3 C 0 km/h
1082 03-07-2014 03:15:00 11.3 C 8.77 g/m*3 11.3 C 0 km/h
1083 03-07-2014 03:20:00 11.3 C 8.77 g/m*3 11.3 C 0 km/h
1084 03-07-2014 03:25:00 11.2 C 8.72 g/m*3 11.2 C 0 km/h
1085 03-07-2014 03:30:00 11.2 C 8.72 g/m*3 11.2 C 0 km/h
1086 03-07-2014 03:35:00 11.1 C 8.66 g/m*3 11.1 C 0 km/h
1087 03-07-2014 03:40:00 11.1 C 8.66 g/m*3 11.1 C 0 km/h
1088 03-07-2014 03:45:00 11 C 8.71 g/m*3 11 C 0 km/h
1089 03-07-2014 03:50:00 11 C 8.71 g/m*3 11 C 0 km/h
1090 03-07-2014 03:55:00 10.9 C 8.65 g/m*3 10.9 C 0 km/h
1091 03-07-2014 04:00:00 10.8 C 8.6 g/m*3 10.8 C 0 km/h
1092 03-07-2014 04:05:00 10.8 C 8.6 g/m*3 10.8 C 0 km/h
1093 03-07-2014 04:10:00 10.7 C 8.55 g/m*3 10.7 C 0 km/h
1094 03-07-2014 04:15:00 10.6 C 8.59 g/m*3 10.6 C 0 km/h
1095 03-07-2014 04:20:00 10.5 C 8.53 g/m*3 10.5 C 0 km/h
1096 03-07-2014 04:25:00 10.5 C 8.53 g/m*3 10.5 C 0 km/h
1097 03-07-2014 04:30:00 10.4 C 8.58 g/m*3 10.4 C 0 km/h
1098 03-07-2014 04:35:00 10.3 C 8.52 g/m*3 10.3 C 0 km/h
1099 03-07-2014 04:40:00 10.3 C 8.52 g/m*3 10.3 C 0 km/h
1100 03-07-2014 04:45:00 10.2 C 8.47 g/m*3 10.2 C 0 km/h
Sensor: Nr:Datum:Temp:Abs-Feuchte:Windchill:Wind:
Aussen-T/F 1101 03-07-2014 04:50:00 10.1 C 8.51 g/m*3 10.1 C 0 km/h
1102 03-07-2014 04:55:00 10.1 C 8.51 g/m*3 10.1 C 0 km/h
1103 03-07-2014 05:00:00 10.1 C 8.51 g/m*3 10.1 C 0 km/h
1104 03-07-2014 05:05:00 10 C 8.46 g/m*3 10 C 0 km/h
1105 03-07-2014 05:10:00 10 C 8.46 g/m*3 10 C 0 km/h
1106 03-07-2014 05:15:00 9.9 C 8.4 g/m*3 9.9 C 0 km/h
1107 03-07-2014 05:20:00 9.9 C 8.5 g/m*3 9.9 C 0 km/h
1108 03-07-2014 05:25:00 9.8 C 8.44 g/m*3 9.8 C 0 km/h
1109 03-07-2014 05:30:00 9.8 C 8.44 g/m*3 9.8 C 0 km/h
1110 03-07-2014 05:35:00 9.8 C 8.44 g/m*3 9.8 C 0 km/h
1111 03-07-2014 05:40:00 9.8 C 8.44 g/m*3 9.8 C 0 km/h
1112 03-07-2014 05:45:00 9.8 C 8.44 g/m*3 9.8 C 0 km/h
1113 03-07-2014 05:50:00 9.8 C 8.44 g/m*3 9.8 C 0 km/h
1114 03-07-2014 05:55:00 9.7 C 8.48 g/m*3 9.7 C 0 km/h
1115 03-07-2014 06:00:00 9.8 C 8.54 g/m*3 9.8 C 0 km/h
1116 03-07-2014 06:05:00 9.8 C 8.54 g/m*3 9.8 C 0 km/h
1117 03-07-2014 06:10:00 9.8 C 8.54 g/m*3 9.8 C 1.6 km/h
1118 03-07-2014 06:15:00 9.8 C 8.54 g/m*3 9.8 C 0 km/h
1119 03-07-2014 06:20:00 9.8 C 8.54 g/m*3 9.8 C 0 km/h
1120 03-07-2014 06:25:00 9.8 C 8.54 g/m*3 9.8 C 0 km/h
1121 03-07-2014 06:30:00 9.8 C 8.54 g/m*3 9.8 C 0 km/h
1122 03-07-2014 06:35:00 9.9 C 8.59 g/m*3 9.9 C 0 km/h
1123 03-07-2014 06:40:00 9.9 C 8.59 g/m*3 9.9 C 0 km/h
1124 03-07-2014 06:45:00 9.9 C 8.59 g/m*3 9.9 C 0 km/h
1125 03-07-2014 06:50:00 9.9 C 8.59 g/m*3 9.9 C 0 km/h
Sensor: Nr:Datum:Temp:Abs-Feuchte:Windchill:Wind:
Aussen-T/F 1126 03-07-2014 06:55:00 10 C 8.64 g/m*3 10 C 0 km/h
1127 03-07-2014 07:00:00 10.1 C 8.7 g/m*3 10.1 C 0 km/h
1128 03-07-2014 07:05:00 10.2 C 8.76 g/m*3 10.2 C 0 km/h
1129 03-07-2014 07:10:00 10.2 C 8.76 g/m*3 10.2 C 0 km/h
1130 03-07-2014 07:15:00 10.3 C 8.81 g/m*3 10.3 C 0 km/h
1131 03-07-2014 07:20:00 10.4 C 8.87 g/m*3 10.4 C 0 km/h
1132 03-07-2014 07:25:00 10.4 C 8.87 g/m*3 10.4 C 0 km/h
1133 03-07-2014 07:30:00 10.5 C 8.92 g/m*3 10.5 C 0 km/h
1134 03-07-2014 07:35:00 10.6 C 8.98 g/m*3 10.6 C 0 km/h
1135 03-07-2014 07:40:00 10.6 C 8.98 g/m*3 10.6 C 0 km/h
1136 03-07-2014 07:45:00 10.7 C 9.04 g/m*3 10.7 C 0 km/h
1137 03-07-2014 07:50:00 10.8 C 9.09 g/m*3 10.8 C 0 km/h
1138 03-07-2014 07:55:00 11.1 C 9.27 g/m*3 11.1 C 0 km/h
1139 03-07-2014 08:00:00 11.4 C 9.34 g/m*3 11.4 C 0 km/h
1140 03-07-2014 08:05:00 11.8 C 9.37 g/m*3 11.8 C 0 km/h
1141 03-07-2014 08:10:00 12.2 C 9.5 g/m*3 12.2 C 0 km/h
1142 03-07-2014 08:15:00 12.5 C 9.57 g/m*3 12.5 C 0 km/h
1143 03-07-2014 08:20:00 12.8 C 9.63 g/m*3 12.8 C 0 km/h
1144 03-07-2014 08:25:00 13.2 C 9.76 g/m*3 13.2 C 0 km/h
1145 03-07-2014 08:30:00 13.6 C 9.77 g/m*3 13.6 C 0 km/h
1146 03-07-2014 08:35:00 13.8 C 9.65 g/m*3 13.8 C 0 km/h
1147 03-07-2014 08:40:00 13.9 C 9.71 g/m*3 13.9 C 0 km/h
1148 03-07-2014 08:45:00 14.1 C 9.71 g/m*3 14.1 C 0 km/h
1149 03-07-2014 08:50:00 14.3 C 9.95 g/m*3 14.3 C 0 km/h
1150 03-07-2014 08:55:00 14.6 C 10.01 g/m*3 14.6 C 0 km/h
Sensor: Nr:Datum:Temp:Abs-Feuchte:Windchill:Wind:
Aussen-T/F 1151 03-07-2014 09:00:00 14.7 C 9.95 g/m*3 14.7 C 0 km/h
1152 03-07-2014 09:05:00 14.8 C 10.13 g/m*3 14.8 C 0 km/h
1153 03-07-2014 09:10:00 15 C 10.26 g/m*3 15 C 0 km/h
1154 03-07-2014 09:15:00 15.1 C 10.19 g/m*3 15.1 C 0 km/h
1155 03-07-2014 09:20:00 15 C 10.26 g/m*3 15 C 0 km/h
1156 03-07-2014 09:25:00 14.9 C 10.2 g/m*3 14.9 C 0 km/h
1157 03-07-2014 09:30:00 14.9 C 10.32 g/m*3 14.9 C 0 km/h
1158 03-07-2014 09:35:00 14.9 C 10.32 g/m*3 14.9 C 0 km/h
1159 03-07-2014 09:40:00 14.9 C 10.45 g/m*3 14.9 C 0 km/h
1160 03-07-2014 09:45:00 15 C 10.77 g/m*3 15 C 0 km/h
1161 03-07-2014 09:50:00 15.2 C 10.77 g/m*3 15.2 C 0 km/h
1162 03-07-2014 09:55:00 15.4 C 10.9 g/m*3 15.4 C 0 km/h
1163 03-07-2014 10:00:00 15.8 C 11.17 g/m*3 15.8 C 0 km/h
1164 03-07-2014 10:05:00 16.3 C 11.38 g/m*3 16.3 C 0 km/h
1165 03-07-2014 10:10:00 16.7 C 11.51 g/m*3 16.7 C 0 km/h
1166 03-07-2014 10:15:00 17 C 11.43 g/m*3 17 C 0 km/h
1167 03-07-2014 10:20:00 17.3 C 11.49 g/m*3 17.3 C 0 km/h
1168 03-07-2014 10:25:00 17.7 C 11.62 g/m*3 17.7 C 1.6 km/h
1169 03-07-2014 10:30:00 17.9 C 11.76 g/m*3 17.9 C 1.6 km/h
1170 03-07-2014 10:35:00 18.2 C 11.81 g/m*3 18.2 C 1.6 km/h
1171 03-07-2014 10:40:00 18.3 C 11.73 g/m*3 18.3 C 1.6 km/h
1172 03-07-2014 10:45:00 18.6 C 11.94 g/m*3 18.6 C 1.6 km/h
1173 03-07-2014 10:50:00 18.8 C 11.92 g/m*3 18.8 C 0 km/h
1174 03-07-2014 10:55:00 19.1 C 11.97 g/m*3 19.1 C 3.2 km/h
1175 03-07-2014 11:00:00 19.4 C 12.18 g/m*3 19.4 C 3.2 km/h
Sensor: Nr:Datum:Temp:Abs-Feuchte:Windchill:Wind:
Aussen-T/F 1176 03-07-2014 11:05:00 19.7 C 12.06 g/m*3 19.7 C 0 km/h
1177 03-07-2014 11:10:00 19.9 C 12.37 g/m*3 19.9 C 0 km/h
1178 03-07-2014 11:15:00 20.3 C 11.61 g/m*3 20.3 C 3.2 km/h
1179 03-07-2014 11:20:00 20.6 C 12.53 g/m*3 20.6 C 1.6 km/h
1180 03-07-2014 11:25:00 21 C 11.36 g/m*3 21 C 3.2 km/h
1181 03-07-2014 11:30:00 21.8 C 10.36 g/m*3 21.8 C 6.4 km/h
1182 03-07-2014 11:35:00 22.5 C 10.39 g/m*3 22.5 C 6.4 km/h
1183 03-07-2014 11:40:00 23.1 C 10.34 g/m*3 23.1 C 4.8 km/h
1184 03-07-2014 11:45:00 23.4 C 10.09 g/m*3 23.4 C 6.4 km/h
1185 03-07-2014 11:50:00 23.6 C 10.85 g/m*3 23.6 C 4.8 km/h
1186 03-07-2014 11:55:00 23.9 C 9.74 g/m*3 23.9 C 8.1 km/h
1187 03-07-2014 12:00:00 24.3 C 9.74 g/m*3 24.3 C 9.7 km/h
1188 03-07-2014 12:05:00 24.8 C 9.33 g/m*3 24.8 C 8.1 km/h
1189 03-07-2014 12:10:00 25.1 C 9.49 g/m*3 25.1 C 14.5 km/h
1190 03-07-2014 12:15:00 25.3 C 8.9 g/m*3 25.3 C 12.9 km/h
1191 03-07-2014 12:20:00 25.4 C 8.48 g/m*3 25.4 C 8.1 km/h
1192 03-07-2014 12:25:00 25.5 C 9.47 g/m*3 25.5 C 9.7 km/h
1193 03-07-2014 12:30:00 25.7 C 9.1 g/m*3 25.7 C 6.4 km/h
1194 03-07-2014 12:35:00 25.8 C 8.19 g/m*3 25.8 C 14.5 km/h
1195 03-07-2014 12:40:00 25.8 C 7.94 g/m*3 25.8 C 9.7 km/h
1196 03-07-2014 12:45:00 26 C 8.28 g/m*3 26 C 11.3 km/h
1197 03-07-2014 12:50:00 26.2 C 8.86 g/m*3 26.2 C 8.1 km/h
1198 03-07-2014 12:55:00 26.4 C 8.46 g/m*3 26.4 C 14.5 km/h
1199 03-07-2014 13:00:00 26.6 C 8.31 g/m*3 26.6 C 11.3 km/h
1200 03-07-2014 13:05:00 26.7 C 8.61 g/m*3 26.7 C 12.9 km/h
Sensor: Nr:Datum:Temp:Abs-Feuchte:Windchill:Wind:
Aussen-T/F 1201 03-07-2014 13:10:00 26.8 C 8.65 g/m*3 26.8 C 11.3 km/h
1202 03-07-2014 13:15:00 26.8 C 8.91 g/m*3 26.8 C 8.1 km/h
1203 03-07-2014 13:20:00 27.1 C 8.54 g/m*3 27.1 C 8.1 km/h
1204 03-07-2014 13:25:00 26.9 C 8.96 g/m*3 26.9 C 14.5 km/h
1205 03-07-2014 13:30:00 26.9 C 8.96 g/m*3 26.9 C 11.3 km/h
1206 03-07-2014 13:35:00 27.1 C 9.32 g/m*3 27.1 C 9.7 km/h
1207 03-07-2014 13:40:00 27.3 C 8.9 g/m*3 27.3 C 12.9 km/h
1208 03-07-2014 13:45:00 27.3 C 9.16 g/m*3 27.3 C 9.7 km/h
1209 03-07-2014 13:50:00 27.4 C 9.21 g/m*3 27.4 C 8.1 km/h
1210 03-07-2014 13:55:00 27.6 C 8.51 g/m*3 27.6 C 12.9 km/h
1211 03-07-2014 14:00:00 27.6 C 8.51 g/m*3 27.6 C 8.1 km/h
1212 03-07-2014 14:05:00 27.7 C 8.83 g/m*3 27.7 C 11.3 km/h
1213 03-07-2014 14:10:00 27.7 C 8.83 g/m*3 27.7 C 19.3 km/h
1214 03-07-2014 14:15:00 27.8 C 9.41 g/m*3 27.8 C 4.8 km/h
1215 03-07-2014 14:20:00 28 C 10.06 g/m*3 28 C 9.7 km/h
1216 03-07-2014 14:25:00 28.1 C 8.48 g/m*3 28.1 C 16.1 km/h
1217 03-07-2014 14:30:00 28.1 C 8.75 g/m*3 28.1 C 16.1 km/h
1218 03-07-2014 14:35:00 28.1 C 9.02 g/m*3 28.1 C 12.9 km/h
1219 03-07-2014 14:40:00 28.3 C 8.85 g/m*3 28.3 C 9.7 km/h
1220 03-07-2014 14:45:00 28.6 C 8.71 g/m*3 28.6 C 16.1 km/h
1221 03-07-2014 14:50:00 28.7 C 8.19 g/m*3 28.7 C 8.1 km/h
1222 03-07-2014 14:55:00 28.8 C 8.81 g/m*3 28.8 C 9.7 km/h
1223 03-07-2014 15:00:00 29.1 C 8.66 g/m*3 29.1 C 6.4 km/h
1224 03-07-2014 15:05:00 28.9 C 8.86 g/m*3 28.9 C 12.9 km/h
1225 03-07-2014 15:10:00 28.6 C 8.43 g/m*3 28.6 C 14.5 km/h
Sensor: Nr:Datum:Temp:Abs-Feuchte:Windchill:Wind:
Aussen-T/F 1226 03-07-2014 15:15:00 28.9 C 8.57 g/m*3 28.9 C 12.9 km/h
1227 03-07-2014 15:20:00 29.1 C 8.38 g/m*3 29.1 C 12.9 km/h
1228 03-07-2014 15:25:00 29.1 C 8.09 g/m*3 29.1 C 12.9 km/h
1229 03-07-2014 15:30:00 29 C 7.76 g/m*3 29 C 16.1 km/h
1230 03-07-2014 15:35:00 29.2 C 7.55 g/m*3 29.2 C 14.5 km/h
1231 03-07-2014 15:40:00 29.4 C 7.63 g/m*3 29.4 C 11.3 km/h
1232 03-07-2014 15:45:00 29.5 C 7.97 g/m*3 29.5 C 12.9 km/h
1233 03-07-2014 15:50:00 29.5 C 8.26 g/m*3 29.5 C 8.1 km/h
1234 03-07-2014 15:55:00 29.7 C 8.06 g/m*3 29.7 C 14.5 km/h
1235 03-07-2014 16:00:00 29.7 C 8.35 g/m*3 29.7 C 12.9 km/h
1236 03-07-2014 16:05:00 29.8 C 8.1 g/m*3 29.8 C 11.3 km/h
1237 03-07-2014 16:10:00 29.9 C 7.54 g/m*3 29.9 C 12.9 km/h
1238 03-07-2014 16:15:00 30 C 8.19 g/m*3 30 C 9.7 km/h
1239 03-07-2014 16:20:00 30.2 C 7.97 g/m*3 30.2 C 14.5 km/h
1240 03-07-2014 16:25:00 29.9 C 7.24 g/m*3 29.9 C 16.1 km/h
1241 03-07-2014 16:30:00 30 C 8.19 g/m*3 30 C 6.4 km/h
1242 03-07-2014 16:35:00 29.9 C 7.24 g/m*3 29.9 C 8.1 km/h
1243 03-07-2014 16:40:00 30.1 C 7.62 g/m*3 30.1 C 17.7 km/h
1244 03-07-2014 16:45:00 30.1 C 7.62 g/m*3 30.1 C 14.5 km/h
1245 03-07-2014 16:50:00 29.9 C 7.84 g/m*3 29.9 C 9.7 km/h
1246 03-07-2014 16:55:00 30.1 C 7.93 g/m*3 30.1 C 11.3 km/h
1247 03-07-2014 17:00:00 30.1 C 7.93 g/m*3 30.1 C 14.5 km/h
1248 03-07-2014 17:05:00 30.3 C 8.32 g/m*3 30.3 C 9.7 km/h
1249 03-07-2014 17:10:00 30.5 C 8.1 g/m*3 30.5 C 8.1 km/h
1250 03-07-2014 17:15:00 30.6 C 8.14 g/m*3 30.6 C 11.3 km/h
Sensor: Nr:Datum:Temp:Abs-Feuchte:Windchill:Wind:
Aussen-T/F 1251 03-07-2014 17:20:00 30.5 C 7.79 g/m*3 30.5 C 12.9 km/h
1252 03-07-2014 17:25:00 30.5 C 7.48 g/m*3 30.5 C 9.7 km/h
1253 03-07-2014 17:30:00 30.2 C 7.66 g/m*3 30.2 C 6.4 km/h
1254 03-07-2014 17:35:00 30.3 C 8.01 g/m*3 30.3 C 6.4 km/h
1255 03-07-2014 17:40:00 30.3 C 8.01 g/m*3 30.3 C 8.1 km/h
1256 03-07-2014 17:45:00 30.5 C 8.1 g/m*3 30.5 C 12.9 km/h
1257 03-07-2014 17:50:00 30.8 C 7.6 g/m*3 30.8 C 9.7 km/h
1258 03-07-2014 17:55:00 31.1 C 8.04 g/m*3 31.1 C 12.9 km/h
1259 03-07-2014 18:00:00 31.2 C 7.76 g/m*3 31.2 C 8.1 km/h
1260 03-07-2014 18:05:00 30.9 C 7.32 g/m*3 30.9 C 17.7 km/h
1261 03-07-2014 18:10:00 30.7 C 7.56 g/m*3 30.7 C 9.7 km/h
1262 03-07-2014 18:15:00 30.6 C 6.89 g/m*3 30.6 C 14.5 km/h
1263 03-07-2014 18:20:00 30.8 C 7.28 g/m*3 30.8 C 9.7 km/h
1264 03-07-2014 18:25:00 30.8 C 6.97 g/m*3 30.8 C 9.7 km/h
1265 03-07-2014 18:30:00 30.8 C 7.28 g/m*3 30.8 C 9.7 km/h
1266 03-07-2014 18:35:00 30.7 C 6.61 g/m*3 30.7 C 14.5 km/h
1267 03-07-2014 18:40:00 30.7 C 6.61 g/m*3 30.7 C 14.5 km/h
1268 03-07-2014 18:45:00 30.4 C 6.82 g/m*3 30.4 C 14.5 km/h
1269 03-07-2014 18:50:00 30.3 C 7.09 g/m*3 30.3 C 9.7 km/h
1270 03-07-2014 18:55:00 30.3 C 6.78 g/m*3 30.3 C 11.3 km/h
1271 03-07-2014 19:00:00 30.3 C 7.4 g/m*3 30.3 C 9.7 km/h
1272 03-07-2014 19:05:00 30.3 C 7.09 g/m*3 30.3 C 9.7 km/h
1273 03-07-2014 19:10:00 30.3 C 7.4 g/m*3 30.3 C 16.1 km/h
1274 03-07-2014 19:15:00 30.2 C 7.36 g/m*3 30.2 C 9.7 km/h
1275 03-07-2014 19:20:00 30.1 C 8.23 g/m*3 30.1 C 6.4 km/h
Sensor: Nr:Datum:Temp:Abs-Feuchte:Windchill:Wind:
Aussen-T/F 1276 03-07-2014 19:25:00 29.8 C 7.5 g/m*3 29.8 C 11.3 km/h
1277 03-07-2014 19:30:00 29.6 C 7.12 g/m*3 29.6 C 11.3 km/h
1278 03-07-2014 19:35:00 29.3 C 7.01 g/m*3 29.3 C 9.7 km/h
1279 03-07-2014 19:40:00 29 C 6.89 g/m*3 29 C 14.5 km/h
1280 03-07-2014 19:45:00 28.8 C 7.39 g/m*3 28.8 C 12.9 km/h
1281 03-07-2014 19:50:00 28.6 C 7.03 g/m*3 28.6 C 9.7 km/h
1282 03-07-2014 19:55:00 28.4 C 7.78 g/m*3 28.4 C 9.7 km/h
1283 03-07-2014 20:00:00 28.3 C 7.46 g/m*3 28.3 C 6.4 km/h
1284 03-07-2014 20:05:00 28.1 C 7.38 g/m*3 28.1 C 12.9 km/h
1285 03-07-2014 20:10:00 28 C 7.89 g/m*3 28 C 8.1 km/h
1286 03-07-2014 20:15:00 27.8 C 7.26 g/m*3 27.8 C 3.2 km/h
1287 03-07-2014 20:20:00 27.7 C 7.49 g/m*3 27.7 C 8.1 km/h
1288 03-07-2014 20:25:00 27.4 C 8.16 g/m*3 27.4 C 6.4 km/h
1289 03-07-2014 20:30:00 27.2 C 8.33 g/m*3 27.2 C 3.2 km/h
1290 03-07-2014 20:35:00 26.8 C 9.42 g/m*3 26.8 C 1.6 km/h
1291 03-07-2014 20:40:00 26.2 C 10.09 g/m*3 26.2 C 0 km/h
1292 03-07-2014 20:45:00 25.6 C 10.24 g/m*3 25.6 C 1.6 km/h
1293 03-07-2014 20:50:00 25 C 9.67 g/m*3 25 C 0 km/h
1294 03-07-2014 20:55:00 24.4 C 10.24 g/m*3 24.4 C 0 km/h
1295 03-07-2014 21:00:00 23.9 C 9.95 g/m*3 23.9 C 1.6 km/h
1296 03-07-2014 21:05:00 23.5 C 10.15 g/m*3 23.5 C 1.6 km/h
1297 03-07-2014 21:10:00 23.1 C 10.34 g/m*3 23.1 C 1.6 km/h
1298 03-07-2014 21:15:00 22.7 C 10.1 g/m*3 22.7 C 3.2 km/h
1299 03-07-2014 21:20:00 22.3 C 9.87 g/m*3 22.3 C 3.2 km/h
1300 03-07-2014 21:25:00 22.1 C 9.96 g/m*3 22.1 C 3.2 km/h
Sensor: Nr:Datum:Temp:Abs-Feuchte:Windchill:Wind:
Aussen-T/F 1301 03-07-2014 21:30:00 21.8 C 9.78 g/m*3 21.8 C 1.6 km/h
1302 03-07-2014 21:35:00 21.6 C 9.67 g/m*3 21.6 C 1.6 km/h
1303 03-07-2014 21:40:00 21.5 C 9.81 g/m*3 21.5 C 1.6 km/h
1304 03-07-2014 21:45:00 21.3 C 9.69 g/m*3 21.3 C 3.2 km/h
1305 03-07-2014 21:50:00 21.2 C 9.82 g/m*3 21.2 C 1.6 km/h
1306 03-07-2014 21:55:00 21 C 9.71 g/m*3 21 C 3.2 km/h
1307 03-07-2014 22:00:00 20.9 C 9.83 g/m*3 20.9 C 1.6 km/h
1308 03-07-2014 22:05:00 20.7 C 9.54 g/m*3 20.7 C 1.6 km/h
1309 03-07-2014 22:10:00 20.6 C 9.66 g/m*3 20.6 C 1.6 km/h
1310 03-07-2014 22:15:00 20.4 C 9.73 g/m*3 20.4 C 1.6 km/h
1311 03-07-2014 22:20:00 20.3 C 10.2 g/m*3 20.3 C 1.6 km/h
1312 03-07-2014 22:25:00 20.2 C 9.79 g/m*3 20.2 C 0 km/h
1313 03-07-2014 22:30:00 19.9 C 10.14 g/m*3 19.9 C 0 km/h
1314 03-07-2014 22:35:00 19.7 C 10.02 g/m*3 19.7 C 0 km/h
1315 03-07-2014 22:40:00 19.3 C 9.95 g/m*3 19.3 C 0 km/h
1316 03-07-2014 22:45:00 19.2 C 10.06 g/m*3 19.2 C 0 km/h
1317 03-07-2014 22:50:00 19.1 C 9.84 g/m*3 19.1 C 3.2 km/h
1318 03-07-2014 22:55:00 19.2 C 9.73 g/m*3 19.2 C 6.4 km/h
1319 03-07-2014 23:00:00 19.2 C 10.22 g/m*3 19.2 C 3.2 km/h
1320 03-07-2014 23:05:00 19.1 C 10.16 g/m*3 19.1 C 3.2 km/h
1321 03-07-2014 23:10:00 19.1 C 9.67 g/m*3 19.1 C 4.8 km/h
1322 03-07-2014 23:15:00 19 C 9.94 g/m*3 19 C 1.6 km/h
1323 03-07-2014 23:20:00 18.8 C 9.99 g/m*3 18.8 C 0 km/h
1324 03-07-2014 23:25:00 18.4 C 9.91 g/m*3 18.4 C 0 km/h
1325 03-07-2014 23:30:00 18.1 C 10.04 g/m*3 18.1 C 0 km/h
Sensor: Nr:Datum:Temp:Abs-Feuchte:Windchill:Wind:
Aussen-T/F 1326 03-07-2014 23:35:00 17.8 C 9.71 g/m*3 17.8 C 0 km/h
1327 03-07-2014 23:40:00 17.8 C 9.87 g/m*3 17.8 C 0 km/h
1328 03-07-2014 23:45:00 17.7 C 9.96 g/m*3 17.7 C 0 km/h
1329 03-07-2014 23:50:00 17.6 C 9.9 g/m*3 17.6 C 0 km/h
1330 03-07-2014 23:55:00 17.4 C 10.08 g/m*3 17.4 C 0 km/h
1331 04-07-2014 00:00:00 17.3 C 9.87 g/m*3 17.3 C 0 km/h
1332 04-07-2014 00:05:00 17.2 C 9.81 g/m*3 17.2 C 0 km/h
1333 04-07-2014 00:10:00 17.1 C 9.9 g/m*3 17.1 C 0 km/h
1334 04-07-2014 00:15:00 17.1 C 9.75 g/m*3 17.1 C 0 km/h
1335 04-07-2014 00:20:00 17 C 9.84 g/m*3 17 C 0 km/h
1336 04-07-2014 00:25:00 16.9 C 9.78 g/m*3 16.9 C 0 km/h
1337 04-07-2014 00:30:00 16.9 C 9.92 g/m*3 16.9 C 0 km/h
1338 04-07-2014 00:35:00 16.8 C 10.01 g/m*3 16.8 C 0 km/h
1339 04-07-2014 00:40:00 16.7 C 9.81 g/m*3 16.7 C 0 km/h
1340 04-07-2014 00:45:00 16.6 C 9.75 g/m*3 16.6 C 0 km/h
1341 04-07-2014 00:50:00 16.5 C 9.69 g/m*3 16.5 C 0 km/h
1342 04-07-2014 00:55:00 16.3 C 9.71 g/m*3 16.3 C 0 km/h
1343 04-07-2014 01:00:00 16.3 C 9.85 g/m*3 16.3 C 0 km/h
1344 04-07-2014 01:05:00 16.1 C 9.73 g/m*3 16.1 C 0 km/h
1345 04-07-2014 01:10:00 16.1 C 9.73 g/m*3 16.1 C 0 km/h
1346 04-07-2014 01:15:00 15.9 C 9.75 g/m*3 15.9 C 0 km/h
1347 04-07-2014 01:20:00 15.9 C 9.75 g/m*3 15.9 C 0 km/h
1348 04-07-2014 01:25:00 15.8 C 9.69 g/m*3 15.8 C 0 km/h
1349 04-07-2014 01:30:00 15.7 C 9.77 g/m*3 15.7 C 0 km/h
1350 04-07-2014 01:35:00 15.6 C 9.71 g/m*3 15.6 C 0 km/h
Sensor: Nr:Datum:Temp:Abs-Feuchte:Windchill:Wind:
Aussen-T/F 1351 04-07-2014 01:40:00 15.4 C 9.72 g/m*3 15.4 C 0 km/h
1352 04-07-2014 01:45:00 15.3 C 9.79 g/m*3 15.3 C 0 km/h
1353 04-07-2014 01:50:00 15.2 C 9.73 g/m*3 15.2 C 0 km/h
1354 04-07-2014 01:55:00 15.1 C 9.68 g/m*3 15.1 C 0 km/h
1355 04-07-2014 02:00:00 15 C 9.62 g/m*3 15 C 0 km/h
1356 04-07-2014 02:05:00 14.9 C 9.56 g/m*3 14.9 C 0 km/h
1357 04-07-2014 02:10:00 14.8 C 9.5 g/m*3 14.8 C 0 km/h
1358 04-07-2014 02:15:00 14.8 C 9.63 g/m*3 14.8 C 0 km/h
1359 04-07-2014 02:20:00 14.7 C 9.57 g/m*3 14.7 C 0 km/h
1360 04-07-2014 02:25:00 14.6 C 9.64 g/m*3 14.6 C 0 km/h
1361 04-07-2014 02:30:00 14.6 C 9.64 g/m*3 14.6 C 0 km/h
1362 04-07-2014 02:35:00 14.4 C 9.52 g/m*3 14.4 C 0 km/h
1363 04-07-2014 02:40:00 14.3 C 9.58 g/m*3 14.3 C 0 km/h
1364 04-07-2014 02:45:00 14.3 C 9.58 g/m*3 14.3 C 0 km/h
1365 04-07-2014 02:50:00 14.3 C 9.58 g/m*3 14.3 C 0 km/h
1366 04-07-2014 02:55:00 14.3 C 9.71 g/m*3 14.3 C 0 km/h
1367 04-07-2014 03:00:00 14.2 C 9.52 g/m*3 14.2 C 0 km/h
1368 04-07-2014 03:05:00 14.2 C 9.65 g/m*3 14.2 C 0 km/h
1369 04-07-2014 03:10:00 14.2 C 9.77 g/m*3 14.2 C 0 km/h
1370 04-07-2014 03:15:00 14 C 9.65 g/m*3 14 C 0 km/h
1371 04-07-2014 03:20:00 13.8 C 9.65 g/m*3 13.8 C 0 km/h
1372 04-07-2014 03:25:00 13.8 C 9.65 g/m*3 13.8 C 0 km/h
1373 04-07-2014 03:30:00 13.7 C 9.59 g/m*3 13.7 C 0 km/h
1374 04-07-2014 03:35:00 13.6 C 9.53 g/m*3 13.6 C 0 km/h
1375 04-07-2014 03:40:00 13.5 C 9.47 g/m*3 13.5 C 0 km/h
Sensor: Nr:Datum:Temp:Abs-Feuchte:Windchill:Wind:
Aussen-T/F 1376 04-07-2014 03:45:00 13.5 C 9.47 g/m*3 13.5 C 0 km/h
1377 04-07-2014 03:50:00 13.4 C 9.53 g/m*3 13.4 C 0 km/h
1378 04-07-2014 03:55:00 13.4 C 9.53 g/m*3 13.4 C 0 km/h
1379 04-07-2014 04:00:00 13.4 C 9.53 g/m*3 13.4 C 0 km/h
1380 04-07-2014 04:05:00 13.3 C 9.47 g/m*3 13.3 C 0 km/h
1381 04-07-2014 04:10:00 13.3 C 9.59 g/m*3 13.3 C 0 km/h
1382 04-07-2014 04:15:00 13.3 C 9.59 g/m*3 13.3 C 0 km/h
1383 04-07-2014 04:20:00 13.3 C 9.59 g/m*3 13.3 C 3.2 km/h
1384 04-07-2014 04:25:00 13.4 C 9.65 g/m*3 13.4 C 0 km/h
1385 04-07-2014 04:30:00 13.3 C 9.59 g/m*3 13.3 C 0 km/h
1386 04-07-2014 04:35:00 13.3 C 9.59 g/m*3 13.3 C 0 km/h
1387 04-07-2014 04:40:00 13.2 C 9.53 g/m*3 13.2 C 1.6 km/h
1388 04-07-2014 04:45:00 13.1 C 9.59 g/m*3 13.1 C 0 km/h
1389 04-07-2014 04:50:00 13.1 C 9.59 g/m*3 13.1 C 0 km/h
1390 04-07-2014 04:55:00 13 C 9.53 g/m*3 13 C 0 km/h
1391 04-07-2014 05:00:00 12.9 C 9.47 g/m*3 12.9 C 0 km/h
1392 04-07-2014 05:05:00 12.9 C 9.47 g/m*3 12.9 C 0 km/h
1393 04-07-2014 05:10:00 12.8 C 9.52 g/m*3 12.8 C 0 km/h
1394 04-07-2014 05:15:00 12.7 C 9.46 g/m*3 12.7 C 0 km/h
1395 04-07-2014 05:20:00 12.7 C 9.57 g/m*3 12.7 C 0 km/h
1396 04-07-2014 05:25:00 12.6 C 9.51 g/m*3 12.6 C 0 km/h
1397 04-07-2014 05:30:00 12.5 C 9.57 g/m*3 12.5 C 1.6 km/h
1398 04-07-2014 05:35:00 12.4 C 9.51 g/m*3 12.4 C 0 km/h
1399 04-07-2014 05:40:00 12.4 C 9.51 g/m*3 12.4 C 0 km/h
1400 04-07-2014 05:45:00 12.4 C 9.51 g/m*3 12.4 C 0 km/h
Sensor: Nr:Datum:Temp:Abs-Feuchte:Windchill:Wind:
Aussen-T/F 1401 04-07-2014 05:50:00 12.3 C 9.45 g/m*3 12.3 C 0 km/h
1402 04-07-2014 05:55:00 12.3 C 9.45 g/m*3 12.3 C 0 km/h
1403 04-07-2014 06:00:00 12.3 C 9.45 g/m*3 12.3 C 0 km/h
1404 04-07-2014 06:05:00 12.3 C 9.56 g/m*3 12.3 C 0 km/h
1405 04-07-2014 06:10:00 12.3 C 9.56 g/m*3 12.3 C 0 km/h
1406 04-07-2014 06:15:00 12.3 C 9.56 g/m*3 12.3 C 0 km/h
1407 04-07-2014 06:20:00 12.2 C 9.5 g/m*3 12.2 C 0 km/h
1408 04-07-2014 06:25:00 12.2 C 9.5 g/m*3 12.2 C 0 km/h
1409 04-07-2014 06:30:00 12.3 C 9.66 g/m*3 12.3 C 0 km/h
1410 04-07-2014 06:35:00 12.3 C 9.66 g/m*3 12.3 C 0 km/h
1411 04-07-2014 06:40:00 12.3 C 9.66 g/m*3 12.3 C 0 km/h
1412 04-07-2014 06:45:00 12.3 C 9.66 g/m*3 12.3 C 0 km/h
1413 04-07-2014 06:50:00 12.4 C 9.62 g/m*3 12.4 C 0 km/h
1414 04-07-2014 06:55:00 12.5 C 9.68 g/m*3 12.5 C 0 km/h
1415 04-07-2014 07:00:00 12.6 C 9.85 g/m*3 12.6 C 0 km/h
1416 04-07-2014 07:05:00 12.6 C 9.85 g/m*3 12.6 C 0 km/h
1417 04-07-2014 07:10:00 12.7 C 9.91 g/m*3 12.7 C 0 km/h
1418 04-07-2014 07:15:00 12.7 C 9.8 g/m*3 12.7 C 0 km/h
1419 04-07-2014 07:20:00 12.8 C 9.97 g/m*3 12.8 C 0 km/h
1420 04-07-2014 07:25:00 12.9 C 10.03 g/m*3 12.9 C 0 km/h
1421 04-07-2014 07:30:00 13 C 9.98 g/m*3 13 C 0 km/h
1422 04-07-2014 07:35:00 13.1 C 10.16 g/m*3 13.1 C 0 km/h
1423 04-07-2014 07:40:00 13.2 C 10.1 g/m*3 13.2 C 0 km/h
1424 04-07-2014 07:45:00 13.3 C 10.28 g/m*3 13.3 C 0 km/h
1425 04-07-2014 07:50:00 13.4 C 10.23 g/m*3 13.4 C 0 km/h
Sensor: Nr:Datum:Temp:Abs-Feuchte:Windchill:Wind:
Aussen-T/F 1426 04-07-2014 07:55:00 13.7 C 10.3 g/m*3 13.7 C 0 km/h
1427 04-07-2014 08:00:00 14.1 C 10.56 g/m*3 14.1 C 0 km/h
1428 04-07-2014 08:05:00 14.4 C 10.51 g/m*3 14.4 C 0 km/h
1429 04-07-2014 08:10:00 14.8 C 10.77 g/m*3 14.8 C 0 km/h
1430 04-07-2014 08:15:00 15.2 C 10.9 g/m*3 15.2 C 0 km/h
1431 04-07-2014 08:20:00 15.6 C 10.77 g/m*3 15.6 C 0 km/h
1432 04-07-2014 08:25:00 15.9 C 10.83 g/m*3 15.9 C 0 km/h
1433 04-07-2014 08:30:00 16.2 C 10.89 g/m*3 16.2 C 0 km/h
1434 04-07-2014 08:35:00 16.5 C 10.95 g/m*3 16.5 C 0 km/h
1435 04-07-2014 08:40:00 16.8 C 11.15 g/m*3 16.8 C 0 km/h
1436 04-07-2014 08:45:00 17.2 C 11.13 g/m*3 17.2 C 0 km/h
1437 04-07-2014 08:50:00 17.3 C 11.2 g/m*3 17.3 C 0 km/h
1438 04-07-2014 08:55:00 17.5 C 11.18 g/m*3 17.5 C 0 km/h
1439 04-07-2014 09:00:00 17.6 C 11.1 g/m*3 17.6 C 0 km/h
1440 04-07-2014 09:05:00 17.8 C 11.23 g/m*3 17.8 C 0 km/h
1441 04-07-2014 09:10:00 17.9 C 11.3 g/m*3 17.9 C 0 km/h
1442 04-07-2014 09:15:00 17.9 C 11.3 g/m*3 17.9 C 0 km/h
1443 04-07-2014 09:20:00 17.8 C 11.38 g/m*3 17.8 C 0 km/h
1444 04-07-2014 09:25:00 17.7 C 11.62 g/m*3 17.7 C 0 km/h
1445 04-07-2014 09:30:00 17.7 C 11.62 g/m*3 17.7 C 0 km/h
1446 04-07-2014 09:35:00 17.9 C 11.45 g/m*3 17.9 C 0 km/h
1447 04-07-2014 09:40:00 18.1 C 11.9 g/m*3 18.1 C 0 km/h
1448 04-07-2014 09:45:00 18.1 C 11.9 g/m*3 18.1 C 0 km/h
1449 04-07-2014 09:50:00 18.2 C 11.97 g/m*3 18.2 C 0 km/h
1450 04-07-2014 09:55:00 18.3 C 12.2 g/m*3 18.3 C 0 km/h
Sensor: Nr:Datum:Temp:Abs-Feuchte:Windchill:Wind:
Aussen-T/F 1451 04-07-2014 10:00:00 18.7 C 12.33 g/m*3 18.7 C 0 km/h
1452 04-07-2014 10:05:00 19.2 C 12.37 g/m*3 19.2 C 1.6 km/h
1453 04-07-2014 10:10:00 19.6 C 12.83 g/m*3 19.6 C 0 km/h
1454 04-07-2014 10:15:00 20 C 12.79 g/m*3 20 C 0 km/h
1455 04-07-2014 10:20:00 20.4 C 12.91 g/m*3 20.4 C 0 km/h
1456 04-07-2014 10:25:00 20.7 C 13.14 g/m*3 20.7 C 3.2 km/h
1457 04-07-2014 10:30:00 21 C 13.19 g/m*3 21 C 1.6 km/h
1458 04-07-2014 10:35:00 21.1 C 13.08 g/m*3 21.1 C 0 km/h
1459 04-07-2014 10:40:00 21.2 C 13.34 g/m*3 21.2 C 0 km/h
1460 04-07-2014 10:45:00 21.3 C 13.23 g/m*3 21.3 C 0 km/h
1461 04-07-2014 10:50:00 21.6 C 13.47 g/m*3 21.6 C 1.6 km/h
1462 04-07-2014 10:55:00 21.8 C 13.62 g/m*3 21.8 C 0 km/h
1463 04-07-2014 11:00:00 22.1 C 13.47 g/m*3 22.1 C 1.6 km/h
1464 04-07-2014 11:05:00 22.3 C 13.62 g/m*3 22.3 C 4.8 km/h
1465 04-07-2014 11:10:00 22.5 C 13.78 g/m*3 22.5 C 1.6 km/h
1466 04-07-2014 11:15:00 22.8 C 13.82 g/m*3 22.8 C 0 km/h
1467 04-07-2014 11:20:00 23 C 14.39 g/m*3 23 C 3.2 km/h
1468 04-07-2014 11:25:00 23.2 C 14.14 g/m*3 23.2 C 1.6 km/h
1469 04-07-2014 11:30:00 23.6 C 14.25 g/m*3 23.6 C 0 km/h
1470 04-07-2014 11:35:00 23.9 C 14.28 g/m*3 23.9 C 1.6 km/h
1471 04-07-2014 11:40:00 24.7 C 13.58 g/m*3 24.7 C 6.4 km/h
1472 04-07-2014 11:45:00 25.2 C 14.2 g/m*3 25.2 C 4.8 km/h
1473 04-07-2014 11:50:00 25.8 C 13 g/m*3 25.8 C 6.4 km/h
1474 04-07-2014 11:55:00 26.5 C 13.52 g/m*3 26.5 C 4.8 km/h
1475 04-07-2014 12:00:00 27.4 C 12.37 g/m*3 27.4 C 8.1 km/h
Sensor: Nr:Datum:Temp:Abs-Feuchte:Windchill:Wind:
Aussen-T/F 1476 04-07-2014 12:05:00 27.6 C 13.3 g/m*3 27.6 C 6.4 km/h
1477 04-07-2014 12:10:00 27.8 C 12.37 g/m*3 27.8 C 6.4 km/h
1478 04-07-2014 12:15:00 28.3 C 12.16 g/m*3 28.3 C 9.7 km/h
1479 04-07-2014 12:20:00 28.8 C 13.07 g/m*3 28.8 C 9.7 km/h
1480 04-07-2014 12:25:00 29 C 12.93 g/m*3 29 C 11.3 km/h
1481 04-07-2014 12:30:00 29.2 C 12.2 g/m*3 29.2 C 9.7 km/h
1482 04-07-2014 12:35:00 29.2 C 11.91 g/m*3 29.2 C 4.8 km/h
1483 04-07-2014 12:40:00 29.4 C 12.33 g/m*3 29.4 C 6.4 km/h
1484 04-07-2014 12:45:00 29.7 C 11.93 g/m*3 29.7 C 11.3 km/h
1485 04-07-2014 12:50:00 29.8 C 11.7 g/m*3 29.8 C 6.4 km/h
1486 04-07-2014 12:55:00 30 C 12.13 g/m*3 30 C 6.4 km/h
1487 04-07-2014 13:00:00 30.2 C 11.04 g/m*3 30.2 C 9.7 km/h
1488 04-07-2014 13:05:00 30.2 C 12.87 g/m*3 30.2 C 4.8 km/h
1489 04-07-2014 13:10:00 30.1 C 11.59 g/m*3 30.1 C 6.4 km/h
1490 04-07-2014 13:15:00 30.1 C 10.98 g/m*3 30.1 C 6.4 km/h
1491 04-07-2014 13:20:00 30.1 C 10.37 g/m*3 30.1 C 4.8 km/h
1492 04-07-2014 13:25:00 30.2 C 10.73 g/m*3 30.2 C 12.9 km/h
1493 04-07-2014 13:30:00 30.4 C 11.77 g/m*3 30.4 C 4.8 km/h
1494 04-07-2014 13:35:00 30.2 C 9.5 g/m*3 30.2 C 11.3 km/h
1495 04-07-2014 13:40:00 30.1 C 9.45 g/m*3 30.1 C 8.1 km/h
1496 04-07-2014 13:45:00 30.3 C 9.86 g/m*3 30.3 C 11.3 km/h
1497 04-07-2014 13:50:00 30.6 C 9.71 g/m*3 30.6 C 11.3 km/h
1498 04-07-2014 13:55:00 30.6 C 9.4 g/m*3 30.6 C 8.1 km/h
1499 04-07-2014 14:00:00 30.4 C 9.61 g/m*3 30.4 C 4.8 km/h
1500 04-07-2014 14:05:00 30.2 C 9.2 g/m*3 30.2 C 8.1 km/h
Sensor: Nr:Datum:Temp:Abs-Feuchte:Windchill:Wind:
Aussen-T/F 1501 04-07-2014 14:10:00 29.9 C 12.37 g/m*3 29.9 C 3.2 km/h
1502 04-07-2014 14:15:00 29.5 C 10.92 g/m*3 29.5 C 3.2 km/h
1503 04-07-2014 14:20:00 29.3 C 11.09 g/m*3 29.3 C 3.2 km/h
1504 04-07-2014 14:25:00 29.4 C 9.69 g/m*3 29.4 C 11.3 km/h
1505 04-07-2014 14:30:00 29.3 C 10.51 g/m*3 29.3 C 4.8 km/h
1506 04-07-2014 14:35:00 29.2 C 10.16 g/m*3 29.2 C 3.2 km/h
1507 04-07-2014 14:40:00 29.3 C 9.93 g/m*3 29.3 C 4.8 km/h
1508 04-07-2014 14:45:00 29.6 C 10.68 g/m*3 29.6 C 3.2 km/h
1509 04-07-2014 14:50:00 29.7 C 11.34 g/m*3 29.7 C 12.9 km/h
1510 04-07-2014 14:55:00 29.9 C 9.35 g/m*3 29.9 C 14.5 km/h
1511 04-07-2014 15:00:00 30.1 C 9.15 g/m*3 30.1 C 4.8 km/h
1512 04-07-2014 15:05:00 29.9 C 9.95 g/m*3 29.9 C 8.1 km/h
1513 04-07-2014 15:10:00 29.8 C 9.9 g/m*3 29.8 C 3.2 km/h
1514 04-07-2014 15:15:00 29.7 C 9.25 g/m*3 29.7 C 9.7 km/h
1515 04-07-2014 15:20:00 29.6 C 9.5 g/m*3 29.6 C 6.4 km/h
1516 04-07-2014 15:25:00 29.6 C 12.17 g/m*3 29.6 C 4.8 km/h
1517 04-07-2014 15:30:00 29.2 C 11.91 g/m*3 29.2 C 1.6 km/h
1518 04-07-2014 15:35:00 28.6 C 11.8 g/m*3 28.6 C 4.8 km/h
1519 04-07-2014 15:40:00 27.7 C 12.57 g/m*3 27.7 C 0 km/h
1520 04-07-2014 15:45:00 26.8 C 13.74 g/m*3 26.8 C 0 km/h
1521 04-07-2014 15:50:00 26 C 14.12 g/m*3 26 C 1.6 km/h
1522 04-07-2014 15:55:00 25.3 C 13.81 g/m*3 25.3 C 1.6 km/h
1523 04-07-2014 16:00:00 24.4 C 13.35 g/m*3 24.4 C 1.6 km/h
1524 04-07-2014 16:05:00 23.8 C 13.55 g/m*3 23.8 C 1.6 km/h
1525 04-07-2014 16:10:00 23.2 C 13.51 g/m*3 23.2 C 1.6 km/h
Sensor: Nr:Datum:Temp:Abs-Feuchte:Windchill:Wind:
Aussen-T/F 1526 04-07-2014 16:15:00 22.8 C 12.8 g/m*3 22.8 C 1.6 km/h
1527 04-07-2014 16:20:00 22.7 C 13.33 g/m*3 22.7 C 1.6 km/h
1528 04-07-2014 16:25:00 22.7 C 13.54 g/m*3 22.7 C 1.6 km/h
1529 04-07-2014 16:30:00 22.8 C 13.82 g/m*3 22.8 C 0 km/h
1530 04-07-2014 16:35:00 23.1 C 13.85 g/m*3 23.1 C 0 km/h
1531 04-07-2014 16:40:00 23.7 C 12.83 g/m*3 23.7 C 4.8 km/h
1532 04-07-2014 16:45:00 24.7 C 11.77 g/m*3 24.7 C 1.6 km/h
1533 04-07-2014 16:50:00 25.8 C 12.28 g/m*3 25.8 C 1.6 km/h
1534 04-07-2014 16:55:00 26.7 C 13.92 g/m*3 26.7 C 4.8 km/h
1535 04-07-2014 17:00:00 27.1 C 11.13 g/m*3 27.1 C 6.4 km/h
1536 04-07-2014 17:05:00 27.1 C 13.97 g/m*3 27.1 C 3.2 km/h
1537 04-07-2014 17:10:00 26.5 C 13.52 g/m*3 26.5 C 1.6 km/h
1538 04-07-2014 17:15:00 26.1 C 13.95 g/m*3 26.1 C 1.6 km/h
1539 04-07-2014 17:20:00 25.9 C 14.28 g/m*3 25.9 C 0 km/h
1540 04-07-2014 17:25:00 25.9 C 13.32 g/m*3 25.9 C 3.2 km/h
1541 04-07-2014 17:30:00 26 C 12.66 g/m*3 26 C 4.8 km/h
1542 04-07-2014 17:35:00 26.1 C 12.24 g/m*3 26.1 C 4.8 km/h
1543 04-07-2014 17:40:00 26.5 C 12.02 g/m*3 26.5 C 3.2 km/h
1544 04-07-2014 17:45:00 27.3 C 11.25 g/m*3 27.3 C 9.7 km/h
1545 04-07-2014 17:50:00 28.2 C 12.1 g/m*3 28.2 C 9.7 km/h
1546 04-07-2014 17:55:00 28.6 C 12.93 g/m*3 28.6 C 6.4 km/h
1547 04-07-2014 18:00:00 27.9 C 12.17 g/m*3 27.9 C 3.2 km/h
1548 04-07-2014 18:05:00 27.8 C 11.83 g/m*3 27.8 C 6.4 km/h
1549 04-07-2014 18:10:00 28.4 C 11.67 g/m*3 28.4 C 9.7 km/h
1550 04-07-2014 18:15:00 28.8 C 11.36 g/m*3 28.8 C 4.8 km/h
Sensor: Nr:Datum:Temp:Abs-Feuchte:Windchill:Wind:
Aussen-T/F 1551 04-07-2014 18:20:00 28.7 C 13.56 g/m*3 28.7 C 1.6 km/h
1552 04-07-2014 18:25:00 28.1 C 13.67 g/m*3 28.1 C 3.2 km/h
1553 04-07-2014 18:30:00 27.4 C 13.42 g/m*3 27.4 C 1.6 km/h
1554 04-07-2014 18:35:00 26.5 C 14.02 g/m*3 26.5 C 0 km/h
1555 04-07-2014 18:40:00 25.7 C 14.13 g/m*3 25.7 C 0 km/h
1556 04-07-2014 18:45:00 25.1 C 14.12 g/m*3 25.1 C 0 km/h
1557 04-07-2014 18:50:00 24.8 C 14.11 g/m*3 24.8 C 0 km/h
1558 04-07-2014 18:55:00 24.5 C 14.1 g/m*3 24.5 C 0 km/h
1559 04-07-2014 19:00:00 24.1 C 14.66 g/m*3 24.1 C 0 km/h
1560 04-07-2014 19:05:00 23.4 C 14.09 g/m*3 23.4 C 1.6 km/h
1561 04-07-2014 19:10:00 23 C 14.18 g/m*3 23 C 1.6 km/h
1562 04-07-2014 19:15:00 22.7 C 13.94 g/m*3 22.7 C 0 km/h
1563 04-07-2014 19:20:00 22.6 C 14.06 g/m*3 22.6 C 0 km/h
1564 04-07-2014 19:25:00 22.2 C 14.14 g/m*3 22.2 C 1.6 km/h
1565 04-07-2014 19:30:00 21.9 C 14.09 g/m*3 21.9 C 3.2 km/h
1566 04-07-2014 19:35:00 21.7 C 13.93 g/m*3 21.7 C 1.6 km/h
1567 04-07-2014 19:40:00 21.6 C 14.03 g/m*3 21.6 C 0 km/h
1568 04-07-2014 19:45:00 21.6 C 14.03 g/m*3 21.6 C 1.6 km/h
1569 04-07-2014 19:50:00 21.6 C 13.66 g/m*3 21.6 C 3.2 km/h
1570 04-07-2014 19:55:00 21.6 C 13.28 g/m*3 21.6 C 1.6 km/h
1571 04-07-2014 20:00:00 21.7 C 12.4 g/m*3 21.7 C 1.6 km/h
1572 04-07-2014 20:05:00 21.7 C 12.97 g/m*3 21.7 C 1.6 km/h
1573 04-07-2014 20:10:00 21.8 C 11.9 g/m*3 21.8 C 4.8 km/h
1574 04-07-2014 20:15:00 22.3 C 11.45 g/m*3 22.3 C 4.8 km/h
1575 04-07-2014 20:20:00 22.5 C 12.78 g/m*3 22.5 C 0 km/h
Sensor: Nr:Datum:Temp:Abs-Feuchte:Windchill:Wind:
Aussen-T/F 1576 04-07-2014 20:25:00 22.5 C 12.78 g/m*3 22.5 C 0 km/h
1577 04-07-2014 20:30:00 22.2 C 13.15 g/m*3 22.2 C 0 km/h
1578 04-07-2014 20:35:00 21.9 C 12.93 g/m*3 21.9 C 0 km/h
1579 04-07-2014 20:40:00 21.7 C 12.97 g/m*3 21.7 C 0 km/h
1580 04-07-2014 20:45:00 21.4 C 12.56 g/m*3 21.4 C 0 km/h
1581 04-07-2014 20:50:00 21.3 C 12.68 g/m*3 21.3 C 0 km/h
1582 04-07-2014 20:55:00 21.1 C 12.71 g/m*3 21.1 C 0 km/h
1583 04-07-2014 21:00:00 21.1 C 12.71 g/m*3 21.1 C 0 km/h
1584 04-07-2014 21:05:00 21.1 C 12.71 g/m*3 21.1 C 0 km/h
1585 04-07-2014 21:10:00 20.9 C 12.75 g/m*3 20.9 C 0 km/h
1586 04-07-2014 21:15:00 20.8 C 12.86 g/m*3 20.8 C 0 km/h
1587 04-07-2014 21:20:00 20.4 C 12.91 g/m*3 20.4 C 1.6 km/h
1588 04-07-2014 21:25:00 20.1 C 13.21 g/m*3 20.1 C 1.6 km/h
1589 04-07-2014 21:30:00 20 C 13.31 g/m*3 20 C 3.2 km/h
1590 04-07-2014 21:35:00 19.6 C 13.51 g/m*3 19.6 C 0 km/h
1591 04-07-2014 21:40:00 19.4 C 13.35 g/m*3 19.4 C 1.6 km/h
1592 04-07-2014 21:45:00 19.3 C 13.44 g/m*3 19.3 C 0 km/h
1593 04-07-2014 21:50:00 19.2 C 13.36 g/m*3 19.2 C 3.2 km/h
1594 04-07-2014 21:55:00 19.1 C 13.28 g/m*3 19.1 C 3.2 km/h
1595 04-07-2014 22:00:00 19.1 C 13.11 g/m*3 19.1 C 3.2 km/h
1596 04-07-2014 22:05:00 19.2 C 13.19 g/m*3 19.2 C 3.2 km/h
1597 04-07-2014 22:10:00 19.2 C 13.03 g/m*3 19.2 C 3.2 km/h
1598 04-07-2014 22:15:00 19.2 C 13.03 g/m*3 19.2 C 1.6 km/h
1599 04-07-2014 22:20:00 19.3 C 12.94 g/m*3 19.3 C 1.6 km/h
1600 04-07-2014 22:25:00 19.6 C 12.83 g/m*3 19.6 C 3.2 km/h
Sensor: Nr:Datum:Temp:Abs-Feuchte:Windchill:Wind:
Aussen-T/F 1601 04-07-2014 22:30:00 19.7 C 12.57 g/m*3 19.7 C 3.2 km/h
1602 04-07-2014 22:35:00 19.8 C 12.98 g/m*3 19.8 C 1.6 km/h
1603 04-07-2014 22:40:00 19.8 C 12.81 g/m*3 19.8 C 1.6 km/h
1604 04-07-2014 22:45:00 19.8 C 12.98 g/m*3 19.8 C 0 km/h
1605 04-07-2014 22:50:00 19.8 C 12.98 g/m*3 19.8 C 1.6 km/h
1606 04-07-2014 22:55:00 19.7 C 12.91 g/m*3 19.7 C 1.6 km/h
1607 04-07-2014 23:00:00 19.7 C 12.91 g/m*3 19.7 C 1.6 km/h
1608 04-07-2014 23:05:00 19.7 C 12.74 g/m*3 19.7 C 1.6 km/h
1609 04-07-2014 23:10:00 19.8 C 12.81 g/m*3 19.8 C 1.6 km/h
1610 04-07-2014 23:15:00 19.7 C 12.74 g/m*3 19.7 C 0 km/h
1611 04-07-2014 23:20:00 19.7 C 12.74 g/m*3 19.7 C 0 km/h
1612 04-07-2014 23:25:00 19.7 C 12.74 g/m*3 19.7 C 0 km/h
1613 04-07-2014 23:30:00 19.7 C 12.74 g/m*3 19.7 C 0 km/h
1614 04-07-2014 23:35:00 19.7 C 12.91 g/m*3 19.7 C 0 km/h
1615 04-07-2014 23:40:00 19.7 C 12.91 g/m*3 19.7 C 0 km/h
1616 04-07-2014 23:45:00 19.7 C 12.91 g/m*3 19.7 C 0 km/h
1617 04-07-2014 23:50:00 19.7 C 12.74 g/m*3 19.7 C 0 km/h
1618 04-07-2014 23:55:00 19.7 C 12.74 g/m*3 19.7 C 0 km/h
1619 05-07-2014 00:00:00 19.7 C 12.74 g/m*3 19.7 C 0 km/h
1620 05-07-2014 00:05:00 19.7 C 12.91 g/m*3 19.7 C 0 km/h
1621 05-07-2014 00:10:00 19.7 C 12.74 g/m*3 19.7 C 0 km/h
1622 05-07-2014 00:15:00 19.7 C 12.74 g/m*3 19.7 C 0 km/h
1623 05-07-2014 00:20:00 19.7 C 12.91 g/m*3 19.7 C 0 km/h
1624 05-07-2014 00:25:00 19.7 C 13.08 g/m*3 19.7 C 0 km/h
1625 05-07-2014 00:30:00 19.7 C 12.74 g/m*3 19.7 C 0 km/h
Sensor: Nr:Datum:Temp:Abs-Feuchte:Windchill:Wind:
Aussen-T/F 1626 05-07-2014 00:35:00 19.7 C 12.91 g/m*3 19.7 C 0 km/h
1627 05-07-2014 00:40:00 19.8 C 12.64 g/m*3 19.8 C 0 km/h
1628 05-07-2014 00:45:00 19.9 C 12.54 g/m*3 19.9 C 3.2 km/h
1629 05-07-2014 00:50:00 19.9 C 12.54 g/m*3 19.9 C 1.6 km/h
1630 05-07-2014 00:55:00 20 C 12.79 g/m*3 20 C 1.6 km/h
1631 05-07-2014 01:00:00 19.9 C 12.71 g/m*3 19.9 C 0 km/h
1632 05-07-2014 01:05:00 19.9 C 12.71 g/m*3 19.9 C 1.6 km/h
1633 05-07-2014 01:10:00 19.8 C 12.64 g/m*3 19.8 C 1.6 km/h
1634 05-07-2014 01:15:00 19.8 C 12.81 g/m*3 19.8 C 0 km/h
1635 05-07-2014 01:20:00 19.7 C 12.74 g/m*3 19.7 C 1.6 km/h
1636 05-07-2014 01:25:00 19.7 C 12.91 g/m*3 19.7 C 0 km/h
1637 05-07-2014 01:30:00 19.6 C 12.83 g/m*3 19.6 C 0 km/h
1638 05-07-2014 01:35:00 19.4 C 12.85 g/m*3 19.4 C 1.6 km/h
1639 05-07-2014 01:40:00 19.3 C 12.77 g/m*3 19.3 C 1.6 km/h
1640 05-07-2014 01:45:00 19.3 C 12.77 g/m*3 19.3 C 0 km/h
1641 05-07-2014 01:50:00 19.3 C 12.77 g/m*3 19.3 C 1.6 km/h
1642 05-07-2014 01:55:00 19.3 C 12.61 g/m*3 19.3 C 0 km/h
1643 05-07-2014 02:00:00 19.4 C 12.68 g/m*3 19.4 C 0 km/h
1644 05-07-2014 02:05:00 19.5 C 12.92 g/m*3 19.5 C 0 km/h
1645 05-07-2014 02:10:00 19.3 C 12.94 g/m*3 19.3 C 0 km/h
1646 05-07-2014 02:15:00 19.2 C 12.7 g/m*3 19.2 C 1.6 km/h
1647 05-07-2014 02:20:00 19.2 C 12.53 g/m*3 19.2 C 3.2 km/h
1648 05-07-2014 02:25:00 19.2 C 12.7 g/m*3 19.2 C 0 km/h
1649 05-07-2014 02:30:00 18.9 C 12.64 g/m*3 18.9 C 0 km/h
1650 05-07-2014 02:35:00 18.7 C 12.49 g/m*3 18.7 C 0 km/h
Sensor: Nr:Datum:Temp:Abs-Feuchte:Windchill:Wind:
Aussen-T/F 1651 05-07-2014 02:40:00 18.4 C 12.43 g/m*3 18.4 C 0 km/h
1652 05-07-2014 02:45:00 18.2 C 12.43 g/m*3 18.2 C 0 km/h
1653 05-07-2014 02:50:00 18.1 C 12.36 g/m*3 18.1 C 0 km/h
1654 05-07-2014 02:55:00 18 C 12.44 g/m*3 18 C 0 km/h
1655 05-07-2014 03:00:00 18 C 12.44 g/m*3 18 C 0 km/h
1656 05-07-2014 03:05:00 18.1 C 12.67 g/m*3 18.1 C 1.6 km/h
1657 05-07-2014 03:10:00 18.1 C 12.52 g/m*3 18.1 C 0 km/h
1658 05-07-2014 03:15:00 18.2 C 12.43 g/m*3 18.2 C 1.6 km/h
1659 05-07-2014 03:20:00 18.5 C 12.5 g/m*3 18.5 C 1.6 km/h
1660 05-07-2014 03:25:00 18.8 C 12.56 g/m*3 18.8 C 0 km/h
1661 05-07-2014 03:30:00 18.9 C 12.47 g/m*3 18.9 C 1.6 km/h
1662 05-07-2014 03:35:00 19.1 C 12.46 g/m*3 19.1 C 6.4 km/h
1663 05-07-2014 03:40:00 19.1 C 12.46 g/m*3 19.1 C 6.4 km/h
1664 05-07-2014 03:45:00 19.1 C 12.46 g/m*3 19.1 C 1.6 km/h
1665 05-07-2014 03:50:00 19.1 C 12.46 g/m*3 19.1 C 3.2 km/h
1666 05-07-2014 03:55:00 19.1 C 12.62 g/m*3 19.1 C 3.2 km/h
1667 05-07-2014 04:00:00 19 C 12.39 g/m*3 19 C 0 km/h
1668 05-07-2014 04:05:00 18.9 C 12.31 g/m*3 18.9 C 3.2 km/h
1669 05-07-2014 04:10:00 18.8 C 12.24 g/m*3 18.8 C 1.6 km/h
1670 05-07-2014 04:15:00 18.7 C 12.33 g/m*3 18.7 C 0 km/h
1671 05-07-2014 04:20:00 18.4 C 12.27 g/m*3 18.4 C 0 km/h
1672 05-07-2014 04:25:00 18.2 C 12.28 g/m*3 18.2 C 1.6 km/h
1673 05-07-2014 04:30:00 18.2 C 12.28 g/m*3 18.2 C 0 km/h
1674 05-07-2014 04:35:00 18.2 C 12.28 g/m*3 18.2 C 0 km/h
1675 05-07-2014 04:40:00 18.2 C 12.28 g/m*3 18.2 C 0 km/h
Sensor: Nr:Datum:Temp:Abs-Feuchte:Windchill:Wind:
Aussen-T/F 1676 05-07-2014 04:45:00 18.2 C 12.28 g/m*3 18.2 C 1.6 km/h
1677 05-07-2014 04:50:00 18.2 C 12.12 g/m*3 18.2 C 1.6 km/h
1678 05-07-2014 04:55:00 18.3 C 12.2 g/m*3 18.3 C 0 km/h
1679 05-07-2014 05:00:00 18.3 C 12.2 g/m*3 18.3 C 1.6 km/h
1680 05-07-2014 05:05:00 18.3 C 12.2 g/m*3 18.3 C 0 km/h
1681 05-07-2014 05:10:00 18.3 C 12.2 g/m*3 18.3 C 3.2 km/h
1682 05-07-2014 05:15:00 18.3 C 12.2 g/m*3 18.3 C 0 km/h
1683 05-07-2014 05:20:00 18.3 C 12.35 g/m*3 18.3 C 0 km/h
1684 05-07-2014 05:25:00 18.3 C 12.35 g/m*3 18.3 C 3.2 km/h
1685 05-07-2014 05:30:00 18.2 C 12.43 g/m*3 18.2 C 0 km/h
1686 05-07-2014 05:35:00 18.1 C 12.21 g/m*3 18.1 C 0 km/h
1687 05-07-2014 05:40:00 18.1 C 12.21 g/m*3 18.1 C 0 km/h
1688 05-07-2014 05:45:00 18.1 C 12.21 g/m*3 18.1 C 4.8 km/h
1689 05-07-2014 05:50:00 18.1 C 12.21 g/m*3 18.1 C 4.8 km/h
1690 05-07-2014 05:55:00 18.2 C 12.28 g/m*3 18.2 C 0 km/h
1691 05-07-2014 06:00:00 18.2 C 12.28 g/m*3 18.2 C 0 km/h
1692 05-07-2014 06:05:00 18.1 C 12.21 g/m*3 18.1 C 0 km/h
1693 05-07-2014 06:10:00 18.1 C 12.21 g/m*3 18.1 C 0 km/h
1694 05-07-2014 06:15:00 18.1 C 12.36 g/m*3 18.1 C 0 km/h
1695 05-07-2014 06:20:00 18.1 C 12.36 g/m*3 18.1 C 0 km/h
1696 05-07-2014 06:25:00 18 C 12.29 g/m*3 18 C 0 km/h
1697 05-07-2014 06:30:00 17.9 C 12.37 g/m*3 17.9 C 0 km/h
1698 05-07-2014 06:35:00 17.8 C 12.29 g/m*3 17.8 C 0 km/h
1699 05-07-2014 06:40:00 17.9 C 12.37 g/m*3 17.9 C 0 km/h
1700 05-07-2014 06:45:00 17.9 C 12.37 g/m*3 17.9 C 4.8 km/h
Sensor: Nr:Datum:Temp:Abs-Feuchte:Windchill:Wind:
Aussen-T/F 1701 05-07-2014 06:50:00 18.1 C 12.52 g/m*3 18.1 C 0 km/h
1702 05-07-2014 06:55:00 18.2 C 12.59 g/m*3 18.2 C 1.6 km/h
1703 05-07-2014 07:00:00 18.3 C 12.66 g/m*3 18.3 C 1.6 km/h
1704 05-07-2014 07:05:00 18.4 C 12.58 g/m*3 18.4 C 1.6 km/h
1705 05-07-2014 07:10:00 18.4 C 12.58 g/m*3 18.4 C 0 km/h
1706 05-07-2014 07:15:00 18.4 C 12.74 g/m*3 18.4 C 0 km/h
1707 05-07-2014 07:20:00 18.3 C 12.82 g/m*3 18.3 C 0 km/h
1708 05-07-2014 07:25:00 18.2 C 12.75 g/m*3 18.2 C 1.6 km/h
1709 05-07-2014 07:30:00 18.2 C 12.75 g/m*3 18.2 C 0 km/h
1710 05-07-2014 07:35:00 18.3 C 12.82 g/m*3 18.3 C 1.6 km/h
1711 05-07-2014 07:40:00 18.6 C 13.05 g/m*3 18.6 C 4.8 km/h
1712 05-07-2014 07:45:00 18.9 C 13.12 g/m*3 18.9 C 4.8 km/h
1713 05-07-2014 07:50:00 19.2 C 13.03 g/m*3 19.2 C 4.8 km/h
1714 05-07-2014 07:55:00 19.6 C 13.17 g/m*3 19.6 C 1.6 km/h
1715 05-07-2014 08:00:00 19.7 C 13.08 g/m*3 19.7 C 6.4 km/h
1716 05-07-2014 08:05:00 19.9 C 13.4 g/m*3 19.9 C 4.8 km/h
1717 05-07-2014 08:10:00 20.1 C 13.39 g/m*3 20.1 C 9.7 km/h
1718 05-07-2014 08:15:00 20.2 C 13.46 g/m*3 20.2 C 8.1 km/h
1719 05-07-2014 08:20:00 20.3 C 13.54 g/m*3 20.3 C 14.5 km/h
1720 05-07-2014 08:25:00 20.5 C 13.52 g/m*3 20.5 C 6.4 km/h
1721 05-07-2014 08:30:00 20.6 C 13.6 g/m*3 20.6 C 8.1 km/h
1722 05-07-2014 08:35:00 20.6 C 13.6 g/m*3 20.6 C 8.1 km/h
1723 05-07-2014 08:40:00 20.5 C 13.52 g/m*3 20.5 C 6.4 km/h
1724 05-07-2014 08:45:00 20.4 C 13.44 g/m*3 20.4 C 4.8 km/h
1725 05-07-2014 08:50:00 20.3 C 13.37 g/m*3 20.3 C 9.7 km/h
Sensor: Nr:Datum:Temp:Abs-Feuchte:Windchill:Wind:
Aussen-T/F 1726 05-07-2014 08:55:00 20.3 C 13.54 g/m*3 20.3 C 6.4 km/h
1727 05-07-2014 09:00:00 20.2 C 13.64 g/m*3 20.2 C 4.8 km/h
1728 05-07-2014 09:05:00 20.2 C 13.64 g/m*3 20.2 C 3.2 km/h
1729 05-07-2014 09:10:00 20.2 C 13.64 g/m*3 20.2 C 4.8 km/h
1730 05-07-2014 09:15:00 20.3 C 13.89 g/m*3 20.3 C 0 km/h
1731 05-07-2014 09:20:00 20.3 C 14.07 g/m*3 20.3 C 3.2 km/h
1732 05-07-2014 09:25:00 20.5 C 13.88 g/m*3 20.5 C 6.4 km/h
1733 05-07-2014 09:30:00 20.7 C 13.86 g/m*3 20.7 C 12.9 km/h
1734 05-07-2014 09:35:00 20.8 C 13.94 g/m*3 20.8 C 9.7 km/h
1735 05-07-2014 09:40:00 20.9 C 14.02 g/m*3 20.9 C 6.4 km/h
1736 05-07-2014 09:45:00 21.1 C 14 g/m*3 21.1 C 8.1 km/h
1737 05-07-2014 09:50:00 21.3 C 13.98 g/m*3 21.3 C 16.1 km/h
1738 05-07-2014 09:55:00 21.7 C 14.12 g/m*3 21.7 C 9.7 km/h
1739 05-07-2014 10:00:00 21.8 C 13.81 g/m*3 21.8 C 11.3 km/h
1740 05-07-2014 10:05:00 21.8 C 14.01 g/m*3 21.8 C 14.5 km/h
1741 05-07-2014 10:10:00 21.8 C 13.62 g/m*3 21.8 C 12.9 km/h
1742 05-07-2014 10:15:00 21.8 C 13.81 g/m*3 21.8 C 11.3 km/h
1743 05-07-2014 10:20:00 21.8 C 13.81 g/m*3 21.8 C 14.5 km/h
1744 05-07-2014 10:25:00 22.3 C 13.82 g/m*3 22.3 C 11.3 km/h
1745 05-07-2014 10:30:00 22.8 C 14.22 g/m*3 22.8 C 11.3 km/h
1746 05-07-2014 10:35:00 23.1 C 13.85 g/m*3 23.1 C 19.3 km/h
1747 05-07-2014 10:40:00 23.2 C 13.72 g/m*3 23.2 C 14.5 km/h
1748 05-07-2014 10:45:00 23.3 C 13.8 g/m*3 23.3 C 12.9 km/h
1749 05-07-2014 10:50:00 23.2 C 13.51 g/m*3 23.2 C 16.1 km/h
1750 05-07-2014 10:55:00 23 C 13.15 g/m*3 23 C 14.5 km/h
Sensor: Nr:Datum:Temp:Abs-Feuchte:Windchill:Wind:
Aussen-T/F 1751 05-07-2014 11:00:00 22.8 C 13.41 g/m*3 22.8 C 12.9 km/h
1752 05-07-2014 11:05:00 22.7 C 12.93 g/m*3 22.7 C 9.7 km/h
1753 05-07-2014 11:10:00 22.8 C 12.8 g/m*3 22.8 C 11.3 km/h
1754 05-07-2014 11:15:00 22.8 C 13 g/m*3 22.8 C 14.5 km/h
1755 05-07-2014 11:20:00 22.9 C 13.08 g/m*3 22.9 C 8.1 km/h
1756 05-07-2014 11:25:00 23 C 12.74 g/m*3 23 C 24.1 km/h
1757 05-07-2014 11:30:00 23.1 C 12.82 g/m*3 23.1 C 19.3 km/h
1758 05-07-2014 11:35:00 23 C 12.54 g/m*3 23 C 14.5 km/h
1759 05-07-2014 11:40:00 22.9 C 12.47 g/m*3 22.9 C 12.9 km/h
1760 05-07-2014 11:45:00 22.8 C 12.6 g/m*3 22.8 C 11.3 km/h
1761 05-07-2014 11:50:00 22.7 C 12.73 g/m*3 22.7 C 12.9 km/h
1762 05-07-2014 11:55:00 22.4 C 12.71 g/m*3 22.4 C 12.9 km/h
1763 05-07-2014 12:00:00 22.2 C 13.35 g/m*3 22.2 C 17.7 km/h
1764 05-07-2014 12:05:00 21.9 C 13.12 g/m*3 21.9 C 12.9 km/h
1765 05-07-2014 12:10:00 21.6 C 13.28 g/m*3 21.6 C 9.7 km/h
1766 05-07-2014 12:15:00 21.3 C 13.42 g/m*3 21.3 C 1.6 km/h
1767 05-07-2014 12:20:00 21.2 C 13.53 g/m*3 21.2 C 1.6 km/h
1768 05-07-2014 12:25:00 21 C 13.74 g/m*3 21 C 0 km/h
1769 05-07-2014 12:30:00 21 C 14.65 g/m*3 21 C 0 km/h
1770 05-07-2014 12:35:00 21 C 13.92 g/m*3 21 C 3.2 km/h
1771 05-07-2014 12:40:00 21.1 C 14.56 g/m*3 21.1 C 0 km/h
1772 05-07-2014 12:45:00 21.1 C 14.19 g/m*3 21.1 C 12.9 km/h
1773 05-07-2014 12:50:00 20.9 C 14.02 g/m*3 20.9 C 9.7 km/h
1774 05-07-2014 12:55:00 20.8 C 14.3 g/m*3 20.8 C 3.2 km/h
1775 05-07-2014 13:00:00 20.8 C 14.3 g/m*3 20.8 C 0 km/h
Sensor: Nr:Datum:Temp:Abs-Feuchte:Windchill:Wind:
Aussen-T/F 1776 05-07-2014 13:05:00 20.7 C 14.22 g/m*3 20.7 C 1.6 km/h
1777 05-07-2014 13:10:00 20.7 C 14.58 g/m*3 20.7 C 3.2 km/h
1778 05-07-2014 13:15:00 20.8 C 14.67 g/m*3 20.8 C 1.6 km/h
1779 05-07-2014 13:20:00 20.9 C 14.93 g/m*3 20.9 C 4.8 km/h
1780 05-07-2014 13:25:00 20.8 C 15.03 g/m*3 20.8 C 4.8 km/h
1781 05-07-2014 13:30:00 20.6 C 14.68 g/m*3 20.6 C 1.6 km/h
1782 05-07-2014 13:35:00 20.4 C 14.51 g/m*3 20.4 C 4.8 km/h
1783 05-07-2014 13:40:00 20.2 C 14.51 g/m*3 20.2 C 6.4 km/h
1784 05-07-2014 13:45:00 20.2 C 14.69 g/m*3 20.2 C 3.2 km/h
1785 05-07-2014 13:50:00 20.2 C 14.69 g/m*3 20.2 C 1.6 km/h
1786 05-07-2014 14:10:00 20.2 C 14.86 g/m*3 20.2 C 3.2 km/h
1787 05-07-2014 14:15:00 20.2 C 15.21 g/m*3 20.2 C 6.4 km/h
1788 05-07-2014 14:20:00 20.2 C 15.04 g/m*3 20.2 C 9.7 km/h
1789 05-07-2014 14:25:00 20.2 C 14.86 g/m*3 20.2 C 8.1 km/h
1790 05-07-2014 14:30:00 20.4 C 15.04 g/m*3 20.4 C 4.8 km/h
1791 05-07-2014 14:35:00 20.6 C 15.03 g/m*3 20.6 C 8.1 km/h
1792 05-07-2014 14:40:00 20.8 C 15.03 g/m*3 20.8 C 11.3 km/h
1793 05-07-2014 14:45:00 20.9 C 14.93 g/m*3 20.9 C 11.3 km/h
1794 05-07-2014 14:50:00 21 C 15.02 g/m*3 21 C 8.1 km/h
1795 05-07-2014 14:55:00 21.2 C 15.57 g/m*3 21.2 C 9.7 km/h
1796 05-07-2014 15:00:00 21.4 C 14.81 g/m*3 21.4 C 4.8 km/h
1797 05-07-2014 15:05:00 21.4 C 15 g/m*3 21.4 C 9.7 km/h
1798 05-07-2014 15:10:00 21.4 C 15.19 g/m*3 21.4 C 4.8 km/h
1799 05-07-2014 15:15:00 21.3 C 14.91 g/m*3 21.3 C 1.6 km/h
1800 05-07-2014 15:20:00 21.2 C 15.38 g/m*3 21.2 C 1.6 km/h
Sensor: Nr:Datum:Temp:Abs-Feuchte:Windchill:Wind:
Aussen-T/F 1801 05-07-2014 15:25:00 21.2 C 14.83 g/m*3 21.2 C 12.9 km/h
1802 05-07-2014 15:30:00 21.2 C 14.64 g/m*3 21.2 C 8.1 km/h
1803 05-07-2014 15:35:00 21.1 C 14.19 g/m*3 21.1 C 17.7 km/h
1804 05-07-2014 15:40:00 21.1 C 14.56 g/m*3 21.1 C 9.7 km/h
1805 05-07-2014 15:45:00 21.1 C 14.56 g/m*3 21.1 C 11.3 km/h
1806 05-07-2014 15:50:00 21.1 C 14.56 g/m*3 21.1 C 11.3 km/h
1807 05-07-2014 15:55:00 21.3 C 14.54 g/m*3 21.3 C 9.7 km/h
1808 05-07-2014 16:00:00 21.3 C 14.54 g/m*3 21.3 C 12.9 km/h
1809 05-07-2014 16:05:00 21.4 C 14.44 g/m*3 21.4 C 11.3 km/h
1810 05-07-2014 16:10:00 21.6 C 14.6 g/m*3 21.6 C 22.5 km/h
1811 05-07-2014 16:15:00 21.6 C 14.6 g/m*3 21.6 C 19.3 km/h
1812 05-07-2014 16:20:00 21.7 C 14.5 g/m*3 21.7 C 9.7 km/h
1813 05-07-2014 16:25:00 21.8 C 14.58 g/m*3 21.8 C 11.3 km/h
1814 05-07-2014 16:30:00 21.9 C 14.67 g/m*3 21.9 C 9.7 km/h
1815 05-07-2014 16:35:00 22 C 14.56 g/m*3 22 C 8.1 km/h
1816 05-07-2014 16:40:00 22.1 C 14.64 g/m*3 22.1 C 11.3 km/h
1817 05-07-2014 16:45:00 22.2 C 14.53 g/m*3 22.2 C 12.9 km/h
1818 05-07-2014 16:50:00 22.2 C 14.53 g/m*3 22.2 C 14.5 km/h
1819 05-07-2014 16:55:00 22.1 C 14.45 g/m*3 22.1 C 16.1 km/h
1820 05-07-2014 17:00:00 21.9 C 14.28 g/m*3 21.9 C 12.9 km/h
1821 05-07-2014 17:05:00 21.8 C 14.2 g/m*3 21.8 C 6.4 km/h
1822 05-07-2014 17:10:00 21.8 C 14.39 g/m*3 21.8 C 12.9 km/h
1823 05-07-2014 17:15:00 21.9 C 14.67 g/m*3 21.9 C 11.3 km/h
1824 05-07-2014 17:20:00 22.6 C 15.07 g/m*3 22.6 C 9.7 km/h
1825 05-07-2014 17:25:00 23.1 C 14.68 g/m*3 23.1 C 16.1 km/h
Sensor: Nr:Datum:Temp:Abs-Feuchte:Windchill:Wind:
Aussen-T/F 1826 05-07-2014 17:30:00 22.9 C 14.51 g/m*3 22.9 C 14.5 km/h
1827 05-07-2014 17:35:00 22.8 C 14.43 g/m*3 22.8 C 22.5 km/h
1828 05-07-2014 17:40:00 22.7 C 14.34 g/m*3 22.7 C 12.9 km/h
1829 05-07-2014 17:45:00 22.7 C 14.75 g/m*3 22.7 C 8.1 km/h
1830 05-07-2014 17:50:00 22.6 C 14.46 g/m*3 22.6 C 14.5 km/h
1831 05-07-2014 17:55:00 22.6 C 14.46 g/m*3 22.6 C 16.1 km/h
1832 05-07-2014 18:00:00 22.7 C 14.75 g/m*3 22.7 C 17.7 km/h
1833 05-07-2014 18:05:00 22.7 C 14.55 g/m*3 22.7 C 16.1 km/h
1834 05-07-2014 18:10:00 22.6 C 14.46 g/m*3 22.6 C 16.1 km/h
1835 05-07-2014 18:15:00 22.6 C 14.66 g/m*3 22.6 C 14.5 km/h
1836 05-07-2014 18:20:00 22.5 C 14.38 g/m*3 22.5 C 14.5 km/h
1837 05-07-2014 18:25:00 22.3 C 14.41 g/m*3 22.3 C 16.1 km/h
1838 05-07-2014 18:30:00 22.2 C 14.33 g/m*3 22.2 C 8.1 km/h
1839 05-07-2014 18:35:00 22.2 C 14.53 g/m*3 22.2 C 9.7 km/h
1840 05-07-2014 18:40:00 22 C 14.36 g/m*3 22 C 12.9 km/h
1841 05-07-2014 18:45:00 21.9 C 14.47 g/m*3 21.9 C 9.7 km/h
1842 05-07-2014 18:50:00 21.8 C 14.39 g/m*3 21.8 C 8.1 km/h
1843 05-07-2014 18:55:00 21.7 C 14.5 g/m*3 21.7 C 11.3 km/h
1844 05-07-2014 19:00:00 21.6 C 14.41 g/m*3 21.6 C 4.8 km/h
1845 05-07-2014 19:05:00 21.6 C 14.6 g/m*3 21.6 C 11.3 km/h
1846 05-07-2014 19:10:00 21.6 C 14.6 g/m*3 21.6 C 9.7 km/h
1847 05-07-2014 19:15:00 21.6 C 14.6 g/m*3 21.6 C 11.3 km/h
1848 05-07-2014 19:20:00 21.5 C 14.52 g/m*3 21.5 C 9.7 km/h
1849 05-07-2014 19:25:00 21.4 C 14.44 g/m*3 21.4 C 9.7 km/h
1850 05-07-2014 19:30:00 21.4 C 14.44 g/m*3 21.4 C 16.1 km/h
Sensor: Nr:Datum:Temp:Abs-Feuchte:Windchill:Wind:
Aussen-T/F 1851 05-07-2014 19:35:00 21.3 C 14.54 g/m*3 21.3 C 4.8 km/h
1852 05-07-2014 19:40:00 21.3 C 14.73 g/m*3 21.3 C 8.1 km/h
1853 05-07-2014 19:45:00 21.3 C 14.73 g/m*3 21.3 C 11.3 km/h
1854 05-07-2014 19:50:00 21.3 C 14.54 g/m*3 21.3 C 6.4 km/h
1855 05-07-2014 19:55:00 21.3 C 14.73 g/m*3 21.3 C 3.2 km/h
1856 05-07-2014 20:00:00 21.3 C 14.54 g/m*3 21.3 C 4.8 km/h
1857 05-07-2014 20:05:00 21.3 C 14.54 g/m*3 21.3 C 6.4 km/h
1858 05-07-2014 20:10:00 21.3 C 14.54 g/m*3 21.3 C 6.4 km/h
1859 05-07-2014 20:15:00 21.2 C 14.64 g/m*3 21.2 C 6.4 km/h
1860 05-07-2014 20:20:00 21.2 C 14.64 g/m*3 21.2 C 8.1 km/h
1861 05-07-2014 20:25:00 21.1 C 14.56 g/m*3 21.1 C 6.4 km/h
1862 05-07-2014 20:30:00 21.1 C 14.74 g/m*3 21.1 C 14.5 km/h
1863 05-07-2014 20:35:00 21 C 14.65 g/m*3 21 C 11.3 km/h
1864 05-07-2014 20:40:00 20.9 C 14.57 g/m*3 20.9 C 12.9 km/h
1865 05-07-2014 20:45:00 20.9 C 14.75 g/m*3 20.9 C 9.7 km/h
1866 05-07-2014 20:50:00 20.8 C 14.67 g/m*3 20.8 C 8.1 km/h
1867 05-07-2014 20:55:00 20.8 C 14.67 g/m*3 20.8 C 4.8 km/h
1868 05-07-2014 21:00:00 20.7 C 14.58 g/m*3 20.7 C 3.2 km/h
1869 05-07-2014 21:05:00 20.7 C 14.58 g/m*3 20.7 C 4.8 km/h
1870 05-07-2014 21:10:00 20.6 C 14.5 g/m*3 20.6 C 4.8 km/h
1871 05-07-2014 21:15:00 20.6 C 14.5 g/m*3 20.6 C 3.2 km/h
1872 05-07-2014 21:20:00 20.6 C 14.5 g/m*3 20.6 C 8.1 km/h
1873 05-07-2014 21:25:00 20.6 C 14.5 g/m*3 20.6 C 6.4 km/h
1874 05-07-2014 21:30:00 20.6 C 14.5 g/m*3 20.6 C 3.2 km/h
1875 05-07-2014 21:35:00 20.5 C 14.41 g/m*3 20.5 C 9.7 km/h
Sensor: Nr:Datum:Temp:Abs-Feuchte:Windchill:Wind:
Aussen-T/F 1876 05-07-2014 21:40:00 20.5 C 14.59 g/m*3 20.5 C 4.8 km/h
1877 05-07-2014 21:45:00 20.4 C 14.33 g/m*3 20.4 C 8.1 km/h
1878 05-07-2014 21:50:00 20.4 C 14.33 g/m*3 20.4 C 6.4 km/h
1879 05-07-2014 21:55:00 20.4 C 14.33 g/m*3 20.4 C 4.8 km/h
1880 05-07-2014 22:00:00 20.4 C 14.33 g/m*3 20.4 C 4.8 km/h
1881 05-07-2014 22:05:00 20.4 C 14.33 g/m*3 20.4 C 1.6 km/h
1882 05-07-2014 22:10:00 20.3 C 14.25 g/m*3 20.3 C 8.1 km/h
1883 05-07-2014 22:15:00 20.3 C 14.25 g/m*3 20.3 C 9.7 km/h
1884 05-07-2014 22:20:00 20.2 C 14.34 g/m*3 20.2 C 9.7 km/h
1885 05-07-2014 22:25:00 20.3 C 14.42 g/m*3 20.3 C 6.4 km/h
1886 05-07-2014 22:30:00 20.3 C 14.42 g/m*3 20.3 C 6.4 km/h
1887 05-07-2014 22:35:00 20.2 C 14.34 g/m*3 20.2 C 8.1 km/h
1888 05-07-2014 22:40:00 20.2 C 14.34 g/m*3 20.2 C 4.8 km/h
1889 05-07-2014 22:45:00 20.2 C 14.51 g/m*3 20.2 C 4.8 km/h
1890 05-07-2014 22:50:00 20.1 C 14.43 g/m*3 20.1 C 1.6 km/h
1891 05-07-2014 22:55:00 20.1 C 14.43 g/m*3 20.1 C 0 km/h
1892 05-07-2014 23:00:00 20 C 14.52 g/m*3 20 C 0 km/h
1893 05-07-2014 23:05:00 19.9 C 14.43 g/m*3 19.9 C 0 km/h
1894 05-07-2014 23:10:00 19.9 C 14.43 g/m*3 19.9 C 3.2 km/h
1895 05-07-2014 23:15:00 19.8 C 14.52 g/m*3 19.8 C 1.6 km/h
1896 05-07-2014 23:20:00 19.8 C 14.35 g/m*3 19.8 C 0 km/h
1897 05-07-2014 23:25:00 19.8 C 14.52 g/m*3 19.8 C 0 km/h
1898 05-07-2014 23:30:00 19.7 C 14.43 g/m*3 19.7 C 1.6 km/h
1899 05-07-2014 23:35:00 19.7 C 14.43 g/m*3 19.7 C 4.8 km/h
1900 05-07-2014 23:40:00 19.7 C 14.6 g/m*3 19.7 C 0 km/h
Sensor: Nr:Datum:Temp:Abs-Feuchte:Windchill:Wind:
Aussen-T/F 1901 05-07-2014 23:45:00 19.6 C 14.52 g/m*3 19.6 C 0 km/h
1902 05-07-2014 23:50:00 19.6 C 14.52 g/m*3 19.6 C 0 km/h
1903 05-07-2014 23:55:00 19.5 C 14.43 g/m*3 19.5 C 0 km/h
1904 06-07-2014 00:00:00 19.4 C 14.52 g/m*3 19.4 C 0 km/h
1905 06-07-2014 00:05:00 19.4 C 14.52 g/m*3 19.4 C 0 km/h
1906 06-07-2014 00:10:00 19.3 C 14.43 g/m*3 19.3 C 0 km/h
1907 06-07-2014 00:15:00 19.2 C 14.51 g/m*3 19.2 C 0 km/h
1908 06-07-2014 00:20:00 19.1 C 14.43 g/m*3 19.1 C 0 km/h
1909 06-07-2014 00:25:00 19.1 C 14.43 g/m*3 19.1 C 0 km/h
1910 06-07-2014 00:30:00 19 C 14.34 g/m*3 19 C 0 km/h
1911 06-07-2014 00:35:00 18.9 C 14.42 g/m*3 18.9 C 0 km/h
1912 06-07-2014 00:40:00 18.7 C 14.09 g/m*3 18.7 C 0 km/h
1913 06-07-2014 00:45:00 18.6 C 14.17 g/m*3 18.6 C 0 km/h
1914 06-07-2014 00:50:00 18.5 C 14.08 g/m*3 18.5 C 0 km/h
1915 06-07-2014 00:55:00 18.4 C 14.16 g/m*3 18.4 C 0 km/h
1916 06-07-2014 01:00:00 18.4 C 14.16 g/m*3 18.4 C 0 km/h
1917 06-07-2014 01:05:00 18.3 C 14.07 g/m*3 18.3 C 0 km/h
1918 06-07-2014 01:10:00 18.3 C 14.07 g/m*3 18.3 C 0 km/h
1919 06-07-2014 01:15:00 18.3 C 14.07 g/m*3 18.3 C 0 km/h
1920 06-07-2014 01:20:00 18.2 C 13.99 g/m*3 18.2 C 0 km/h
1921 06-07-2014 01:25:00 18.2 C 14.14 g/m*3 18.2 C 0 km/h
1922 06-07-2014 01:30:00 18.2 C 14.14 g/m*3 18.2 C 0 km/h
1923 06-07-2014 01:35:00 18.2 C 14.14 g/m*3 18.2 C 0 km/h
1924 06-07-2014 01:40:00 18.2 C 14.14 g/m*3 18.2 C 0 km/h
1925 06-07-2014 01:45:00 18.2 C 14.14 g/m*3 18.2 C 0 km/h
Sensor: Nr:Datum:Temp:Abs-Feuchte:Windchill:Wind:
Aussen-T/F 1926 06-07-2014 01:50:00 18.2 C 14.14 g/m*3 18.2 C 0 km/h
1927 06-07-2014 01:55:00 18.2 C 14.14 g/m*3 18.2 C 0 km/h
1928 06-07-2014 02:00:00 18.2 C 14.14 g/m*3 18.2 C 0 km/h
1929 06-07-2014 02:05:00 18.2 C 14.14 g/m*3 18.2 C 0 km/h
1930 06-07-2014 02:10:00 18.2 C 14.14 g/m*3 18.2 C 0 km/h
1931 06-07-2014 02:15:00 18.2 C 14.14 g/m*3 18.2 C 0 km/h
1932 06-07-2014 02:20:00 18.1 C 14.06 g/m*3 18.1 C 0 km/h
1933 06-07-2014 02:25:00 18.1 C 14.06 g/m*3 18.1 C 0 km/h
1934 06-07-2014 02:30:00 18.1 C 14.21 g/m*3 18.1 C 0 km/h
1935 06-07-2014 02:35:00 18.1 C 14.21 g/m*3 18.1 C 0 km/h
1936 06-07-2014 02:40:00 18 C 14.13 g/m*3 18 C 0 km/h
1937 06-07-2014 02:45:00 18 C 14.13 g/m*3 18 C 0 km/h
1938 06-07-2014 02:50:00 18 C 14.13 g/m*3 18 C 0 km/h
1939 06-07-2014 02:55:00 18 C 14.13 g/m*3 18 C 0 km/h
1940 06-07-2014 03:00:00 18.1 C 14.21 g/m*3 18.1 C 0 km/h
1941 06-07-2014 03:05:00 18.1 C 14.21 g/m*3 18.1 C 0 km/h
1942 06-07-2014 03:10:00 18.1 C 14.21 g/m*3 18.1 C 0 km/h
1943 06-07-2014 03:15:00 18.1 C 14.21 g/m*3 18.1 C 0 km/h
1944 06-07-2014 03:20:00 18.1 C 14.21 g/m*3 18.1 C 0 km/h
1945 06-07-2014 03:25:00 18.2 C 14.3 g/m*3 18.2 C 0 km/h
1946 06-07-2014 03:30:00 18.2 C 14.14 g/m*3 18.2 C 0 km/h
1947 06-07-2014 03:35:00 18.2 C 14.14 g/m*3 18.2 C 0 km/h
1948 06-07-2014 03:40:00 18.2 C 14.14 g/m*3 18.2 C 0 km/h
1949 06-07-2014 03:45:00 18.1 C 14.06 g/m*3 18.1 C 0 km/h
1950 06-07-2014 03:50:00 18.1 C 14.06 g/m*3 18.1 C 0 km/h
Sensor: Nr:Datum:Temp:Abs-Feuchte:Windchill:Wind:
Aussen-T/F 1951 06-07-2014 03:55:00 18 C 13.98 g/m*3 18 C 0 km/h
1952 06-07-2014 04:00:00 17.9 C 13.89 g/m*3 17.9 C 0 km/h
1953 06-07-2014 04:05:00 17.9 C 14.05 g/m*3 17.9 C 1.6 km/h
1954 06-07-2014 04:10:00 17.9 C 13.89 g/m*3 17.9 C 0 km/h
1955 06-07-2014 04:15:00 18.1 C 14.06 g/m*3 18.1 C 0 km/h
1956 06-07-2014 04:20:00 18.1 C 14.06 g/m*3 18.1 C 0 km/h
1957 06-07-2014 04:25:00 18.1 C 14.06 g/m*3 18.1 C 0 km/h
1958 06-07-2014 04:30:00 18.1 C 14.06 g/m*3 18.1 C 0 km/h
1959 06-07-2014 04:35:00 18.1 C 14.21 g/m*3 18.1 C 0 km/h
1960 06-07-2014 04:40:00 18.1 C 14.21 g/m*3 18.1 C 0 km/h
1961 06-07-2014 04:45:00 18.1 C 14.21 g/m*3 18.1 C 0 km/h
1962 06-07-2014 04:50:00 18.1 C 14.21 g/m*3 18.1 C 0 km/h
1963 06-07-2014 04:55:00 18.1 C 14.21 g/m*3 18.1 C 0 km/h
1964 06-07-2014 05:00:00 18.1 C 14.21 g/m*3 18.1 C 0 km/h
1965 06-07-2014 05:05:00 18.1 C 14.21 g/m*3 18.1 C 0 km/h
1966 06-07-2014 05:10:00 18.1 C 14.37 g/m*3 18.1 C 0 km/h
1967 06-07-2014 05:15:00 18.1 C 14.37 g/m*3 18.1 C 0 km/h
1968 06-07-2014 05:20:00 18.1 C 14.37 g/m*3 18.1 C 0 km/h
1969 06-07-2014 05:25:00 18.1 C 14.37 g/m*3 18.1 C 0 km/h
1970 06-07-2014 05:30:00 18 C 14.28 g/m*3 18 C 0 km/h
1971 06-07-2014 05:35:00 17.9 C 14.2 g/m*3 17.9 C 0 km/h
1972 06-07-2014 05:40:00 17.9 C 14.35 g/m*3 17.9 C 0 km/h
1973 06-07-2014 05:45:00 17.9 C 14.35 g/m*3 17.9 C 0 km/h
1974 06-07-2014 05:50:00 17.9 C 14.35 g/m*3 17.9 C 0 km/h
1975 06-07-2014 05:55:00 17.8 C 14.27 g/m*3 17.8 C 1.6 km/h
Sensor: Nr:Datum:Temp:Abs-Feuchte:Windchill:Wind:
Aussen-T/F 1976 06-07-2014 06:00:00 17.8 C 14.27 g/m*3 17.8 C 0 km/h
1977 06-07-2014 06:05:00 17.8 C 14.27 g/m*3 17.8 C 0 km/h
1978 06-07-2014 06:10:00 17.8 C 14.27 g/m*3 17.8 C 0 km/h
1979 06-07-2014 06:15:00 17.8 C 14.27 g/m*3 17.8 C 0 km/h
1980 06-07-2014 06:20:00 17.8 C 14.27 g/m*3 17.8 C 0 km/h
1981 06-07-2014 06:25:00 17.8 C 14.27 g/m*3 17.8 C 0 km/h
1982 06-07-2014 06:30:00 17.9 C 14.5 g/m*3 17.9 C 0 km/h
1983 06-07-2014 06:35:00 17.9 C 14.35 g/m*3 17.9 C 1.6 km/h
1984 06-07-2014 06:40:00 18 C 14.44 g/m*3 18 C 0 km/h
1985 06-07-2014 06:45:00 18.1 C 14.52 g/m*3 18.1 C 3.2 km/h
1986 06-07-2014 06:50:00 18.2 C 14.61 g/m*3 18.2 C 1.6 km/h
1987 06-07-2014 06:55:00 18.3 C 14.7 g/m*3 18.3 C 0 km/h
1988 06-07-2014 07:00:00 18.4 C 14.63 g/m*3 18.4 C 8.1 km/h
1989 06-07-2014 07:05:00 18.7 C 14.73 g/m*3 18.7 C 4.8 km/h
1990 06-07-2014 07:10:00 18.9 C 14.74 g/m*3 18.9 C 3.2 km/h
1991 06-07-2014 07:15:00 19.2 C 14.84 g/m*3 19.2 C 1.6 km/h
1992 06-07-2014 07:20:00 19.3 C 14.93 g/m*3 19.3 C 0 km/h
1993 06-07-2014 07:25:00 19.4 C 15.02 g/m*3 19.4 C 1.6 km/h
1994 06-07-2014 07:30:00 19.6 C 15.02 g/m*3 19.6 C 3.2 km/h
1995 06-07-2014 07:35:00 19.8 C 15.2 g/m*3 19.8 C 4.8 km/h
1996 06-07-2014 07:40:00 19.9 C 15.12 g/m*3 19.9 C 1.6 km/h
1997 06-07-2014 07:45:00 19.9 C 15.29 g/m*3 19.9 C 0 km/h
1998 06-07-2014 07:50:00 20 C 15.38 g/m*3 20 C 0 km/h
1999 06-07-2014 07:55:00 20.1 C 15.12 g/m*3 20.1 C 4.8 km/h
2000 06-07-2014 08:00:00 20.4 C 15.21 g/m*3 20.4 C 4.8 km/h
Sensor: Nr:Datum:Temp:Abs-Feuchte:Windchill:Wind:
Aussen-T/F 2001 06-07-2014 08:05:00 20.7 C 15.3 g/m*3 20.7 C 4.8 km/h
2002 06-07-2014 08:10:00 20.9 C 15.66 g/m*3 20.9 C 0 km/h
2003 06-07-2014 08:15:00 21.1 C 15.29 g/m*3 21.1 C 3.2 km/h
2004 06-07-2014 08:20:00 21.4 C 15.37 g/m*3 21.4 C 1.6 km/h
2005 06-07-2014 08:25:00 21.6 C 15.36 g/m*3 21.6 C 1.6 km/h
2006 06-07-2014 08:30:00 21.9 C 15.82 g/m*3 21.9 C 3.2 km/h
2007 06-07-2014 08:35:00 22.1 C 15.62 g/m*3 22.1 C 3.2 km/h
2008 06-07-2014 08:40:00 22.3 C 15.4 g/m*3 22.3 C 6.4 km/h
2009 06-07-2014 08:45:00 22.4 C 15.69 g/m*3 22.4 C 4.8 km/h
2010 06-07-2014 08:50:00 22.6 C 15.47 g/m*3 22.6 C 3.2 km/h
2011 06-07-2014 08:55:00 22.7 C 15.76 g/m*3 22.7 C 3.2 km/h
2012 06-07-2014 09:00:00 22.8 C 16.05 g/m*3 22.8 C 3.2 km/h
2013 06-07-2014 09:05:00 22.9 C 15.33 g/m*3 22.9 C 6.4 km/h
2014 06-07-2014 09:10:00 22.9 C 15.53 g/m*3 22.9 C 0 km/h
2015 06-07-2014 09:15:00 22.9 C 15.33 g/m*3 22.9 C 0 km/h
2016 06-07-2014 09:20:00 22.9 C 15.33 g/m*3 22.9 C 1.6 km/h
2017 06-07-2014 09:25:00 22.8 C 14.83 g/m*3 22.8 C 6.4 km/h
2018 06-07-2014 09:30:00 22.8 C 14.83 g/m*3 22.8 C 4.8 km/h
2019 06-07-2014 09:35:00 22.9 C 14.92 g/m*3 22.9 C 8.1 km/h
2020 06-07-2014 09:40:00 22.9 C 14.92 g/m*3 22.9 C 4.8 km/h
2021 06-07-2014 09:45:00 23.1 C 15.3 g/m*3 23.1 C 8.1 km/h
2022 06-07-2014 09:50:00 23.3 C 15.26 g/m*3 23.3 C 6.4 km/h
2023 06-07-2014 09:55:00 23.4 C 14.93 g/m*3 23.4 C 8.1 km/h
2024 06-07-2014 10:00:00 23.7 C 15.4 g/m*3 23.7 C 8.1 km/h
2025 06-07-2014 10:05:00 23.9 C 16.23 g/m*3 23.9 C 6.4 km/h
Sensor: Nr:Datum:Temp:Abs-Feuchte:Windchill:Wind:
Aussen-T/F 2026 06-07-2014 10:10:00 24.3 C 15.27 g/m*3 24.3 C 4.8 km/h
2027 06-07-2014 10:15:00 24.6 C 15.75 g/m*3 24.6 C 4.8 km/h
2028 06-07-2014 10:20:00 24.8 C 15.48 g/m*3 24.8 C 8.1 km/h
2029 06-07-2014 10:25:00 24.7 C 14.71 g/m*3 24.7 C 8.1 km/h
2030 06-07-2014 10:30:00 24.8 C 15.25 g/m*3 24.8 C 11.3 km/h
2031 06-07-2014 10:35:00 25 C 14.73 g/m*3 25 C 9.7 km/h
2032 06-07-2014 10:40:00 25 C 14.73 g/m*3 25 C 8.1 km/h
2033 06-07-2014 10:45:00 25 C 14.73 g/m*3 25 C 12.9 km/h
2034 06-07-2014 10:50:00 24.8 C 14.57 g/m*3 24.8 C 9.7 km/h
2035 06-07-2014 10:55:00 24.9 C 15.11 g/m*3 24.9 C 8.1 km/h
2036 06-07-2014 11:00:00 25.1 C 15.28 g/m*3 25.1 C 11.3 km/h
2037 06-07-2014 11:05:00 25.3 C 14.75 g/m*3 25.3 C 11.3 km/h
2038 06-07-2014 11:10:00 25.8 C 15.17 g/m*3 25.8 C 8.1 km/h
2039 06-07-2014 11:15:00 26.1 C 14.2 g/m*3 26.1 C 9.7 km/h
2040 06-07-2014 11:20:00 25.9 C 14.53 g/m*3 25.9 C 11.3 km/h
2041 06-07-2014 11:25:00 26.1 C 14.93 g/m*3 26.1 C 9.7 km/h
2042 06-07-2014 11:30:00 26.5 C 14.77 g/m*3 26.5 C 9.7 km/h
2043 06-07-2014 11:35:00 26.7 C 14.93 g/m*3 26.7 C 9.7 km/h
2044 06-07-2014 11:40:00 26.8 C 15.02 g/m*3 26.8 C 6.4 km/h
2045 06-07-2014 11:45:00 26.9 C 14.84 g/m*3 26.9 C 12.9 km/h
2046 06-07-2014 11:50:00 27.1 C 14.23 g/m*3 27.1 C 12.9 km/h
2047 06-07-2014 11:55:00 27.3 C 14.13 g/m*3 27.3 C 6.4 km/h
2048 06-07-2014 12:00:00 27.4 C 15 g/m*3 27.4 C 14.5 km/h
2049 06-07-2014 12:05:00 27.2 C 14.57 g/m*3 27.2 C 14.5 km/h
2050 06-07-2014 12:10:00 27.1 C 13.97 g/m*3 27.1 C 8.1 km/h
Sensor: Nr:Datum:Temp:Abs-Feuchte:Windchill:Wind:
Aussen-T/F 2051 06-07-2014 12:15:00 26.8 C 14 g/m*3 26.8 C 4.8 km/h
2052 06-07-2014 12:20:00 26.7 C 14.17 g/m*3 26.7 C 9.7 km/h
2053 06-07-2014 12:25:00 26.7 C 13.92 g/m*3 26.7 C 9.7 km/h
2054 06-07-2014 12:30:00 27.1 C 14.23 g/m*3 27.1 C 6.4 km/h
2055 06-07-2014 12:35:00 27.2 C 13.79 g/m*3 27.2 C 6.4 km/h
2056 06-07-2014 12:40:00 27.2 C 14.05 g/m*3 27.2 C 11.3 km/h
2057 06-07-2014 12:45:00 27.2 C 14.05 g/m*3 27.2 C 9.7 km/h
2058 06-07-2014 12:50:00 27.3 C 14.39 g/m*3 27.3 C 6.4 km/h
2059 06-07-2014 12:55:00 27.5 C 13.49 g/m*3 27.5 C 11.3 km/h
2060 06-07-2014 13:00:00 27.6 C 13.57 g/m*3 27.6 C 14.5 km/h
2061 06-07-2014 13:05:00 27.7 C 14.44 g/m*3 27.7 C 11.3 km/h
2062 06-07-2014 13:10:00 27.6 C 13.57 g/m*3 27.6 C 11.3 km/h
2063 06-07-2014 13:15:00 27.4 C 13.68 g/m*3 27.4 C 6.4 km/h
2064 06-07-2014 13:20:00 27.7 C 13.64 g/m*3 27.7 C 9.7 km/h
2065 06-07-2014 13:25:00 28.1 C 13.95 g/m*3 28.1 C 12.9 km/h
2066 06-07-2014 13:30:00 28.5 C 13.97 g/m*3 28.5 C 9.7 km/h
2067 06-07-2014 13:35:00 28.8 C 13.35 g/m*3 28.8 C 8.1 km/h
2068 06-07-2014 13:40:00 28.7 C 13.85 g/m*3 28.7 C 11.3 km/h
2069 06-07-2014 13:45:00 28.4 C 13.06 g/m*3 28.4 C 11.3 km/h
2070 06-07-2014 13:50:00 28.3 C 12.99 g/m*3 28.3 C 14.5 km/h
2071 06-07-2014 13:55:00 28.3 C 13.27 g/m*3 28.3 C 14.5 km/h
2072 06-07-2014 14:00:00 28.4 C 13.06 g/m*3 28.4 C 11.3 km/h
2073 06-07-2014 14:05:00 28.3 C 13.27 g/m*3 28.3 C 11.3 km/h
2074 06-07-2014 14:10:00 28.3 C 12.99 g/m*3 28.3 C 9.7 km/h
2075 06-07-2014 14:15:00 28.5 C 13.42 g/m*3 28.5 C 14.5 km/h
Sensor: Nr:Datum:Temp:Abs-Feuchte:Windchill:Wind:
Aussen-T/F 2076 06-07-2014 14:20:00 28.7 C 13.28 g/m*3 28.7 C 8.1 km/h
2077 06-07-2014 14:25:00 28.7 C 13.56 g/m*3 28.7 C 6.4 km/h
2078 06-07-2014 14:30:00 28.7 C 13.85 g/m*3 28.7 C 9.7 km/h
2079 06-07-2014 14:35:00 28.6 C 13.21 g/m*3 28.6 C 14.5 km/h
2080 06-07-2014 14:40:00 28.6 C 13.49 g/m*3 28.6 C 4.8 km/h
2081 06-07-2014 14:45:00 28.8 C 13.35 g/m*3 28.8 C 9.7 km/h
2082 06-07-2014 14:50:00 29.1 C 13.28 g/m*3 29.1 C 12.9 km/h
2083 06-07-2014 14:55:00 29.3 C 14.01 g/m*3 29.3 C 6.4 km/h
2084 06-07-2014 15:00:00 29.3 C 12.85 g/m*3 29.3 C 9.7 km/h
2085 06-07-2014 15:05:00 29.6 C 13.06 g/m*3 29.6 C 11.3 km/h
2086 06-07-2014 15:10:00 29.8 C 13.2 g/m*3 29.8 C 14.5 km/h
2087 06-07-2014 15:15:00 29.7 C 12.83 g/m*3 29.7 C 8.1 km/h
2088 06-07-2014 15:20:00 29.3 C 12.55 g/m*3 29.3 C 11.3 km/h
2089 06-07-2014 15:25:00 29 C 12.35 g/m*3 29 C 9.7 km/h
2090 06-07-2014 15:30:00 28.9 C 12.57 g/m*3 28.9 C 6.4 km/h
2091 06-07-2014 15:35:00 28.8 C 12.79 g/m*3 28.8 C 11.3 km/h
2092 06-07-2014 15:40:00 28.9 C 12.86 g/m*3 28.9 C 12.9 km/h
2093 06-07-2014 15:45:00 29.1 C 13.28 g/m*3 29.1 C 8.1 km/h
2094 06-07-2014 15:50:00 29.1 C 13.57 g/m*3 29.1 C 8.1 km/h
2095 06-07-2014 15:55:00 28.9 C 13.14 g/m*3 28.9 C 12.9 km/h
2096 06-07-2014 16:00:00 28.9 C 13.43 g/m*3 28.9 C 6.4 km/h
2097 06-07-2014 16:05:00 29.2 C 13.36 g/m*3 29.2 C 11.3 km/h
2098 06-07-2014 16:10:00 29.6 C 13.35 g/m*3 29.6 C 19.3 km/h
2099 06-07-2014 16:15:00 29.8 C 14.1 g/m*3 29.8 C 19.3 km/h
2100 06-07-2014 16:20:00 30 C 14.25 g/m*3 30 C 9.7 km/h
Sensor: Nr:Datum:Temp:Abs-Feuchte:Windchill:Wind:
Aussen-T/F 2101 06-07-2014 16:25:00 30.3 C 13.87 g/m*3 30.3 C 12.9 km/h
2102 06-07-2014 16:30:00 30.3 C 14.49 g/m*3 30.3 C 9.7 km/h
2103 06-07-2014 16:35:00 30.7 C 13.86 g/m*3 30.7 C 8.1 km/h
2104 06-07-2014 16:40:00 30.6 C 14.09 g/m*3 30.6 C 9.7 km/h
2105 06-07-2014 16:45:00 30.4 C 14.25 g/m*3 30.4 C 9.7 km/h
2106 06-07-2014 16:50:00 30.3 C 13.56 g/m*3 30.3 C 9.7 km/h
2107 06-07-2014 16:55:00 30.4 C 13.63 g/m*3 30.4 C 14.5 km/h
2108 06-07-2014 17:00:00 30.8 C 13.93 g/m*3 30.8 C 14.5 km/h
2109 06-07-2014 17:05:00 30.8 C 13.61 g/m*3 30.8 C 16.1 km/h
2110 06-07-2014 17:10:00 31.1 C 13.51 g/m*3 31.1 C 12.9 km/h
2111 06-07-2014 17:15:00 31.2 C 13.91 g/m*3 31.2 C 8.1 km/h
2112 06-07-2014 17:20:00 31.4 C 14.06 g/m*3 31.4 C 6.4 km/h
2113 06-07-2014 17:25:00 31.6 C 13.55 g/m*3 31.6 C 8.1 km/h
2114 06-07-2014 17:30:00 31.4 C 13.08 g/m*3 31.4 C 8.1 km/h
2115 06-07-2014 17:35:00 31.4 C 13.73 g/m*3 31.4 C 16.1 km/h
2116 06-07-2014 17:40:00 31.3 C 12.68 g/m*3 31.3 C 9.7 km/h
2117 06-07-2014 17:45:00 31.3 C 12.68 g/m*3 31.3 C 12.9 km/h
2118 06-07-2014 17:50:00 31.1 C 12.55 g/m*3 31.1 C 19.3 km/h
2119 06-07-2014 17:55:00 30.9 C 12.41 g/m*3 30.9 C 11.3 km/h
2120 06-07-2014 18:00:00 30.9 C 13.05 g/m*3 30.9 C 8.1 km/h
2121 06-07-2014 18:05:00 30.9 C 12.73 g/m*3 30.9 C 8.1 km/h
2122 06-07-2014 18:10:00 31.2 C 12.94 g/m*3 31.2 C 11.3 km/h
2123 06-07-2014 18:15:00 31.5 C 13.15 g/m*3 31.5 C 12.9 km/h
2124 06-07-2014 18:20:00 31.5 C 13.15 g/m*3 31.5 C 11.3 km/h
2125 06-07-2014 18:25:00 31.6 C 12.56 g/m*3 31.6 C 12.9 km/h
Sensor: Nr:Datum:Temp:Abs-Feuchte:Windchill:Wind:
Aussen-T/F 2126 06-07-2014 18:30:00 31.3 C 12.68 g/m*3 31.3 C 11.3 km/h
2127 06-07-2014 18:35:00 30.9 C 12.73 g/m*3 30.9 C 8.1 km/h
2128 06-07-2014 18:40:00 30.2 C 12.87 g/m*3 30.2 C 17.7 km/h
2129 06-07-2014 18:45:00 29.8 C 12.9 g/m*3 29.8 C 8.1 km/h
2130 06-07-2014 18:50:00 29.4 C 13.21 g/m*3 29.4 C 4.8 km/h
2131 06-07-2014 18:55:00 29.3 C 13.43 g/m*3 29.3 C 3.2 km/h
2132 06-07-2014 19:00:00 29 C 14.36 g/m*3 29 C 4.8 km/h
2133 06-07-2014 19:05:00 28.8 C 13.07 g/m*3 28.8 C 3.2 km/h
2134 06-07-2014 19:10:00 28.9 C 14 g/m*3 28.9 C 4.8 km/h
2135 06-07-2014 19:15:00 29.3 C 13.43 g/m*3 29.3 C 4.8 km/h
2136 06-07-2014 19:20:00 29.9 C 13.27 g/m*3 29.9 C 11.3 km/h
2137 06-07-2014 19:25:00 30.1 C 14.02 g/m*3 30.1 C 9.7 km/h
2138 06-07-2014 19:30:00 30.2 C 14.1 g/m*3 30.2 C 1.6 km/h
2139 06-07-2014 19:35:00 30.1 C 12.81 g/m*3 30.1 C 6.4 km/h
2140 06-07-2014 19:40:00 29.9 C 12.97 g/m*3 29.9 C 6.4 km/h
2141 06-07-2014 19:45:00 29.5 C 13.58 g/m*3 29.5 C 9.7 km/h
2142 06-07-2014 19:50:00 29 C 12.93 g/m*3 29 C 1.6 km/h
2143 06-07-2014 19:55:00 28.7 C 14.13 g/m*3 28.7 C 6.4 km/h
2144 06-07-2014 20:00:00 28.2 C 14.3 g/m*3 28.2 C 4.8 km/h
2145 06-07-2014 20:05:00 27.7 C 14.71 g/m*3 27.7 C 4.8 km/h
2146 06-07-2014 20:10:00 27.1 C 15.01 g/m*3 27.1 C 0 km/h
2147 06-07-2014 20:15:00 26.4 C 14.44 g/m*3 26.4 C 3.2 km/h
2148 06-07-2014 20:20:00 26.1 C 14.93 g/m*3 26.1 C 1.6 km/h
2149 06-07-2014 20:25:00 25.8 C 11.8 g/m*3 25.8 C 30.6 km/h
2150 06-07-2014 20:30:00 24.9 C 11.45 g/m*3 24.9 C 25.7 km/h
Sensor: Nr:Datum:Temp:Abs-Feuchte:Windchill:Wind:
Aussen-T/F 2151 06-07-2014 20:35:00 24.2 C 11.44 g/m*3 24.2 C 24.1 km/h
2152 06-07-2014 20:40:00 23.4 C 11.57 g/m*3 23.4 C 22.5 km/h
2153 06-07-2014 20:45:00 22.8 C 11.79 g/m*3 22.8 C 16.1 km/h
2154 06-07-2014 20:50:00 22.3 C 12.05 g/m*3 22.3 C 11.3 km/h
2155 06-07-2014 20:55:00 21.8 C 12.09 g/m*3 21.8 C 17.7 km/h
2156 06-07-2014 21:00:00 21.5 C 12.26 g/m*3 21.5 C 14.5 km/h
2157 06-07-2014 21:05:00 21.3 C 12.12 g/m*3 21.3 C 9.7 km/h
2158 06-07-2014 21:10:00 21.3 C 12.12 g/m*3 21.3 C 12.9 km/h
2159 06-07-2014 21:15:00 21.2 C 12.23 g/m*3 21.2 C 22.5 km/h
2160 06-07-2014 21:20:00 21.1 C 13.08 g/m*3 21.1 C 25.7 km/h
2161 06-07-2014 21:25:00 20.4 C 13.27 g/m*3 20.4 C 19.3 km/h
2162 06-07-2014 21:30:00 19.7 C 13.25 g/m*3 19.7 C 9.7 km/h
2163 06-07-2014 21:35:00 19.2 C 13.52 g/m*3 19.2 C 4.8 km/h
2164 06-07-2014 21:40:00 18.8 C 13.53 g/m*3 18.8 C 4.8 km/h
2165 06-07-2014 21:45:00 18.6 C 13.69 g/m*3 18.6 C 4.8 km/h
2166 06-07-2014 21:50:00 18.3 C 13.45 g/m*3 18.3 C 1.6 km/h
2167 06-07-2014 21:55:00 18.3 C 13.45 g/m*3 18.3 C 0 km/h
2168 06-07-2014 22:00:00 18.2 C 13.83 g/m*3 18.2 C 1.6 km/h
2169 06-07-2014 22:05:00 18.1 C 14.06 g/m*3 18.1 C 1.6 km/h
2170 06-07-2014 22:10:00 18 C 13.98 g/m*3 18 C 0 km/h
2171 06-07-2014 22:15:00 18 C 13.98 g/m*3 18 C 0 km/h
2172 06-07-2014 22:20:00 18 C 13.98 g/m*3 18 C 0 km/h
2173 06-07-2014 22:25:00 17.7 C 13.88 g/m*3 17.7 C 1.6 km/h
2174 06-07-2014 22:30:00 17.7 C 13.88 g/m*3 17.7 C 0 km/h
2175 06-07-2014 22:35:00 17.5 C 13.87 g/m*3 17.5 C 0 km/h
Sensor: Nr:Datum:Temp:Abs-Feuchte:Windchill:Wind:
Aussen-T/F 2176 06-07-2014 22:40:00 17.4 C 13.78 g/m*3 17.4 C 0 km/h
2177 06-07-2014 22:45:00 17.4 C 13.93 g/m*3 17.4 C 0 km/h
2178 06-07-2014 22:50:00 17.4 C 13.93 g/m*3 17.4 C 0 km/h
2179 07-07-2014 01:10:00 17.7 C 14.03 g/m*3 17.7 C 1.6 km/h
2180 07-07-2014 01:15:00 17.7 C 14.03 g/m*3 17.7 C 1.6 km/h
2181 07-07-2014 01:20:00 17.8 C 14.12 g/m*3 17.8 C 4.8 km/h
2182 07-07-2014 01:25:00 17.8 C 14.12 g/m*3 17.8 C 1.6 km/h
2183 07-07-2014 01:30:00 17.9 C 14.05 g/m*3 17.9 C 3.2 km/h
2184 07-07-2014 01:35:00 17.9 C 14.05 g/m*3 17.9 C 1.6 km/h
2185 07-07-2014 01:40:00 17.9 C 14.05 g/m*3 17.9 C 0 km/h
2186 07-07-2014 01:45:00 17.9 C 14.05 g/m*3 17.9 C 0 km/h
2187 07-07-2014 02:25:00 17.4 C 13.63 g/m*3 17.4 C 11.3 km/h
2188 07-07-2014 02:30:00 17.3 C 13.41 g/m*3 17.3 C 8.1 km/h
2189 07-07-2014 02:35:00 17.3 C 13.41 g/m*3 17.3 C 8.1 km/h
2190 07-07-2014 02:40:00 17.2 C 13.33 g/m*3 17.2 C 9.7 km/h
2191 07-07-2014 02:45:00 17.2 C 13.33 g/m*3 17.2 C 8.1 km/h
2192 07-07-2014 02:50:00 17.2 C 13.33 g/m*3 17.2 C 4.8 km/h
2193 07-07-2014 02:55:00 17.1 C 13.25 g/m*3 17.1 C 8.1 km/h
2194 07-07-2014 03:00:00 17 C 13.02 g/m*3 17 C 11.3 km/h
2195 07-07-2014 03:05:00 16.9 C 12.94 g/m*3 16.9 C 6.4 km/h
2196 07-07-2014 03:10:00 16.8 C 12.72 g/m*3 16.8 C 14.5 km/h
2197 07-07-2014 03:15:00 16.8 C 12.72 g/m*3 16.8 C 6.4 km/h
2198 07-07-2014 03:20:00 16.7 C 12.65 g/m*3 16.7 C 4.8 km/h
2199 07-07-2014 03:25:00 16.7 C 12.79 g/m*3 16.7 C 3.2 km/h
2200 07-07-2014 03:30:00 16.6 C 12.86 g/m*3 16.6 C 3.2 km/h
Sensor: Nr:Datum:Temp:Abs-Feuchte:Windchill:Wind:
Aussen-T/F 2201 07-07-2014 03:35:00 16.4 C 12.56 g/m*3 16.4 C 0 km/h
2202 07-07-2014 03:40:00 16.3 C 12.49 g/m*3 16.3 C 3.2 km/h
2203 07-07-2014 03:45:00 16.2 C 12.41 g/m*3 16.2 C 4.8 km/h
2204 07-07-2014 03:50:00 16.2 C 12.55 g/m*3 16.2 C 0 km/h
2205 07-07-2014 03:55:00 16.1 C 12.47 g/m*3 16.1 C 0 km/h
2206 07-07-2014 04:00:00 16 C 12.53 g/m*3 16 C 1.6 km/h
2207 07-07-2014 04:05:00 15.9 C 12.32 g/m*3 15.9 C 1.6 km/h
2208 07-07-2014 04:10:00 15.8 C 12.38 g/m*3 15.8 C 1.6 km/h
2209 07-07-2014 04:15:00 15.8 C 12.38 g/m*3 15.8 C 3.2 km/h
2210 07-07-2014 04:20:00 15.7 C 12.31 g/m*3 15.7 C 0 km/h
2211 07-07-2014 04:25:00 15.7 C 12.31 g/m*3 15.7 C 1.6 km/h
2212 07-07-2014 04:30:00 15.6 C 12.23 g/m*3 15.6 C 1.6 km/h
2213 07-07-2014 04:35:00 15.6 C 12.23 g/m*3 15.6 C 1.6 km/h
2214 07-07-2014 04:40:00 15.4 C 11.96 g/m*3 15.4 C 1.6 km/h
2215 07-07-2014 04:45:00 15.4 C 12.09 g/m*3 15.4 C 1.6 km/h
2216 07-07-2014 04:50:00 15.3 C 12.01 g/m*3 15.3 C 0 km/h
2217 07-07-2014 04:55:00 15.2 C 11.94 g/m*3 15.2 C 0 km/h
2218 07-07-2014 05:00:00 15.2 C 11.94 g/m*3 15.2 C 1.6 km/h
2219 07-07-2014 05:05:00 15.2 C 12.07 g/m*3 15.2 C 0 km/h
2220 07-07-2014 05:10:00 15.1 C 12 g/m*3 15.1 C 0 km/h
2221 07-07-2014 05:15:00 14.9 C 11.85 g/m*3 14.9 C 0 km/h
2222 07-07-2014 05:20:00 14.8 C 11.78 g/m*3 14.8 C 0 km/h
2223 07-07-2014 05:25:00 14.6 C 11.64 g/m*3 14.6 C 1.6 km/h
2224 07-07-2014 05:30:00 14.5 C 11.57 g/m*3 14.5 C 0 km/h
2225 07-07-2014 05:35:00 14.4 C 11.62 g/m*3 14.4 C 0 km/h
Sensor: Nr:Datum:Temp:Abs-Feuchte:Windchill:Wind:
Aussen-T/F 2226 07-07-2014 05:40:00 14.3 C 11.55 g/m*3 14.3 C 0 km/h
2227 07-07-2014 05:45:00 14.1 C 11.41 g/m*3 14.1 C 0 km/h
2228 07-07-2014 05:50:00 14 C 11.34 g/m*3 14 C 0 km/h
2229 07-07-2014 05:55:00 13.9 C 11.27 g/m*3 13.9 C 0 km/h
2230 07-07-2014 06:00:00 13.9 C 11.27 g/m*3 13.9 C 0 km/h
2231 07-07-2014 06:05:00 13.9 C 11.39 g/m*3 13.9 C 0 km/h
2232 07-07-2014 06:10:00 14 C 11.46 g/m*3 14 C 0 km/h
2233 07-07-2014 06:15:00 14.1 C 11.53 g/m*3 14.1 C 0 km/h
2234 07-07-2014 06:20:00 14.2 C 11.6 g/m*3 14.2 C 0 km/h
2235 07-07-2014 06:25:00 14.3 C 11.67 g/m*3 14.3 C 0 km/h
2236 07-07-2014 06:30:00 14.4 C 11.74 g/m*3 14.4 C 0 km/h
2237 07-07-2014 06:35:00 14.4 C 11.62 g/m*3 14.4 C 0 km/h
2238 07-07-2014 06:40:00 14.6 C 11.76 g/m*3 14.6 C 0 km/h
2239 07-07-2014 06:45:00 14.7 C 11.83 g/m*3 14.7 C 1.6 km/h
2240 07-07-2014 06:50:00 14.9 C 11.98 g/m*3 14.9 C 0 km/h
2241 07-07-2014 06:55:00 15 C 12.05 g/m*3 15 C 0 km/h
2242 07-07-2014 07:00:00 15.1 C 12 g/m*3 15.1 C 0 km/h
2243 07-07-2014 07:05:00 15.1 C 11.74 g/m*3 15.1 C 0 km/h
2244 07-07-2014 07:10:00 15.2 C 11.68 g/m*3 15.2 C 0 km/h
2245 07-07-2014 07:15:00 15.3 C 11.88 g/m*3 15.3 C 0 km/h
2246 07-07-2014 07:20:00 15.3 C 11.75 g/m*3 15.3 C 0 km/h
2247 07-07-2014 07:25:00 15.4 C 11.82 g/m*3 15.4 C 0 km/h
2248 07-07-2014 07:30:00 15.4 C 11.82 g/m*3 15.4 C 0 km/h
2249 07-07-2014 07:35:00 15.5 C 11.76 g/m*3 15.5 C 0 km/h
2250 07-07-2014 07:40:00 15.6 C 11.97 g/m*3 15.6 C 0 km/h
Sensor: Nr:Datum:Temp:Abs-Feuchte:Windchill:Wind:
Aussen-T/F 2251 07-07-2014 07:45:00 15.6 C 11.84 g/m*3 15.6 C 0 km/h
2252 07-07-2014 07:50:00 15.5 C 11.63 g/m*3 15.5 C 0 km/h
2253 07-07-2014 07:55:00 15.5 C 11.76 g/m*3 15.5 C 0 km/h
2254 07-07-2014 08:00:00 15.6 C 11.84 g/m*3 15.6 C 0 km/h
2255 07-07-2014 08:05:00 15.6 C 11.7 g/m*3 15.6 C 0 km/h
2256 07-07-2014 08:10:00 15.7 C 11.77 g/m*3 15.7 C 1.6 km/h
2257 07-07-2014 08:15:00 15.7 C 11.64 g/m*3 15.7 C 0 km/h
2258 07-07-2014 08:20:00 15.7 C 11.64 g/m*3 15.7 C 0 km/h
2259 07-07-2014 08:25:00 15.8 C 11.58 g/m*3 15.8 C 1.6 km/h
2260 07-07-2014 08:30:00 15.8 C 11.71 g/m*3 15.8 C 0 km/h
2261 07-07-2014 08:35:00 15.9 C 11.65 g/m*3 15.9 C 0 km/h
2262 07-07-2014 08:40:00 16 C 11.85 g/m*3 16 C 0 km/h
2263 07-07-2014 08:45:00 16.1 C 11.79 g/m*3 16.1 C 0 km/h
2264 07-07-2014 08:50:00 16.2 C 11.86 g/m*3 16.2 C 0 km/h
2265 07-07-2014 08:55:00 16.3 C 12.07 g/m*3 16.3 C 0 km/h
2266 07-07-2014 09:00:00 16.4 C 11.17 g/m*3 16.4 C 3.2 km/h
2267 07-07-2014 09:05:00 16.6 C 10.74 g/m*3 16.6 C 3.2 km/h
2268 07-07-2014 09:10:00 16.7 C 10.37 g/m*3 16.7 C 6.4 km/h
2269 07-07-2014 09:15:00 16.8 C 10.29 g/m*3 16.8 C 4.8 km/h
2270 07-07-2014 09:20:00 16.8 C 10.15 g/m*3 16.8 C 4.8 km/h
2271 07-07-2014 09:25:00 16.9 C 10.07 g/m*3 16.9 C 8.1 km/h
2272 07-07-2014 09:30:00 16.9 C 9.92 g/m*3 16.9 C 6.4 km/h
2273 07-07-2014 09:35:00 16.9 C 9.92 g/m*3 16.9 C 4.8 km/h
2274 07-07-2014 09:40:00 16.9 C 9.78 g/m*3 16.9 C 3.2 km/h
2275 07-07-2014 09:45:00 16.9 C 9.64 g/m*3 16.9 C 8.1 km/h
Sensor: Nr:Datum:Temp:Abs-Feuchte:Windchill:Wind:
Aussen-T/F 2276 07-07-2014 09:50:00 16.8 C 9.29 g/m*3 16.8 C 4.8 km/h
2277 07-07-2014 09:55:00 16.8 C 9.29 g/m*3 16.8 C 6.4 km/h
2278 07-07-2014 10:00:00 16.8 C 9.58 g/m*3 16.8 C 6.4 km/h
2279 07-07-2014 10:05:00 16.9 C 9.78 g/m*3 16.9 C 3.2 km/h
2280 07-07-2014 10:10:00 17.3 C 10.02 g/m*3 17.3 C 3.2 km/h
2281 07-07-2014 10:15:00 17.6 C 9.9 g/m*3 17.6 C 4.8 km/h
2282 07-07-2014 10:20:00 17.8 C 9.71 g/m*3 17.8 C 6.4 km/h
2283 07-07-2014 10:25:00 18.2 C 9.95 g/m*3 18.2 C 4.8 km/h
2284 07-07-2014 10:30:00 18.4 C 10.22 g/m*3 18.4 C 4.8 km/h
2285 07-07-2014 10:35:00 18.6 C 10.5 g/m*3 18.6 C 8.1 km/h
2286 07-07-2014 10:40:00 18.8 C 10.47 g/m*3 18.8 C 3.2 km/h
2287 07-07-2014 10:45:00 18.8 C 10.31 g/m*3 18.8 C 8.1 km/h
2288 07-07-2014 10:50:00 18.8 C 10.63 g/m*3 18.8 C 3.2 km/h
2289 07-07-2014 10:55:00 19.1 C 9.84 g/m*3 19.1 C 8.1 km/h
2290 07-07-2014 11:00:00 19.3 C 9.62 g/m*3 19.3 C 6.4 km/h
2291 07-07-2014 11:05:00 19.4 C 9.68 g/m*3 19.4 C 8.1 km/h
2292 07-07-2014 11:10:00 19.4 C 9.51 g/m*3 19.4 C 4.8 km/h
2293 07-07-2014 11:15:00 19.4 C 9.68 g/m*3 19.4 C 4.8 km/h
2294 07-07-2014 11:20:00 19.3 C 9.45 g/m*3 19.3 C 4.8 km/h
2295 07-07-2014 11:25:00 19.3 C 9.45 g/m*3 19.3 C 3.2 km/h
2296 07-07-2014 11:30:00 19.4 C 9.34 g/m*3 19.4 C 8.1 km/h
2297 07-07-2014 11:35:00 19.4 C 9.34 g/m*3 19.4 C 3.2 km/h
2298 07-07-2014 11:40:00 19.4 C 9.51 g/m*3 19.4 C 6.4 km/h
2299 07-07-2014 11:45:00 19.7 C 9.17 g/m*3 19.7 C 6.4 km/h
2300 07-07-2014 11:50:00 19.9 C 9.11 g/m*3 19.9 C 8.1 km/h
Sensor: Nr:Datum:Temp:Abs-Feuchte:Windchill:Wind:
Aussen-T/F 2301 07-07-2014 11:55:00 20.1 C 9.56 g/m*3 20.1 C 4.8 km/h
2302 07-07-2014 12:00:00 20.3 C 9.32 g/m*3 20.3 C 4.8 km/h
2303 07-07-2014 12:05:00 20.6 C 9.31 g/m*3 20.6 C 6.4 km/h
2304 07-07-2014 12:10:00 20.6 C 9.66 g/m*3 20.6 C 4.8 km/h
2305 07-07-2014 12:15:00 20.5 C 9.25 g/m*3 20.5 C 4.8 km/h
2306 07-07-2014 12:20:00 20.7 C 9.9 g/m*3 20.7 C 6.4 km/h
2307 07-07-2014 12:25:00 20.9 C 8.92 g/m*3 20.9 C 3.2 km/h
2308 07-07-2014 12:30:00 21.2 C 9.64 g/m*3 21.2 C 9.7 km/h
2309 07-07-2014 12:35:00 21.4 C 9.19 g/m*3 21.4 C 8.1 km/h
2310 07-07-2014 12:40:00 21.7 C 10.11 g/m*3 21.7 C 6.4 km/h
2311 07-07-2014 12:45:00 21.9 C 9.84 g/m*3 21.9 C 9.7 km/h
2312 07-07-2014 12:50:00 21.8 C 9.21 g/m*3 21.8 C 4.8 km/h
2313 07-07-2014 12:55:00 21.7 C 9.73 g/m*3 21.7 C 9.7 km/h
2314 07-07-2014 13:00:00 21.8 C 9.59 g/m*3 21.8 C 6.4 km/h
2315 07-07-2014 13:05:00 21.8 C 9.78 g/m*3 21.8 C 6.4 km/h
2316 07-07-2014 13:10:00 21.8 C 9.4 g/m*3 21.8 C 4.8 km/h
2317 07-07-2014 13:15:00 21.7 C 9.92 g/m*3 21.7 C 6.4 km/h
2318 07-07-2014 13:20:00 21.8 C 9.78 g/m*3 21.8 C 8.1 km/h
2319 07-07-2014 13:25:00 21.8 C 9.21 g/m*3 21.8 C 6.4 km/h
2320 07-07-2014 13:30:00 21.7 C 9.73 g/m*3 21.7 C 4.8 km/h
2321 07-07-2014 13:35:00 21.8 C 10.55 g/m*3 21.8 C 4.8 km/h
2322 07-07-2014 13:40:00 21.8 C 9.4 g/m*3 21.8 C 6.4 km/h
2323 07-07-2014 13:45:00 21.7 C 9.92 g/m*3 21.7 C 3.2 km/h
2324 07-07-2014 13:50:00 21.8 C 9.4 g/m*3 21.8 C 4.8 km/h
2325 07-07-2014 13:55:00 21.9 C 9.65 g/m*3 21.9 C 3.2 km/h
Sensor: Nr:Datum:Temp:Abs-Feuchte:Windchill:Wind:
Aussen-T/F 2326 07-07-2014 14:00:00 22.2 C 9.82 g/m*3 22.2 C 6.4 km/h
2327 07-07-2014 14:05:00 22.4 C 9.73 g/m*3 22.4 C 6.4 km/h
2328 07-07-2014 14:10:00 22.7 C 9.9 g/m*3 22.7 C 6.4 km/h
2329 07-07-2014 14:15:00 22.7 C 10.1 g/m*3 22.7 C 6.4 km/h
2330 07-07-2014 14:20:00 22.9 C 10.01 g/m*3 22.9 C 4.8 km/h
2331 07-07-2014 14:25:00 22.9 C 8.79 g/m*3 22.9 C 3.2 km/h
2332 07-07-2014 14:30:00 23.1 C 9.92 g/m*3 23.1 C 9.7 km/h
2333 07-07-2014 14:35:00 23.3 C 9.2 g/m*3 23.3 C 9.7 km/h
2334 07-07-2014 14:40:00 23.4 C 9.25 g/m*3 23.4 C 8.1 km/h
2335 07-07-2014 14:45:00 23.5 C 9.31 g/m*3 23.5 C 9.7 km/h
2336 07-07-2014 14:50:00 23.4 C 9.25 g/m*3 23.4 C 6.4 km/h
2337 07-07-2014 14:55:00 23.3 C 9.41 g/m*3 23.3 C 8.1 km/h
2338 07-07-2014 15:00:00 23.4 C 9.25 g/m*3 23.4 C 4.8 km/h
2339 07-07-2014 15:05:00 23.4 C 8.62 g/m*3 23.4 C 11.3 km/h
2340 07-07-2014 15:10:00 23.3 C 9.2 g/m*3 23.3 C 6.4 km/h
2341 07-07-2014 15:15:00 23.6 C 9.78 g/m*3 23.6 C 4.8 km/h
2342 07-07-2014 15:20:00 23.9 C 9.3 g/m*3 23.9 C 6.4 km/h
2343 07-07-2014 15:25:00 24.1 C 8.53 g/m*3 24.1 C 3.2 km/h
2344 07-07-2014 15:30:00 24.2 C 9.24 g/m*3 24.2 C 9.7 km/h
2345 07-07-2014 15:35:00 24.3 C 8.63 g/m*3 24.3 C 6.4 km/h
2346 07-07-2014 15:40:00 24.4 C 8.68 g/m*3 24.4 C 9.7 km/h
2347 07-07-2014 15:45:00 24.2 C 9.24 g/m*3 24.2 C 9.7 km/h
2348 07-07-2014 15:50:00 24.2 C 8.58 g/m*3 24.2 C 8.1 km/h
2349 07-07-2014 15:55:00 24.3 C 9.29 g/m*3 24.3 C 9.7 km/h
2350 07-07-2014 16:00:00 24.3 C 8.85 g/m*3 24.3 C 8.1 km/h
Sensor: Nr:Datum:Temp:Abs-Feuchte:Windchill:Wind:
Aussen-T/F 2351 07-07-2014 16:05:00 24.2 C 9.02 g/m*3 24.2 C 11.3 km/h
2352 07-07-2014 16:10:00 24 C 9.14 g/m*3 24 C 11.3 km/h
2353 07-07-2014 16:15:00 23.8 C 8.39 g/m*3 23.8 C 9.7 km/h
2354 07-07-2014 16:20:00 23.8 C 8.39 g/m*3 23.8 C 4.8 km/h
2355 07-07-2014 16:25:00 24.1 C 8.53 g/m*3 24.1 C 9.7 km/h
2356 07-07-2014 16:30:00 24.4 C 8.46 g/m*3 24.4 C 8.1 km/h
2357 07-07-2014 16:35:00 24.3 C 7.97 g/m*3 24.3 C 6.4 km/h
2358 07-07-2014 16:40:00 24.4 C 8.9 g/m*3 24.4 C 6.4 km/h
2359 07-07-2014 16:45:00 24.5 C 9.18 g/m*3 24.5 C 9.7 km/h
2360 07-07-2014 16:50:00 24.6 C 8.78 g/m*3 24.6 C 9.7 km/h
2361 07-07-2014 16:55:00 24.5 C 8.5 g/m*3 24.5 C 14.5 km/h
2362 07-07-2014 17:00:00 24.3 C 8.63 g/m*3 24.3 C 8.1 km/h
2363 07-07-2014 17:05:00 24.4 C 8.9 g/m*3 24.4 C 8.1 km/h
2364 07-07-2014 17:10:00 24.6 C 9.68 g/m*3 24.6 C 9.7 km/h
2365 07-07-2014 17:15:00 25.1 C 8.8 g/m*3 25.1 C 9.7 km/h
2366 07-07-2014 17:20:00 25.1 C 9.03 g/m*3 25.1 C 14.5 km/h
2367 07-07-2014 17:25:00 25.4 C 8.95 g/m*3 25.4 C 11.3 km/h
2368 07-07-2014 17:30:00 25.6 C 8.81 g/m*3 25.6 C 11.3 km/h
2369 07-07-2014 17:35:00 25.9 C 9.68 g/m*3 25.9 C 11.3 km/h
2370 07-07-2014 17:40:00 25.9 C 9.2 g/m*3 25.9 C 9.7 km/h
2371 07-07-2014 17:45:00 26 C 9.49 g/m*3 26 C 12.9 km/h
2372 07-07-2014 17:50:00 26.2 C 9.35 g/m*3 26.2 C 11.3 km/h
2373 07-07-2014 17:55:00 26.1 C 9.55 g/m*3 26.1 C 4.8 km/h
2374 07-07-2014 18:00:00 25.9 C 9.93 g/m*3 25.9 C 6.4 km/h
2375 07-07-2014 18:05:00 26.1 C 9.06 g/m*3 26.1 C 9.7 km/h
Sensor: Nr:Datum:Temp:Abs-Feuchte:Windchill:Wind:
Aussen-T/F 2376 07-07-2014 18:10:00 26 C 9.74 g/m*3 26 C 8.1 km/h
2377 07-07-2014 18:15:00 25.9 C 9.44 g/m*3 25.9 C 11.3 km/h
2378 07-07-2014 18:20:00 26.3 C 9.41 g/m*3 26.3 C 6.4 km/h
2379 07-07-2014 18:25:00 26.4 C 9.21 g/m*3 26.4 C 9.7 km/h
2380 07-07-2014 18:30:00 26.1 C 9.3 g/m*3 26.1 C 9.7 km/h
2381 07-07-2014 18:35:00 26.1 C 9.3 g/m*3 26.1 C 11.3 km/h
2382 07-07-2014 18:40:00 26.2 C 9.11 g/m*3 26.2 C 4.8 km/h
2383 07-07-2014 18:45:00 26.1 C 9.06 g/m*3 26.1 C 12.9 km/h
2384 07-07-2014 18:50:00 25.8 C 9.15 g/m*3 25.8 C 6.4 km/h
2385 07-07-2014 18:55:00 25.7 C 9.34 g/m*3 25.7 C 4.8 km/h
2386 07-07-2014 19:00:00 25.6 C 9.52 g/m*3 25.6 C 6.4 km/h
2387 07-07-2014 19:05:00 25.7 C 9.58 g/m*3 25.7 C 12.9 km/h
2388 07-07-2014 19:10:00 25.7 C 9.34 g/m*3 25.7 C 9.7 km/h
2389 07-07-2014 19:15:00 25.7 C 9.58 g/m*3 25.7 C 8.1 km/h
2390 07-07-2014 19:20:00 25.7 C 9.1 g/m*3 25.7 C 12.9 km/h
2391 07-07-2014 19:25:00 25.2 C 9.08 g/m*3 25.2 C 9.7 km/h
2392 07-07-2014 19:30:00 24.9 C 8.93 g/m*3 24.9 C 8.1 km/h
2393 07-07-2014 19:35:00 24.7 C 9.51 g/m*3 24.7 C 9.7 km/h
2394 07-07-2014 19:40:00 24.4 C 9.57 g/m*3 24.4 C 6.4 km/h
2395 07-07-2014 19:45:00 24.2 C 9.9 g/m*3 24.2 C 3.2 km/h
2396 07-07-2014 19:50:00 24.1 C 9.41 g/m*3 24.1 C 3.2 km/h
2397 07-07-2014 19:55:00 23.9 C 9.74 g/m*3 23.9 C 6.4 km/h
2398 07-07-2014 20:00:00 23.9 C 9.95 g/m*3 23.9 C 11.3 km/h
2399 07-07-2014 20:05:00 23.9 C 10.17 g/m*3 23.9 C 6.4 km/h
2400 07-07-2014 20:10:00 23.8 C 10.33 g/m*3 23.8 C 6.4 km/h
Sensor: Nr:Datum:Temp:Abs-Feuchte:Windchill:Wind:
Aussen-T/F 2401 07-07-2014 20:15:00 23.7 C 10.05 g/m*3 23.7 C 11.3 km/h
2402 07-07-2014 20:20:00 23.7 C 10.05 g/m*3 23.7 C 8.1 km/h
2403 07-07-2014 20:25:00 23.5 C 9.73 g/m*3 23.5 C 8.1 km/h
2404 07-07-2014 20:30:00 23.3 C 9.83 g/m*3 23.3 C 4.8 km/h
2405 07-07-2014 20:35:00 22.9 C 9.81 g/m*3 22.9 C 6.4 km/h
2406 07-07-2014 20:40:00 22.8 C 9.75 g/m*3 22.8 C 4.8 km/h
2407 07-07-2014 20:45:00 22.6 C 9.84 g/m*3 22.6 C 4.8 km/h
2408 07-07-2014 20:50:00 22.4 C 9.73 g/m*3 22.4 C 1.6 km/h
2409 07-07-2014 20:55:00 22.3 C 10.07 g/m*3 22.3 C 1.6 km/h
2410 07-07-2014 21:00:00 22.2 C 10.21 g/m*3 22.2 C 0 km/h
2411 07-07-2014 21:05:00 21.9 C 11 g/m*3 21.9 C 0 km/h
2412 07-07-2014 21:10:00 21.7 C 10.87 g/m*3 21.7 C 0 km/h
2413 07-07-2014 21:15:00 21.3 C 10.62 g/m*3 21.3 C 1.6 km/h
2414 07-07-2014 21:20:00 21.1 C 11.06 g/m*3 21.1 C 0 km/h
2415 07-07-2014 21:25:00 20.9 C 11.11 g/m*3 20.9 C 0 km/h
2416 07-07-2014 21:30:00 20.7 C 10.98 g/m*3 20.7 C 0 km/h
2417 07-07-2014 21:35:00 20.6 C 10.92 g/m*3 20.6 C 1.6 km/h
2418 07-07-2014 21:40:00 20.4 C 10.79 g/m*3 20.4 C 0 km/h
2419 07-07-2014 21:45:00 20.4 C 11.14 g/m*3 20.4 C 0 km/h
2420 07-07-2014 21:50:00 20.3 C 11.08 g/m*3 20.3 C 0 km/h
2421 07-07-2014 21:55:00 20.1 C 10.78 g/m*3 20.1 C 1.6 km/h
2422 07-07-2014 22:00:00 19.9 C 10.82 g/m*3 19.9 C 1.6 km/h
2423 07-07-2014 22:05:00 19.8 C 10.76 g/m*3 19.8 C 0 km/h
2424 07-07-2014 22:10:00 19.7 C 10.87 g/m*3 19.7 C 1.6 km/h
2425 07-07-2014 22:15:00 19.5 C 10.74 g/m*3 19.5 C 0 km/h
Sensor: Nr:Datum:Temp:Abs-Feuchte:Windchill:Wind:
Aussen-T/F 2426 07-07-2014 22:20:00 19.4 C 11.01 g/m*3 19.4 C 0 km/h
2427 07-07-2014 22:25:00 19.3 C 11.11 g/m*3 19.3 C 0 km/h
2428 07-07-2014 22:30:00 19.2 C 11.05 g/m*3 19.2 C 0 km/h
2429 07-07-2014 22:35:00 19.1 C 10.98 g/m*3 19.1 C 0 km/h
2430 07-07-2014 22:40:00 19 C 10.92 g/m*3 19 C 0 km/h
2431 07-07-2014 22:45:00 19 C 11.41 g/m*3 19 C 0 km/h
2432 07-07-2014 22:50:00 19 C 11.24 g/m*3 19 C 0 km/h
2433 07-07-2014 22:55:00 19 C 11.41 g/m*3 19 C 0 km/h
2434 07-07-2014 23:00:00 19 C 11.41 g/m*3 19 C 0 km/h
2435 07-07-2014 23:05:00 19 C 11.08 g/m*3 19 C 3.2 km/h
2436 07-07-2014 23:10:00 19.2 C 10.72 g/m*3 19.2 C 8.1 km/h
2437 07-07-2014 23:15:00 19.4 C 10.84 g/m*3 19.4 C 0 km/h
2438 07-07-2014 23:20:00 19.6 C 11.14 g/m*3 19.6 C 3.2 km/h
2439 07-07-2014 23:25:00 19.5 C 11.24 g/m*3 19.5 C 0 km/h
2440 07-07-2014 23:30:00 19.4 C 11.01 g/m*3 19.4 C 4.8 km/h
2441 07-07-2014 23:35:00 19.4 C 11.18 g/m*3 19.4 C 0 km/h
2442 07-07-2014 23:40:00 19.3 C 11.11 g/m*3 19.3 C 0 km/h
2443 07-07-2014 23:45:00 19.2 C 11.05 g/m*3 19.2 C 1.6 km/h
2444 07-07-2014 23:50:00 19.2 C 11.21 g/m*3 19.2 C 0 km/h
2445 07-07-2014 23:55:00 19.2 C 11.05 g/m*3 19.2 C 0 km/h
2446 08-07-2014 00:00:00 19.1 C 11.15 g/m*3 19.1 C 0 km/h
2447 08-07-2014 00:05:00 19.1 C 11.15 g/m*3 19.1 C 0 km/h
2448 08-07-2014 00:10:00 19 C 11.41 g/m*3 19 C 0 km/h
2449 08-07-2014 00:15:00 18.9 C 11.02 g/m*3 18.9 C 3.2 km/h
2450 08-07-2014 00:20:00 19 C 10.92 g/m*3 19 C 3.2 km/h
Sensor: Nr:Datum:Temp:Abs-Feuchte:Windchill:Wind:
Aussen-T/F 2451 08-07-2014 00:25:00 19.1 C 10.82 g/m*3 19.1 C 0 km/h
2452 08-07-2014 00:30:00 19 C 10.92 g/m*3 19 C 0 km/h
2453 08-07-2014 00:35:00 18.8 C 10.95 g/m*3 18.8 C 0 km/h
2454 08-07-2014 00:40:00 18.6 C 10.82 g/m*3 18.6 C 0 km/h
2455 08-07-2014 00:45:00 18.4 C 10.85 g/m*3 18.4 C 0 km/h
2456 08-07-2014 00:50:00 18.3 C 11.26 g/m*3 18.3 C 1.6 km/h
2457 08-07-2014 00:55:00 18.3 C 11.1 g/m*3 18.3 C 0 km/h
2458 08-07-2014 01:00:00 18.2 C 11.19 g/m*3 18.2 C 0 km/h
2459 08-07-2014 01:05:00 18.2 C 11.19 g/m*3 18.2 C 0 km/h
2460 08-07-2014 01:10:00 18.1 C 11.28 g/m*3 18.1 C 0 km/h
2461 08-07-2014 01:15:00 18.1 C 11.28 g/m*3 18.1 C 1.6 km/h
2462 08-07-2014 01:20:00 18.1 C 11.28 g/m*3 18.1 C 0 km/h
2463 08-07-2014 01:25:00 18.1 C 11.28 g/m*3 18.1 C 0 km/h
2464 08-07-2014 01:30:00 18.1 C 11.12 g/m*3 18.1 C 0 km/h
2465 08-07-2014 01:35:00 18.2 C 10.72 g/m*3 18.2 C 8.1 km/h
2466 08-07-2014 01:40:00 18.4 C 11.01 g/m*3 18.4 C 0 km/h
2467 08-07-2014 01:45:00 18.5 C 11.08 g/m*3 18.5 C 1.6 km/h
2468 08-07-2014 01:50:00 18.6 C 11.14 g/m*3 18.6 C 1.6 km/h
2469 08-07-2014 01:55:00 18.5 C 11.23 g/m*3 18.5 C 0 km/h
2470 08-07-2014 02:00:00 18.3 C 11.26 g/m*3 18.3 C 0 km/h
2471 08-07-2014 02:05:00 18.2 C 11.19 g/m*3 18.2 C 0 km/h
2472 08-07-2014 02:10:00 18.1 C 11.12 g/m*3 18.1 C 0 km/h
2473 08-07-2014 02:15:00 18.1 C 11.28 g/m*3 18.1 C 0 km/h
2474 08-07-2014 02:20:00 18 C 11.52 g/m*3 18 C 0 km/h
2475 08-07-2014 02:25:00 17.8 C 11.38 g/m*3 17.8 C 0 km/h
Sensor: Nr:Datum:Temp:Abs-Feuchte:Windchill:Wind:
Aussen-T/F 2476 08-07-2014 02:30:00 17.8 C 11.54 g/m*3 17.8 C 0 km/h
2477 08-07-2014 02:35:00 17.7 C 11.47 g/m*3 17.7 C 0 km/h
2478 08-07-2014 02:40:00 17.7 C 11.62 g/m*3 17.7 C 0 km/h
2479 08-07-2014 02:45:00 17.7 C 11.62 g/m*3 17.7 C 0 km/h
2480 08-07-2014 02:50:00 17.6 C 11.4 g/m*3 17.6 C 0 km/h
2481 08-07-2014 02:55:00 17.6 C 11.55 g/m*3 17.6 C 0 km/h
2482 08-07-2014 03:00:00 17.6 C 11.55 g/m*3 17.6 C 0 km/h
2483 08-07-2014 03:05:00 17.5 C 11.78 g/m*3 17.5 C 0 km/h
2484 08-07-2014 03:10:00 17.3 C 11.79 g/m*3 17.3 C 0 km/h
2485 08-07-2014 03:15:00 17.2 C 12.01 g/m*3 17.2 C 0 km/h
2486 08-07-2014 03:20:00 17 C 12.15 g/m*3 17 C 1.6 km/h
2487 08-07-2014 03:25:00 16.8 C 12.44 g/m*3 16.8 C 1.6 km/h
2488 08-07-2014 03:30:00 16.7 C 12.36 g/m*3 16.7 C 1.6 km/h
2489 08-07-2014 03:35:00 16.7 C 12.36 g/m*3 16.7 C 1.6 km/h
2490 08-07-2014 04:30:00 15.3 C 13.06 g/m*3 15.3 C 8.1 km/h
2491 08-07-2014 04:35:00 15.2 C 12.2 g/m*3 15.2 C 0 km/h
2492 08-07-2014 04:40:00 15.2 C 12.2 g/m*3 15.2 C 4.8 km/h
2493 08-07-2014 04:45:00 15.1 C 12.13 g/m*3 15.1 C 4.8 km/h
2494 08-07-2014 04:50:00 15 C 12.05 g/m*3 15 C 8.1 km/h
2495 08-07-2014 04:55:00 15 C 12.05 g/m*3 15 C 3.2 km/h
2496 08-07-2014 05:00:00 15 C 12.05 g/m*3 15 C 4.8 km/h
2497 08-07-2014 05:05:00 15 C 12.05 g/m*3 15 C 4.8 km/h
2498 08-07-2014 05:10:00 15 C 12.05 g/m*3 15 C 3.2 km/h
2499 08-07-2014 07:15:00 14.8 C 12.16 g/m*3 14.8 C 3.2 km/h
2500 08-07-2014 07:20:00 14.8 C 12.16 g/m*3 14.8 C 3.2 km/h
Sensor: Nr:Datum:Temp:Abs-Feuchte:Windchill:Wind:
Aussen-T/F 2501 08-07-2014 07:35:00 14.8 C 12.67 g/m*3 14.8 C 1.6 km/h
2502 08-07-2014 07:40:00 14.8 C 12.16 g/m*3 14.8 C 4.8 km/h
2503 08-07-2014 07:45:00 14.8 C 12.03 g/m*3 14.8 C 1.6 km/h
2504 08-07-2014 07:50:00 14.8 C 12.16 g/m*3 14.8 C 0 km/h
2505 08-07-2014 07:55:00 14.9 C 12.24 g/m*3 14.9 C 0 km/h
2506 08-07-2014 08:00:00 14.9 C 12.11 g/m*3 14.9 C 8.1 km/h
2507 08-07-2014 08:05:00 14.9 C 12.11 g/m*3 14.9 C 3.2 km/h
2508 08-07-2014 08:10:00 14.9 C 12.11 g/m*3 14.9 C 6.4 km/h
2509 08-07-2014 08:15:00 14.9 C 12.11 g/m*3 14.9 C 3.2 km/h
2510 08-07-2014 08:20:00 15 C 12.18 g/m*3 15 C 3.2 km/h
2511 08-07-2014 08:25:00 15.1 C 12.39 g/m*3 15.1 C 0 km/h
2512 08-07-2014 08:30:00 15.1 C 12.39 g/m*3 15.1 C 6.4 km/h
2513 08-07-2014 08:35:00 15.1 C 12.26 g/m*3 15.1 C 3.2 km/h
2514 08-07-2014 08:40:00 15.1 C 12.39 g/m*3 15.1 C 3.2 km/h
2515 08-07-2014 08:45:00 15.1 C 12.26 g/m*3 15.1 C 8.1 km/h
2516 08-07-2014 08:50:00 15.2 C 12.46 g/m*3 15.2 C 1.6 km/h
2517 08-07-2014 08:55:00 15.2 C 12.33 g/m*3 15.2 C 1.6 km/h
2518 08-07-2014 09:00:00 15.2 C 12.46 g/m*3 15.2 C 3.2 km/h
2519 08-07-2014 09:05:00 15.2 C 12.33 g/m*3 15.2 C 0 km/h
2520 08-07-2014 09:10:00 15.3 C 12.41 g/m*3 15.3 C 3.2 km/h
2521 08-07-2014 09:15:00 15.3 C 12.41 g/m*3 15.3 C 3.2 km/h
2522 08-07-2014 09:20:00 15.3 C 12.41 g/m*3 15.3 C 1.6 km/h
2523 08-07-2014 09:25:00 15.3 C 12.41 g/m*3 15.3 C 4.8 km/h
2524 08-07-2014 09:30:00 15.4 C 12.48 g/m*3 15.4 C 3.2 km/h
2525 08-07-2014 09:35:00 15.4 C 12.61 g/m*3 15.4 C 4.8 km/h
Sensor: Nr:Datum:Temp:Abs-Feuchte:Windchill:Wind:
Aussen-T/F 2526 08-07-2014 09:40:00 15.4 C 12.48 g/m*3 15.4 C 4.8 km/h
2527 08-07-2014 09:45:00 15.5 C 12.56 g/m*3 15.5 C 1.6 km/h
2528 08-07-2014 09:50:00 15.5 C 12.56 g/m*3 15.5 C 3.2 km/h
2529 08-07-2014 09:55:00 15.4 C 12.48 g/m*3 15.4 C 6.4 km/h
2530 08-07-2014 10:00:00 15.4 C 12.48 g/m*3 15.4 C 9.7 km/h
2531 08-07-2014 10:05:00 15.4 C 12.48 g/m*3 15.4 C 4.8 km/h
2532 08-07-2014 10:10:00 15.4 C 12.48 g/m*3 15.4 C 8.1 km/h
2533 08-07-2014 10:15:00 15.4 C 12.35 g/m*3 15.4 C 11.3 km/h
2534 08-07-2014 10:20:00 15.5 C 12.43 g/m*3 15.5 C 8.1 km/h
2535 08-07-2014 10:25:00 15.5 C 12.56 g/m*3 15.5 C 9.7 km/h
2536 08-07-2014 10:30:00 15.5 C 12.43 g/m*3 15.5 C 8.1 km/h
2537 08-07-2014 10:35:00 15.6 C 12.5 g/m*3 15.6 C 3.2 km/h
2538 08-07-2014 10:40:00 15.6 C 12.63 g/m*3 15.6 C 3.2 km/h
2539 08-07-2014 10:45:00 15.6 C 12.5 g/m*3 15.6 C 9.7 km/h
2540 08-07-2014 10:50:00 15.6 C 12.5 g/m*3 15.6 C 3.2 km/h
2541 08-07-2014 10:55:00 15.6 C 12.5 g/m*3 15.6 C 3.2 km/h
2542 08-07-2014 11:00:00 15.6 C 12.63 g/m*3 15.6 C 0 km/h
2543 08-07-2014 11:05:00 15.6 C 12.63 g/m*3 15.6 C 0 km/h
2544 08-07-2014 11:10:00 15.6 C 12.63 g/m*3 15.6 C 3.2 km/h
2545 08-07-2014 11:15:00 15.5 C 12.56 g/m*3 15.5 C 0 km/h
2546 08-07-2014 11:20:00 15.4 C 12.48 g/m*3 15.4 C 9.7 km/h
2547 08-07-2014 11:25:00 15.5 C 12.56 g/m*3 15.5 C 1.6 km/h
2548 08-07-2014 11:30:00 15.4 C 12.48 g/m*3 15.4 C 4.8 km/h
2549 08-07-2014 11:35:00 15.4 C 12.48 g/m*3 15.4 C 1.6 km/h
2550 08-07-2014 11:40:00 15.4 C 12.48 g/m*3 15.4 C 3.2 km/h
Sensor: Nr:Datum:Temp:Abs-Feuchte:Windchill:Wind:
Aussen-T/F 2551 08-07-2014 11:45:00 15.5 C 12.56 g/m*3 15.5 C 6.4 km/h
2552 08-07-2014 11:50:00 15.5 C 12.56 g/m*3 15.5 C 4.8 km/h
2553 08-07-2014 11:55:00 15.5 C 12.56 g/m*3 15.5 C 6.4 km/h
2554 08-07-2014 12:00:00 15.5 C 12.56 g/m*3 15.5 C 0 km/h
2555 08-07-2014 12:05:00 15.4 C 12.48 g/m*3 15.4 C 0 km/h
2556 08-07-2014 12:10:00 15.4 C 12.48 g/m*3 15.4 C 0 km/h
2557 08-07-2014 12:15:00 15.5 C 12.56 g/m*3 15.5 C 1.6 km/h
2558 08-07-2014 12:20:00 15.5 C 12.56 g/m*3 15.5 C 3.2 km/h
2559 08-07-2014 12:25:00 15.6 C 12.63 g/m*3 15.6 C 0 km/h
2560 08-07-2014 12:30:00 15.6 C 12.63 g/m*3 15.6 C 0 km/h
2561 08-07-2014 12:35:00 15.7 C 12.71 g/m*3 15.7 C 0 km/h
2562 08-07-2014 12:40:00 15.6 C 12.63 g/m*3 15.6 C 3.2 km/h
2563 08-07-2014 12:45:00 15.7 C 12.71 g/m*3 15.7 C 3.2 km/h
2564 08-07-2014 12:50:00 15.7 C 12.84 g/m*3 15.7 C 1.6 km/h
2565 08-07-2014 12:55:00 15.7 C 12.71 g/m*3 15.7 C 6.4 km/h
2566 08-07-2014 13:00:00 15.7 C 12.71 g/m*3 15.7 C 3.2 km/h
2567 08-07-2014 13:05:00 15.7 C 12.71 g/m*3 15.7 C 3.2 km/h
2568 08-07-2014 13:10:00 15.7 C 12.71 g/m*3 15.7 C 4.8 km/h
2569 08-07-2014 13:15:00 15.6 C 12.63 g/m*3 15.6 C 1.6 km/h
2570 08-07-2014 13:20:00 15.7 C 12.71 g/m*3 15.7 C 0 km/h
2571 08-07-2014 13:25:00 15.7 C 12.71 g/m*3 15.7 C 6.4 km/h
2572 08-07-2014 13:30:00 15.7 C 12.71 g/m*3 15.7 C 4.8 km/h
2573 08-07-2014 13:35:00 15.7 C 12.71 g/m*3 15.7 C 3.2 km/h
2574 08-07-2014 13:40:00 15.7 C 12.71 g/m*3 15.7 C 0 km/h
2575 08-07-2014 13:45:00 15.8 C 12.79 g/m*3 15.8 C 6.4 km/h
Sensor: Nr:Datum:Temp:Abs-Feuchte:Windchill:Wind:
Aussen-T/F 2576 08-07-2014 13:50:00 15.8 C 12.79 g/m*3 15.8 C 1.6 km/h
2577 08-07-2014 13:55:00 15.8 C 12.79 g/m*3 15.8 C 0 km/h
2578 08-07-2014 14:00:00 15.8 C 12.79 g/m*3 15.8 C 4.8 km/h
2579 08-07-2014 14:05:00 15.8 C 12.79 g/m*3 15.8 C 3.2 km/h
2580 08-07-2014 14:10:00 15.8 C 12.79 g/m*3 15.8 C 3.2 km/h
2581 08-07-2014 14:15:00 15.9 C 12.87 g/m*3 15.9 C 1.6 km/h
2582 08-07-2014 14:20:00 15.8 C 12.65 g/m*3 15.8 C 6.4 km/h
2583 08-07-2014 14:25:00 15.9 C 12.73 g/m*3 15.9 C 4.8 km/h
2584 08-07-2014 14:30:00 15.9 C 12.73 g/m*3 15.9 C 6.4 km/h
2585 08-07-2014 14:35:00 15.9 C 12.73 g/m*3 15.9 C 1.6 km/h
2586 08-07-2014 14:40:00 15.9 C 12.59 g/m*3 15.9 C 3.2 km/h
2587 08-07-2014 14:45:00 15.8 C 12.52 g/m*3 15.8 C 1.6 km/h
2588 08-07-2014 14:50:00 15.8 C 12.52 g/m*3 15.8 C 3.2 km/h
2589 08-07-2014 14:55:00 15.8 C 12.52 g/m*3 15.8 C 3.2 km/h
2590 08-07-2014 15:00:00 15.8 C 12.52 g/m*3 15.8 C 3.2 km/h
2591 08-07-2014 15:05:00 15.8 C 12.65 g/m*3 15.8 C 3.2 km/h
2592 08-07-2014 15:10:00 15.8 C 12.52 g/m*3 15.8 C 3.2 km/h
2593 08-07-2014 15:15:00 15.8 C 12.65 g/m*3 15.8 C 4.8 km/h
2594 08-07-2014 15:20:00 15.8 C 12.65 g/m*3 15.8 C 3.2 km/h
2595 08-07-2014 15:25:00 15.7 C 12.44 g/m*3 15.7 C 3.2 km/h
2596 08-07-2014 15:30:00 15.8 C 12.52 g/m*3 15.8 C 4.8 km/h
2597 08-07-2014 15:35:00 15.8 C 12.52 g/m*3 15.8 C 1.6 km/h
2598 08-07-2014 15:40:00 15.8 C 12.52 g/m*3 15.8 C 1.6 km/h
2599 08-07-2014 15:45:00 15.7 C 12.44 g/m*3 15.7 C 6.4 km/h
2600 08-07-2014 15:50:00 15.7 C 12.44 g/m*3 15.7 C 6.4 km/h
Sensor: Nr:Datum:Temp:Abs-Feuchte:Windchill:Wind:
Aussen-T/F 2601 08-07-2014 15:55:00 15.7 C 12.31 g/m*3 15.7 C 8.1 km/h
2602 08-07-2014 16:00:00 15.8 C 12.52 g/m*3 15.8 C 3.2 km/h
2603 08-07-2014 16:05:00 15.7 C 12.44 g/m*3 15.7 C 4.8 km/h
2604 08-07-2014 16:10:00 15.7 C 12.44 g/m*3 15.7 C 4.8 km/h
2605 08-07-2014 16:15:00 15.7 C 12.44 g/m*3 15.7 C 4.8 km/h
2606 08-07-2014 16:20:00 15.7 C 12.44 g/m*3 15.7 C 3.2 km/h
2607 08-07-2014 16:25:00 15.7 C 12.44 g/m*3 15.7 C 3.2 km/h
2608 08-07-2014 16:30:00 15.7 C 12.44 g/m*3 15.7 C 3.2 km/h
2609 08-07-2014 16:35:00 15.7 C 12.44 g/m*3 15.7 C 9.7 km/h
2610 08-07-2014 16:40:00 15.7 C 12.44 g/m*3 15.7 C 1.6 km/h
2611 08-07-2014 16:45:00 15.7 C 12.44 g/m*3 15.7 C 6.4 km/h
2612 08-07-2014 16:50:00 15.7 C 12.44 g/m*3 15.7 C 3.2 km/h
2613 08-07-2014 17:30:00 15.8 C 12.25 g/m*3 15.8 C 12.9 km/h
2614 08-07-2014 17:35:00 15.8 C 12.25 g/m*3 15.8 C 14.5 km/h
2615 08-07-2014 17:40:00 15.8 C 12.11 g/m*3 15.8 C 14.5 km/h
2616 08-07-2014 17:45:00 15.8 C 12.11 g/m*3 15.8 C 16.1 km/h
2617 08-07-2014 17:50:00 15.7 C 12.04 g/m*3 15.7 C 14.5 km/h
2618 08-07-2014 17:55:00 15.7 C 12.04 g/m*3 15.7 C 16.1 km/h
2619 08-07-2014 18:00:00 15.7 C 12.04 g/m*3 15.7 C 11.3 km/h
2620 08-07-2014 18:05:00 15.7 C 12.04 g/m*3 15.7 C 12.9 km/h
2621 08-07-2014 18:10:00 15.7 C 12.04 g/m*3 15.7 C 9.7 km/h
2622 08-07-2014 18:15:00 15.6 C 11.97 g/m*3 15.6 C 6.4 km/h
2623 08-07-2014 18:20:00 15.6 C 11.97 g/m*3 15.6 C 9.7 km/h
2624 08-07-2014 18:25:00 15.6 C 11.84 g/m*3 15.6 C 9.7 km/h
2625 08-07-2014 18:30:00 15.6 C 11.84 g/m*3 15.6 C 14.5 km/h
Sensor: Nr:Datum:Temp:Abs-Feuchte:Windchill:Wind:
Aussen-T/F 2626 08-07-2014 18:35:00 15.4 C 11.69 g/m*3 15.4 C 16.1 km/h
2627 08-07-2014 18:40:00 15.4 C 11.69 g/m*3 15.4 C 12.9 km/h
2628 08-07-2014 18:45:00 15.3 C 11.75 g/m*3 15.3 C 12.9 km/h
2629 08-07-2014 18:50:00 15.3 C 11.62 g/m*3 15.3 C 25.7 km/h
2630 08-07-2014 18:55:00 15.2 C 11.55 g/m*3 15.2 C 25.7 km/h
2631 08-07-2014 19:00:00 15.2 C 11.55 g/m*3 15.2 C 14.5 km/h
2632 08-07-2014 19:05:00 15.2 C 11.55 g/m*3 15.2 C 9.7 km/h
2633 08-07-2014 19:10:00 15.2 C 11.55 g/m*3 15.2 C 20.9 km/h
2634 08-07-2014 19:15:00 15.2 C 11.55 g/m*3 15.2 C 16.1 km/h
2635 08-07-2014 19:20:00 15.1 C 11.61 g/m*3 15.1 C 11.3 km/h
2636 08-07-2014 19:25:00 15.1 C 11.61 g/m*3 15.1 C 12.9 km/h
2637 08-07-2014 19:30:00 15 C 11.54 g/m*3 15 C 12.9 km/h
2638 08-07-2014 19:35:00 15 C 11.54 g/m*3 15 C 14.5 km/h
2639 08-07-2014 19:40:00 14.9 C 11.47 g/m*3 14.9 C 11.3 km/h
2640 08-07-2014 19:45:00 14.9 C 11.47 g/m*3 14.9 C 16.1 km/h
2641 08-07-2014 19:50:00 14.9 C 11.47 g/m*3 14.9 C 9.7 km/h
2642 08-07-2014 19:55:00 14.9 C 11.47 g/m*3 14.9 C 9.7 km/h
2643 08-07-2014 20:00:00 14.9 C 11.47 g/m*3 14.9 C 11.3 km/h
2644 08-07-2014 20:05:00 14.9 C 11.47 g/m*3 14.9 C 12.9 km/h
2645 08-07-2014 20:10:00 14.8 C 11.4 g/m*3 14.8 C 11.3 km/h
2646 08-07-2014 20:15:00 14.8 C 11.4 g/m*3 14.8 C 17.7 km/h
2647 08-07-2014 20:20:00 14.7 C 11.33 g/m*3 14.7 C 16.1 km/h
2648 08-07-2014 20:25:00 14.6 C 11.26 g/m*3 14.6 C 17.7 km/h
2649 08-07-2014 20:30:00 14.5 C 11.32 g/m*3 14.5 C 16.1 km/h
2650 08-07-2014 20:35:00 14.4 C 11.25 g/m*3 14.4 C 9.7 km/h
Sensor: Nr:Datum:Temp:Abs-Feuchte:Windchill:Wind:
Aussen-T/F 2651 08-07-2014 20:40:00 14.2 C 11.11 g/m*3 14.2 C 11.3 km/h
2652 08-07-2014 20:45:00 14.1 C 11.04 g/m*3 14.1 C 8.1 km/h
2653 08-07-2014 20:50:00 14 C 10.98 g/m*3 14 C 14.5 km/h
2654 08-07-2014 20:55:00 13.9 C 10.91 g/m*3 13.9 C 16.1 km/h
2655 08-07-2014 21:00:00 13.9 C 10.91 g/m*3 13.9 C 17.7 km/h
2656 08-07-2014 21:05:00 13.8 C 10.84 g/m*3 13.8 C 11.3 km/h
2657 08-07-2014 21:10:00 13.8 C 10.96 g/m*3 13.8 C 12.9 km/h
2658 08-07-2014 21:15:00 13.7 C 10.78 g/m*3 13.7 C 12.9 km/h
2659 08-07-2014 21:20:00 13.7 C 10.89 g/m*3 13.7 C 12.9 km/h
2660 08-07-2014 21:25:00 13.7 C 10.89 g/m*3 13.7 C 9.7 km/h
2661 08-07-2014 21:30:00 13.6 C 10.83 g/m*3 13.6 C 12.9 km/h
2662 08-07-2014 21:35:00 13.6 C 10.83 g/m*3 13.6 C 9.7 km/h
2663 08-07-2014 21:40:00 13.5 C 10.76 g/m*3 13.5 C 12.9 km/h
2664 08-07-2014 21:45:00 13.5 C 10.76 g/m*3 13.5 C 11.3 km/h
2665 08-07-2014 21:50:00 13.4 C 10.69 g/m*3 13.4 C 0 km/h
2666 08-07-2014 21:55:00 13.4 C 10.81 g/m*3 13.4 C 4.8 km/h
2667 08-07-2014 22:00:00 13.4 C 10.93 g/m*3 13.4 C 0 km/h
2668 08-07-2014 22:05:00 13.3 C 10.86 g/m*3 13.3 C 1.6 km/h
2669 08-07-2014 22:10:00 13.3 C 10.86 g/m*3 13.3 C 4.8 km/h
2670 08-07-2014 22:15:00 13.3 C 10.86 g/m*3 13.3 C 4.8 km/h
2671 08-07-2014 22:20:00 13.3 C 10.86 g/m*3 13.3 C 4.8 km/h
2672 08-07-2014 22:25:00 13.3 C 10.86 g/m*3 13.3 C 6.4 km/h
2673 08-07-2014 22:30:00 13.3 C 10.86 g/m*3 13.3 C 8.1 km/h
2674 08-07-2014 22:35:00 13.3 C 10.86 g/m*3 13.3 C 3.2 km/h
2675 08-07-2014 22:40:00 13.3 C 10.86 g/m*3 13.3 C 4.8 km/h
Sensor: Nr:Datum:Temp:Abs-Feuchte:Windchill:Wind:
Aussen-T/F 2676 08-07-2014 22:45:00 13.3 C 10.86 g/m*3 13.3 C 12.9 km/h
2677 08-07-2014 22:50:00 13.3 C 10.86 g/m*3 13.3 C 3.2 km/h
2678 08-07-2014 22:55:00 13.3 C 10.86 g/m*3 13.3 C 4.8 km/h
2679 08-07-2014 23:00:00 13.3 C 10.86 g/m*3 13.3 C 4.8 km/h
2680 08-07-2014 23:05:00 13.3 C 10.86 g/m*3 13.3 C 6.4 km/h
2681 08-07-2014 23:10:00 13.2 C 10.91 g/m*3 13.2 C 1.6 km/h
2682 08-07-2014 23:15:00 13.2 C 10.91 g/m*3 13.2 C 6.4 km/h
2683 08-07-2014 23:20:00 13.2 C 10.91 g/m*3 13.2 C 6.4 km/h
2684 08-07-2014 23:25:00 13.1 C 10.84 g/m*3 13.1 C 4.8 km/h
2685 08-07-2014 23:30:00 13.1 C 10.84 g/m*3 13.1 C 3.2 km/h
2686 08-07-2014 23:35:00 13.1 C 10.84 g/m*3 13.1 C 1.6 km/h
2687 08-07-2014 23:40:00 13.1 C 10.84 g/m*3 13.1 C 6.4 km/h
2688 08-07-2014 23:45:00 13.1 C 10.84 g/m*3 13.1 C 4.8 km/h
2689 08-07-2014 23:50:00 13.1 C 10.84 g/m*3 13.1 C 6.4 km/h
2690 08-07-2014 23:55:00 13.1 C 10.84 g/m*3 13.1 C 3.2 km/h
2691 09-07-2014 00:00:00 13.1 C 10.84 g/m*3 13.1 C 1.6 km/h
2692 09-07-2014 00:05:00 13.1 C 10.84 g/m*3 13.1 C 4.8 km/h
2693 09-07-2014 00:10:00 13 C 10.66 g/m*3 13 C 9.7 km/h
2694 09-07-2014 00:15:00 13 C 10.66 g/m*3 13 C 6.4 km/h
2695 09-07-2014 00:20:00 13 C 10.66 g/m*3 13 C 14.5 km/h
2696 09-07-2014 00:25:00 13 C 10.66 g/m*3 13 C 14.5 km/h
2697 09-07-2014 00:30:00 13 C 10.66 g/m*3 13 C 12.9 km/h
2698 09-07-2014 00:35:00 12.9 C 10.59 g/m*3 12.9 C 4.8 km/h
2699 09-07-2014 00:40:00 12.9 C 10.59 g/m*3 12.9 C 4.8 km/h
2700 09-07-2014 00:45:00 12.9 C 10.59 g/m*3 12.9 C 1.6 km/h
Sensor: Nr:Datum:Temp:Abs-Feuchte:Windchill:Wind:
Aussen-T/F 2701 09-07-2014 00:50:00 12.9 C 10.71 g/m*3 12.9 C 1.6 km/h
2702 09-07-2014 00:55:00 12.9 C 10.71 g/m*3 12.9 C 8.1 km/h
2703 09-07-2014 01:00:00 12.8 C 10.53 g/m*3 12.8 C 12.9 km/h
2704 09-07-2014 01:05:00 12.8 C 10.53 g/m*3 12.8 C 9.7 km/h
2705 09-07-2014 01:10:00 12.8 C 10.53 g/m*3 12.8 C 3.2 km/h
2706 09-07-2014 01:15:00 12.8 C 10.53 g/m*3 12.8 C 1.6 km/h
2707 09-07-2014 01:20:00 12.7 C 10.46 g/m*3 12.7 C 3.2 km/h
2708 09-07-2014 01:25:00 12.7 C 10.46 g/m*3 12.7 C 4.8 km/h
2709 09-07-2014 01:30:00 12.6 C 10.4 g/m*3 12.6 C 4.8 km/h
2710 09-07-2014 01:35:00 12.6 C 10.4 g/m*3 12.6 C 9.7 km/h
2711 09-07-2014 01:40:00 12.6 C 10.4 g/m*3 12.6 C 11.3 km/h
2712 09-07-2014 01:45:00 12.5 C 10.33 g/m*3 12.5 C 4.8 km/h
2713 09-07-2014 01:50:00 12.4 C 10.27 g/m*3 12.4 C 3.2 km/h
2714 09-07-2014 01:55:00 12.4 C 10.16 g/m*3 12.4 C 8.1 km/h
2715 09-07-2014 02:00:00 12.4 C 10.27 g/m*3 12.4 C 3.2 km/h
2716 09-07-2014 02:05:00 12.3 C 10.21 g/m*3 12.3 C 8.1 km/h
2717 09-07-2014 02:10:00 12.3 C 10.21 g/m*3 12.3 C 3.2 km/h
2718 09-07-2014 02:15:00 12.3 C 10.21 g/m*3 12.3 C 8.1 km/h
2719 09-07-2014 02:20:00 12.3 C 10.21 g/m*3 12.3 C 4.8 km/h
2720 09-07-2014 02:25:00 12.2 C 10.14 g/m*3 12.2 C 3.2 km/h
2721 09-07-2014 02:30:00 12.1 C 10.08 g/m*3 12.1 C 11.3 km/h
2722 09-07-2014 02:35:00 12.1 C 10.08 g/m*3 12.1 C 8.1 km/h
2723 09-07-2014 02:40:00 12.1 C 10.08 g/m*3 12.1 C 3.2 km/h
2724 09-07-2014 02:45:00 12 C 10.02 g/m*3 12 C 4.8 km/h
2725 09-07-2014 02:50:00 11.9 C 9.96 g/m*3 11.9 C 8.1 km/h
Sensor: Nr:Datum:Temp:Abs-Feuchte:Windchill:Wind:
Aussen-T/F 2726 09-07-2014 02:55:00 11.9 C 9.96 g/m*3 11.9 C 8.1 km/h
2727 09-07-2014 03:00:00 11.9 C 9.85 g/m*3 11.9 C 3.2 km/h
2728 09-07-2014 03:05:00 11.8 C 9.89 g/m*3 11.8 C 3.2 km/h
2729 09-07-2014 03:10:00 11.8 C 9.89 g/m*3 11.8 C 1.6 km/h
2730 09-07-2014 03:15:00 11.8 C 9.89 g/m*3 11.8 C 6.4 km/h
2731 09-07-2014 03:20:00 11.7 C 9.83 g/m*3 11.7 C 3.2 km/h
2732 09-07-2014 03:25:00 11.7 C 9.83 g/m*3 11.7 C 9.7 km/h
2733 09-07-2014 03:30:00 11.7 C 9.83 g/m*3 11.7 C 1.6 km/h
2734 09-07-2014 03:35:00 11.7 C 9.83 g/m*3 11.7 C 1.6 km/h
2735 09-07-2014 03:40:00 11.7 C 9.83 g/m*3 11.7 C 6.4 km/h
2736 09-07-2014 03:45:00 11.7 C 9.94 g/m*3 11.7 C 3.2 km/h
2737 09-07-2014 03:50:00 11.7 C 9.94 g/m*3 11.7 C 3.2 km/h
2738 09-07-2014 03:55:00 11.7 C 9.94 g/m*3 11.7 C 1.6 km/h
2739 09-07-2014 04:00:00 11.7 C 9.94 g/m*3 11.7 C 1.6 km/h
2740 09-07-2014 04:05:00 11.7 C 9.94 g/m*3 11.7 C 6.4 km/h
2741 09-07-2014 04:10:00 11.7 C 9.94 g/m*3 11.7 C 9.7 km/h
2742 09-07-2014 04:15:00 11.7 C 9.94 g/m*3 11.7 C 4.8 km/h
2743 09-07-2014 04:20:00 11.7 C 9.94 g/m*3 11.7 C 1.6 km/h
2744 09-07-2014 04:25:00 11.7 C 9.94 g/m*3 11.7 C 8.1 km/h
2745 09-07-2014 04:30:00 11.7 C 9.94 g/m*3 11.7 C 3.2 km/h
2746 09-07-2014 04:35:00 11.7 C 9.94 g/m*3 11.7 C 4.8 km/h
2747 09-07-2014 04:40:00 11.7 C 9.94 g/m*3 11.7 C 3.2 km/h
2748 09-07-2014 04:45:00 11.7 C 9.94 g/m*3 11.7 C 9.7 km/h
2749 09-07-2014 04:50:00 11.8 C 10 g/m*3 11.8 C 4.8 km/h
2750 09-07-2014 04:55:00 11.8 C 10 g/m*3 11.8 C 3.2 km/h
Sensor: Nr:Datum:Temp:Abs-Feuchte:Windchill:Wind:
Aussen-T/F 2751 09-07-2014 05:00:00 11.8 C 10 g/m*3 11.8 C 1.6 km/h
2752 09-07-2014 05:05:00 11.8 C 10 g/m*3 11.8 C 6.4 km/h
2753 09-07-2014 05:10:00 11.8 C 10 g/m*3 11.8 C 4.8 km/h
2754 09-07-2014 05:15:00 11.8 C 10 g/m*3 11.8 C 3.2 km/h
2755 09-07-2014 05:20:00 11.9 C 10.06 g/m*3 11.9 C 4.8 km/h
2756 09-07-2014 05:25:00 11.9 C 10.06 g/m*3 11.9 C 4.8 km/h
2757 09-07-2014 05:30:00 11.9 C 10.06 g/m*3 11.9 C 3.2 km/h
2758 09-07-2014 05:35:00 11.9 C 10.06 g/m*3 11.9 C 1.6 km/h
2759 09-07-2014 05:40:00 11.9 C 10.06 g/m*3 11.9 C 3.2 km/h
2760 09-07-2014 05:45:00 11.9 C 10.06 g/m*3 11.9 C 3.2 km/h
2761 09-07-2014 05:50:00 11.9 C 10.06 g/m*3 11.9 C 1.6 km/h
2762 09-07-2014 05:55:00 11.9 C 10.06 g/m*3 11.9 C 1.6 km/h
2763 09-07-2014 06:00:00 12 C 10.12 g/m*3 12 C 1.6 km/h
2764 09-07-2014 06:05:00 12 C 10.12 g/m*3 12 C 8.1 km/h
2765 09-07-2014 06:10:00 12 C 10.12 g/m*3 12 C 4.8 km/h
2766 09-07-2014 06:15:00 12 C 10.12 g/m*3 12 C 8.1 km/h
2767 09-07-2014 06:20:00 11.9 C 10.06 g/m*3 11.9 C 6.4 km/h
2768 09-07-2014 06:25:00 11.9 C 10.06 g/m*3 11.9 C 6.4 km/h
2769 09-07-2014 06:30:00 12 C 10.12 g/m*3 12 C 4.8 km/h
2770 09-07-2014 06:35:00 11.9 C 10.06 g/m*3 11.9 C 4.8 km/h
2771 09-07-2014 06:40:00 11.9 C 10.06 g/m*3 11.9 C 6.4 km/h
2772 09-07-2014 06:45:00 11.9 C 10.06 g/m*3 11.9 C 11.3 km/h
2773 09-07-2014 06:50:00 11.9 C 9.96 g/m*3 11.9 C 6.4 km/h
2774 09-07-2014 06:55:00 11.9 C 9.96 g/m*3 11.9 C 6.4 km/h
2775 09-07-2014 07:00:00 11.9 C 9.96 g/m*3 11.9 C 11.3 km/h
Sensor: Nr:Datum:Temp:Abs-Feuchte:Windchill:Wind:
Aussen-T/F 2776 09-07-2014 07:05:00 11.9 C 9.96 g/m*3 11.9 C 3.2 km/h
2777 09-07-2014 07:10:00 11.9 C 9.96 g/m*3 11.9 C 4.8 km/h
2778 09-07-2014 07:15:00 11.8 C 9.89 g/m*3 11.8 C 4.8 km/h
2779 09-07-2014 07:20:00 11.8 C 9.89 g/m*3 11.8 C 4.8 km/h
2780 09-07-2014 07:25:00 11.8 C 9.89 g/m*3 11.8 C 4.8 km/h
2781 09-07-2014 07:30:00 11.8 C 10 g/m*3 11.8 C 6.4 km/h
2782 09-07-2014 07:35:00 11.8 C 10 g/m*3 11.8 C 1.6 km/h
2783 09-07-2014 07:40:00 11.8 C 10 g/m*3 11.8 C 1.6 km/h
2784 09-07-2014 07:45:00 11.8 C 10 g/m*3 11.8 C 9.7 km/h
2785 09-07-2014 07:50:00 11.8 C 10 g/m*3 11.8 C 3.2 km/h
2786 09-07-2014 07:55:00 11.8 C 10 g/m*3 11.8 C 3.2 km/h
2787 09-07-2014 08:00:00 11.7 C 9.94 g/m*3 11.7 C 3.2 km/h
2788 09-07-2014 08:05:00 11.8 C 10 g/m*3 11.8 C 3.2 km/h
2789 09-07-2014 08:10:00 11.8 C 10 g/m*3 11.8 C 1.6 km/h
2790 09-07-2014 08:15:00 11.8 C 10 g/m*3 11.8 C 3.2 km/h
2791 09-07-2014 08:20:00 11.8 C 10 g/m*3 11.8 C 4.8 km/h
2792 09-07-2014 08:25:00 11.8 C 10 g/m*3 11.8 C 8.1 km/h
2793 09-07-2014 08:30:00 11.8 C 10.1 g/m*3 11.8 C 3.2 km/h
2794 09-07-2014 08:35:00 11.9 C 10.17 g/m*3 11.9 C 3.2 km/h
2795 09-07-2014 08:40:00 11.9 C 10.17 g/m*3 11.9 C 1.6 km/h
2796 09-07-2014 08:45:00 11.9 C 10.17 g/m*3 11.9 C 3.2 km/h
2797 09-07-2014 08:50:00 11.9 C 10.17 g/m*3 11.9 C 12.9 km/h
2798 09-07-2014 08:55:00 11.9 C 10.17 g/m*3 11.9 C 4.8 km/h
2799 09-07-2014 09:00:00 12 C 10.23 g/m*3 12 C 8.1 km/h
2800 09-07-2014 09:05:00 12 C 10.23 g/m*3 12 C 3.2 km/h
Sensor: Nr:Datum:Temp:Abs-Feuchte:Windchill:Wind:
Aussen-T/F 2801 09-07-2014 09:10:00 12 C 10.23 g/m*3 12 C 6.4 km/h
2802 09-07-2014 09:15:00 12.1 C 10.19 g/m*3 12.1 C 4.8 km/h
2803 09-07-2014 09:20:00 12.1 C 10.29 g/m*3 12.1 C 6.4 km/h
2804 09-07-2014 09:25:00 12.1 C 10.19 g/m*3 12.1 C 6.4 km/h
2805 09-07-2014 09:30:00 12.2 C 10.25 g/m*3 12.2 C 6.4 km/h
2806 09-07-2014 09:35:00 12.2 C 10.25 g/m*3 12.2 C 6.4 km/h
2807 09-07-2014 09:40:00 12.2 C 10.25 g/m*3 12.2 C 3.2 km/h
2808 09-07-2014 09:45:00 12.2 C 10.25 g/m*3 12.2 C 1.6 km/h
2809 09-07-2014 09:50:00 12.2 C 10.25 g/m*3 12.2 C 4.8 km/h
2810 09-07-2014 09:55:00 12.2 C 10.25 g/m*3 12.2 C 1.6 km/h
2811 09-07-2014 10:00:00 12.3 C 10.32 g/m*3 12.3 C 0 km/h
2812 09-07-2014 10:05:00 12.3 C 10.32 g/m*3 12.3 C 6.4 km/h
2813 09-07-2014 10:10:00 12.3 C 10.32 g/m*3 12.3 C 4.8 km/h
2814 09-07-2014 10:15:00 12.3 C 10.32 g/m*3 12.3 C 1.6 km/h
2815 09-07-2014 10:20:00 12.3 C 10.32 g/m*3 12.3 C 1.6 km/h
2816 09-07-2014 10:25:00 12.3 C 10.42 g/m*3 12.3 C 1.6 km/h
2817 09-07-2014 10:30:00 12.3 C 10.42 g/m*3 12.3 C 1.6 km/h
2818 09-07-2014 10:35:00 12.3 C 10.42 g/m*3 12.3 C 1.6 km/h
2819 09-07-2014 10:40:00 12.4 C 10.49 g/m*3 12.4 C 4.8 km/h
2820 09-07-2014 10:45:00 12.4 C 10.49 g/m*3 12.4 C 0 km/h
2821 09-07-2014 10:50:00 12.4 C 10.49 g/m*3 12.4 C 3.2 km/h
2822 09-07-2014 10:55:00 12.4 C 10.49 g/m*3 12.4 C 8.1 km/h
2823 09-07-2014 11:00:00 12.5 C 10.55 g/m*3 12.5 C 4.8 km/h
2824 09-07-2014 11:05:00 12.6 C 10.62 g/m*3 12.6 C 3.2 km/h
2825 09-07-2014 11:10:00 12.6 C 10.62 g/m*3 12.6 C 1.6 km/h
Sensor: Nr:Datum:Temp:Abs-Feuchte:Windchill:Wind:
Aussen-T/F 2826 09-07-2014 11:15:00 12.6 C 10.62 g/m*3 12.6 C 6.4 km/h
2827 09-07-2014 11:20:00 12.6 C 10.62 g/m*3 12.6 C 3.2 km/h
2828 09-07-2014 11:25:00 12.6 C 10.62 g/m*3 12.6 C 4.8 km/h
2829 09-07-2014 11:30:00 12.6 C 10.62 g/m*3 12.6 C 6.4 km/h
2830 09-07-2014 11:35:00 12.7 C 10.69 g/m*3 12.7 C 14.5 km/h
2831 09-07-2014 11:40:00 12.7 C 10.69 g/m*3 12.7 C 8.1 km/h
2832 09-07-2014 11:45:00 12.8 C 10.75 g/m*3 12.8 C 3.2 km/h
2833 09-07-2014 11:50:00 12.8 C 10.75 g/m*3 12.8 C 9.7 km/h
2834 09-07-2014 11:55:00 12.9 C 10.71 g/m*3 12.9 C 11.3 km/h
2835 09-07-2014 12:00:00 12.9 C 10.71 g/m*3 12.9 C 8.1 km/h
2836 09-07-2014 12:05:00 12.9 C 10.71 g/m*3 12.9 C 6.4 km/h
2837 09-07-2014 12:10:00 13 C 10.77 g/m*3 13 C 11.3 km/h
2838 09-07-2014 12:15:00 13.1 C 10.84 g/m*3 13.1 C 4.8 km/h
2839 09-07-2014 12:20:00 13.1 C 10.84 g/m*3 13.1 C 9.7 km/h
2840 09-07-2014 12:25:00 13.2 C 10.91 g/m*3 13.2 C 9.7 km/h
2841 09-07-2014 12:30:00 13.2 C 10.91 g/m*3 13.2 C 6.4 km/h
2842 09-07-2014 12:35:00 13.2 C 10.91 g/m*3 13.2 C 8.1 km/h
2843 09-07-2014 12:40:00 13.2 C 10.91 g/m*3 13.2 C 9.7 km/h
2844 09-07-2014 12:45:00 13.2 C 10.91 g/m*3 13.2 C 3.2 km/h
2845 09-07-2014 12:50:00 13.2 C 10.91 g/m*3 13.2 C 8.1 km/h
2846 09-07-2014 12:55:00 13.3 C 10.98 g/m*3 13.3 C 1.6 km/h
2847 09-07-2014 13:00:00 13.3 C 10.98 g/m*3 13.3 C 4.8 km/h
2848 09-07-2014 13:05:00 13.3 C 10.98 g/m*3 13.3 C 8.1 km/h
2849 09-07-2014 13:10:00 13.3 C 10.98 g/m*3 13.3 C 8.1 km/h
2850 09-07-2014 13:15:00 13.3 C 10.98 g/m*3 13.3 C 12.9 km/h
Sensor: Nr:Datum:Temp:Abs-Feuchte:Windchill:Wind:
Aussen-T/F 2851 09-07-2014 13:20:00 13.3 C 10.98 g/m*3 13.3 C 6.4 km/h
2852 09-07-2014 13:25:00 13.3 C 10.86 g/m*3 13.3 C 3.2 km/h
2853 09-07-2014 13:30:00 13.4 C 11.04 g/m*3 13.4 C 6.4 km/h
2854 09-07-2014 13:35:00 13.4 C 11.04 g/m*3 13.4 C 8.1 km/h
2855 09-07-2014 13:40:00 13.4 C 11.04 g/m*3 13.4 C 3.2 km/h
2856 09-07-2014 13:45:00 13.4 C 11.04 g/m*3 13.4 C 11.3 km/h
2857 09-07-2014 13:50:00 13.4 C 11.04 g/m*3 13.4 C 8.1 km/h
2858 09-07-2014 13:55:00 13.5 C 11.11 g/m*3 13.5 C 3.2 km/h
2859 09-07-2014 14:00:00 13.6 C 11.18 g/m*3 13.6 C 4.8 km/h
2860 09-07-2014 14:05:00 13.6 C 11.18 g/m*3 13.6 C 3.2 km/h
2861 09-07-2014 14:10:00 13.7 C 11.25 g/m*3 13.7 C 4.8 km/h
2862 09-07-2014 14:15:00 13.7 C 11.25 g/m*3 13.7 C 6.4 km/h
2863 09-07-2014 14:20:00 13.7 C 11.25 g/m*3 13.7 C 4.8 km/h
2864 09-07-2014 14:25:00 13.7 C 11.25 g/m*3 13.7 C 6.4 km/h
2865 09-07-2014 14:30:00 13.8 C 11.2 g/m*3 13.8 C 6.4 km/h
2866 09-07-2014 14:35:00 13.9 C 11.27 g/m*3 13.9 C 9.7 km/h
2867 09-07-2014 14:40:00 13.9 C 11.27 g/m*3 13.9 C 4.8 km/h
2868 09-07-2014 14:45:00 13.9 C 11.27 g/m*3 13.9 C 11.3 km/h
2869 09-07-2014 14:50:00 13.9 C 11.27 g/m*3 13.9 C 12.9 km/h
2870 09-07-2014 14:55:00 13.9 C 11.27 g/m*3 13.9 C 12.9 km/h
2871 09-07-2014 15:00:00 13.9 C 11.27 g/m*3 13.9 C 8.1 km/h
2872 09-07-2014 15:05:00 13.9 C 11.27 g/m*3 13.9 C 9.7 km/h
2873 09-07-2014 15:10:00 13.9 C 11.39 g/m*3 13.9 C 4.8 km/h
2874 09-07-2014 15:15:00 13.9 C 11.39 g/m*3 13.9 C 14.5 km/h
2875 09-07-2014 15:20:00 14 C 11.46 g/m*3 14 C 9.7 km/h
Sensor: Nr:Datum:Temp:Abs-Feuchte:Windchill:Wind:
Aussen-T/F 2876 09-07-2014 15:25:00 14 C 11.34 g/m*3 14 C 11.3 km/h
2877 09-07-2014 15:30:00 14 C 11.46 g/m*3 14 C 6.4 km/h
2878 09-07-2014 15:35:00 14 C 11.46 g/m*3 14 C 4.8 km/h
2879 09-07-2014 15:40:00 14.1 C 11.53 g/m*3 14.1 C 3.2 km/h
2880 09-07-2014 15:45:00 14.1 C 11.53 g/m*3 14.1 C 8.1 km/h
2881 09-07-2014 15:50:00 14 C 11.46 g/m*3 14 C 9.7 km/h
2882 09-07-2014 15:55:00 14 C 11.46 g/m*3 14 C 8.1 km/h
2883 09-07-2014 16:00:00 14 C 11.46 g/m*3 14 C 8.1 km/h
2884 09-07-2014 16:05:00 14 C 11.46 g/m*3 14 C 11.3 km/h
2885 09-07-2014 16:10:00 14 C 11.46 g/m*3 14 C 9.7 km/h
2886 09-07-2014 16:15:00 14 C 11.46 g/m*3 14 C 9.7 km/h
2887 09-07-2014 16:20:00 14 C 11.46 g/m*3 14 C 6.4 km/h
2888 09-07-2014 16:25:00 14 C 11.46 g/m*3 14 C 8.1 km/h
2889 09-07-2014 16:30:00 14.1 C 11.53 g/m*3 14.1 C 6.4 km/h
2890 09-07-2014 16:35:00 14.1 C 11.53 g/m*3 14.1 C 11.3 km/h
2891 09-07-2014 16:40:00 14.1 C 11.53 g/m*3 14.1 C 11.3 km/h
2892 09-07-2014 16:45:00 14 C 11.46 g/m*3 14 C 9.7 km/h
2893 09-07-2014 16:50:00 13.9 C 11.39 g/m*3 13.9 C 6.4 km/h
2894 09-07-2014 16:55:00 13.9 C 11.39 g/m*3 13.9 C 4.8 km/h
2895 09-07-2014 17:00:00 14 C 11.46 g/m*3 14 C 9.7 km/h
2896 09-07-2014 17:05:00 13.9 C 11.39 g/m*3 13.9 C 8.1 km/h
2897 09-07-2014 17:10:00 13.9 C 11.39 g/m*3 13.9 C 4.8 km/h
2898 09-07-2014 17:15:00 13.9 C 11.39 g/m*3 13.9 C 8.1 km/h
2899 09-07-2014 17:20:00 13.9 C 11.39 g/m*3 13.9 C 3.2 km/h
2900 09-07-2014 17:25:00 13.9 C 11.39 g/m*3 13.9 C 3.2 km/h
Sensor: Nr:Datum:Temp:Abs-Feuchte:Windchill:Wind:
Aussen-T/F 2901 09-07-2014 17:30:00 13.9 C 11.39 g/m*3 13.9 C 4.8 km/h
2902 09-07-2014 17:35:00 13.9 C 11.39 g/m*3 13.9 C 6.4 km/h
2903 09-07-2014 17:40:00 14 C 11.46 g/m*3 14 C 9.7 km/h
2904 09-07-2014 17:45:00 14 C 11.46 g/m*3 14 C 6.4 km/h
2905 09-07-2014 17:50:00 14 C 11.46 g/m*3 14 C 4.8 km/h
2906 09-07-2014 17:55:00 14.1 C 11.53 g/m*3 14.1 C 9.7 km/h
2907 09-07-2014 18:00:00 14.1 C 11.53 g/m*3 14.1 C 6.4 km/h
2908 09-07-2014 18:05:00 14 C 11.46 g/m*3 14 C 4.8 km/h
2909 09-07-2014 18:10:00 14.1 C 11.53 g/m*3 14.1 C 3.2 km/h
2910 09-07-2014 18:15:00 14 C 11.46 g/m*3 14 C 8.1 km/h
2911 09-07-2014 18:20:00 14 C 11.46 g/m*3 14 C 3.2 km/h
2912 09-07-2014 18:25:00 14 C 11.46 g/m*3 14 C 1.6 km/h
2913 09-07-2014 18:30:00 13.9 C 11.39 g/m*3 13.9 C 6.4 km/h
2914 09-07-2014 18:35:00 13.9 C 11.39 g/m*3 13.9 C 1.6 km/h
2915 09-07-2014 18:40:00 13.9 C 11.39 g/m*3 13.9 C 3.2 km/h
2916 09-07-2014 18:45:00 13.9 C 11.39 g/m*3 13.9 C 1.6 km/h
2917 09-07-2014 18:50:00 13.9 C 11.39 g/m*3 13.9 C 1.6 km/h
2918 09-07-2014 18:55:00 13.9 C 11.39 g/m*3 13.9 C 0 km/h
2919 09-07-2014 19:00:00 13.9 C 11.39 g/m*3 13.9 C 1.6 km/h
2920 09-07-2014 19:05:00 13.9 C 11.39 g/m*3 13.9 C 1.6 km/h
2921 09-07-2014 19:10:00 13.9 C 11.39 g/m*3 13.9 C 0 km/h
2922 09-07-2014 19:15:00 13.9 C 11.39 g/m*3 13.9 C 3.2 km/h
2923 09-07-2014 19:20:00 13.9 C 11.39 g/m*3 13.9 C 1.6 km/h
2924 09-07-2014 19:25:00 13.9 C 11.39 g/m*3 13.9 C 6.4 km/h
2925 09-07-2014 19:30:00 13.9 C 11.39 g/m*3 13.9 C 3.2 km/h
Sensor: Nr:Datum:Temp:Abs-Feuchte:Windchill:Wind:
Aussen-T/F 2926 09-07-2014 19:35:00 13.9 C 11.51 g/m*3 13.9 C 4.8 km/h
2927 09-07-2014 19:40:00 13.9 C 11.51 g/m*3 13.9 C 3.2 km/h
2928 09-07-2014 19:45:00 13.9 C 11.51 g/m*3 13.9 C 3.2 km/h
2929 09-07-2014 19:50:00 13.9 C 11.51 g/m*3 13.9 C 0 km/h
2930 09-07-2014 19:55:00 13.9 C 11.51 g/m*3 13.9 C 6.4 km/h
2931 09-07-2014 20:00:00 14 C 11.58 g/m*3 14 C 4.8 km/h
2932 09-07-2014 20:05:00 14 C 11.58 g/m*3 14 C 0 km/h
2933 09-07-2014 20:10:00 14 C 11.58 g/m*3 14 C 3.2 km/h
2934 09-07-2014 20:15:00 14 C 11.58 g/m*3 14 C 0 km/h
2935 09-07-2014 20:20:00 14 C 11.58 g/m*3 14 C 1.6 km/h
2936 09-07-2014 20:25:00 14 C 11.58 g/m*3 14 C 0 km/h
2937 09-07-2014 20:30:00 14 C 11.58 g/m*3 14 C 0 km/h
2938 09-07-2014 20:35:00 14 C 11.58 g/m*3 14 C 0 km/h
2939 09-07-2014 20:40:00 14 C 11.58 g/m*3 14 C 0 km/h
2940 09-07-2014 20:45:00 13.9 C 11.51 g/m*3 13.9 C 0 km/h
2941 09-07-2014 20:50:00 13.9 C 11.51 g/m*3 13.9 C 0 km/h
2942 09-07-2014 20:55:00 13.9 C 11.51 g/m*3 13.9 C 1.6 km/h
2943 09-07-2014 21:00:00 13.9 C 11.51 g/m*3 13.9 C 0 km/h
2944 09-07-2014 21:05:00 13.9 C 11.51 g/m*3 13.9 C 1.6 km/h
2945 09-07-2014 21:10:00 13.9 C 11.51 g/m*3 13.9 C 0 km/h
2946 09-07-2014 21:15:00 13.9 C 11.51 g/m*3 13.9 C 0 km/h
2947 09-07-2014 21:20:00 13.9 C 11.51 g/m*3 13.9 C 0 km/h
2948 09-07-2014 21:25:00 13.9 C 11.51 g/m*3 13.9 C 0 km/h
2949 09-07-2014 21:30:00 13.9 C 11.51 g/m*3 13.9 C 0 km/h
2950 09-07-2014 21:35:00 13.9 C 11.51 g/m*3 13.9 C 3.2 km/h
Sensor: Nr:Datum:Temp:Abs-Feuchte:Windchill:Wind:
Aussen-T/F 2951 09-07-2014 21:40:00 13.9 C 11.63 g/m*3 13.9 C 0 km/h
2952 09-07-2014 21:45:00 13.9 C 11.63 g/m*3 13.9 C 0 km/h
2953 09-07-2014 21:50:00 13.9 C 11.63 g/m*3 13.9 C 0 km/h
2954 09-07-2014 21:55:00 13.9 C 11.63 g/m*3 13.9 C 0 km/h
2955 09-07-2014 22:00:00 13.8 C 11.56 g/m*3 13.8 C 0 km/h
2956 09-07-2014 22:05:00 13.8 C 11.56 g/m*3 13.8 C 0 km/h
2957 09-07-2014 22:10:00 13.8 C 11.56 g/m*3 13.8 C 0 km/h
2958 09-07-2014 22:15:00 13.8 C 11.56 g/m*3 13.8 C 0 km/h
2959 09-07-2014 22:20:00 13.8 C 11.56 g/m*3 13.8 C 0 km/h
2960 09-07-2014 22:25:00 13.8 C 11.56 g/m*3 13.8 C 0 km/h
2961 09-07-2014 22:30:00 13.8 C 11.56 g/m*3 13.8 C 0 km/h
2962 09-07-2014 22:35:00 13.8 C 11.56 g/m*3 13.8 C 0 km/h
2963 09-07-2014 22:40:00 13.8 C 11.56 g/m*3 13.8 C 0 km/h
2964 09-07-2014 22:45:00 13.8 C 11.56 g/m*3 13.8 C 0 km/h
2965 09-07-2014 22:50:00 13.8 C 11.56 g/m*3 13.8 C 0 km/h
2966 09-07-2014 22:55:00 13.8 C 11.56 g/m*3 13.8 C 0 km/h
2967 09-07-2014 23:00:00 13.8 C 11.56 g/m*3 13.8 C 0 km/h
2968 09-07-2014 23:05:00 13.8 C 11.56 g/m*3 13.8 C 0 km/h
2969 09-07-2014 23:10:00 13.8 C 11.56 g/m*3 13.8 C 0 km/h
2970 09-07-2014 23:15:00 13.8 C 11.56 g/m*3 13.8 C 0 km/h
2971 09-07-2014 23:20:00 13.7 C 11.49 g/m*3 13.7 C 0 km/h
2972 09-07-2014 23:25:00 13.7 C 11.49 g/m*3 13.7 C 0 km/h
2973 09-07-2014 23:30:00 13.7 C 11.49 g/m*3 13.7 C 0 km/h
2974 09-07-2014 23:35:00 13.7 C 11.49 g/m*3 13.7 C 0 km/h
2975 09-07-2014 23:40:00 13.7 C 11.49 g/m*3 13.7 C 0 km/h
Sensor: Nr:Datum:Temp:Abs-Feuchte:Windchill:Wind:
Aussen-T/F 2976 09-07-2014 23:45:00 13.7 C 11.49 g/m*3 13.7 C 0 km/h
2977 09-07-2014 23:50:00 13.7 C 11.49 g/m*3 13.7 C 0 km/h
2978 09-07-2014 23:55:00 13.7 C 11.49 g/m*3 13.7 C 0 km/h
2979 10-07-2014 00:00:00 13.7 C 11.49 g/m*3 13.7 C 0 km/h
2980 10-07-2014 00:05:00 13.7 C 11.49 g/m*3 13.7 C 0 km/h
2981 10-07-2014 00:10:00 13.7 C 11.49 g/m*3 13.7 C 0 km/h
2982 10-07-2014 00:15:00 13.7 C 11.49 g/m*3 13.7 C 0 km/h
2983 10-07-2014 00:20:00 13.7 C 11.49 g/m*3 13.7 C 0 km/h
2984 10-07-2014 00:25:00 13.7 C 11.49 g/m*3 13.7 C 0 km/h
2985 10-07-2014 00:30:00 13.7 C 11.49 g/m*3 13.7 C 0 km/h
2986 10-07-2014 00:35:00 13.8 C 11.56 g/m*3 13.8 C 0 km/h
2987 10-07-2014 00:40:00 13.8 C 11.56 g/m*3 13.8 C 0 km/h
2988 10-07-2014 00:45:00 13.7 C 11.49 g/m*3 13.7 C 0 km/h
2989 10-07-2014 00:50:00 13.7 C 11.49 g/m*3 13.7 C 0 km/h
2990 10-07-2014 00:55:00 13.7 C 11.49 g/m*3 13.7 C 0 km/h
2991 10-07-2014 01:00:00 13.7 C 11.49 g/m*3 13.7 C 0 km/h
2992 10-07-2014 01:05:00 13.7 C 11.6 g/m*3 13.7 C 0 km/h
2993 10-07-2014 01:10:00 13.7 C 11.6 g/m*3 13.7 C 0 km/h
2994 10-07-2014 01:15:00 13.7 C 11.6 g/m*3 13.7 C 0 km/h
2995 10-07-2014 01:20:00 13.7 C 11.6 g/m*3 13.7 C 0 km/h
2996 10-07-2014 01:25:00 13.7 C 11.6 g/m*3 13.7 C 0 km/h
2997 10-07-2014 01:30:00 13.7 C 11.6 g/m*3 13.7 C 0 km/h
2998 10-07-2014 01:35:00 13.7 C 11.6 g/m*3 13.7 C 0 km/h
2999 10-07-2014 01:40:00 13.7 C 11.6 g/m*3 13.7 C 0 km/h
3000 10-07-2014 01:45:00 13.7 C 11.6 g/m*3 13.7 C 0 km/h
Sensor: Nr:Datum:Temp:Abs-Feuchte:Windchill:Wind:
Aussen-T/F 3001 10-07-2014 01:50:00 13.7 C 11.6 g/m*3 13.7 C 0 km/h
3002 10-07-2014 01:55:00 13.7 C 11.6 g/m*3 13.7 C 0 km/h
3003 10-07-2014 02:00:00 13.7 C 11.6 g/m*3 13.7 C 0 km/h
3004 10-07-2014 02:05:00 13.7 C 11.6 g/m*3 13.7 C 0 km/h
3005 10-07-2014 02:10:00 13.7 C 11.6 g/m*3 13.7 C 0 km/h
3006 10-07-2014 02:15:00 13.7 C 11.6 g/m*3 13.7 C 0 km/h
3007 10-07-2014 02:20:00 13.7 C 11.6 g/m*3 13.7 C 0 km/h
3008 10-07-2014 02:25:00 13.7 C 11.6 g/m*3 13.7 C 0 km/h
3009 10-07-2014 02:30:00 13.7 C 11.6 g/m*3 13.7 C 0 km/h
3010 10-07-2014 02:35:00 13.7 C 11.6 g/m*3 13.7 C 0 km/h
3011 10-07-2014 02:40:00 13.7 C 11.6 g/m*3 13.7 C 0 km/h
3012 10-07-2014 02:45:00 13.7 C 11.6 g/m*3 13.7 C 0 km/h
3013 10-07-2014 02:50:00 13.7 C 11.6 g/m*3 13.7 C 0 km/h
3014 10-07-2014 02:55:00 13.8 C 11.68 g/m*3 13.8 C 0 km/h
3015 10-07-2014 03:00:00 13.8 C 11.68 g/m*3 13.8 C 0 km/h
3016 10-07-2014 03:05:00 13.8 C 11.68 g/m*3 13.8 C 0 km/h
3017 10-07-2014 03:10:00 13.8 C 11.68 g/m*3 13.8 C 0 km/h
3018 10-07-2014 03:15:00 13.8 C 11.68 g/m*3 13.8 C 0 km/h
3019 10-07-2014 03:20:00 13.8 C 11.68 g/m*3 13.8 C 0 km/h
3020 10-07-2014 03:25:00 13.8 C 11.68 g/m*3 13.8 C 0 km/h
3021 10-07-2014 03:30:00 13.8 C 11.68 g/m*3 13.8 C 0 km/h
3022 10-07-2014 03:35:00 13.8 C 11.68 g/m*3 13.8 C 0 km/h
3023 10-07-2014 03:40:00 13.8 C 11.68 g/m*3 13.8 C 0 km/h
3024 10-07-2014 03:45:00 13.8 C 11.68 g/m*3 13.8 C 0 km/h
3025 10-07-2014 03:50:00 13.8 C 11.68 g/m*3 13.8 C 0 km/h
Sensor: Nr:Datum:Temp:Abs-Feuchte:Windchill:Wind:
Aussen-T/F 3026 10-07-2014 03:55:00 13.8 C 11.68 g/m*3 13.8 C 0 km/h
3027 10-07-2014 04:00:00 13.8 C 11.68 g/m*3 13.8 C 0 km/h
3028 10-07-2014 04:05:00 13.8 C 11.68 g/m*3 13.8 C 0 km/h
3029 10-07-2014 04:10:00 13.8 C 11.68 g/m*3 13.8 C 0 km/h
3030 10-07-2014 04:15:00 13.8 C 11.68 g/m*3 13.8 C 0 km/h
3031 10-07-2014 04:20:00 13.8 C 11.68 g/m*3 13.8 C 0 km/h
3032 10-07-2014 04:25:00 13.8 C 11.68 g/m*3 13.8 C 0 km/h
3033 10-07-2014 04:30:00 13.8 C 11.68 g/m*3 13.8 C 0 km/h
3034 10-07-2014 04:35:00 13.8 C 11.68 g/m*3 13.8 C 0 km/h
3035 10-07-2014 04:40:00 13.8 C 11.68 g/m*3 13.8 C 0 km/h
3036 10-07-2014 04:45:00 13.8 C 11.68 g/m*3 13.8 C 0 km/h
3037 10-07-2014 04:50:00 13.8 C 11.68 g/m*3 13.8 C 0 km/h
3038 10-07-2014 04:55:00 13.8 C 11.68 g/m*3 13.8 C 0 km/h
3039 10-07-2014 05:00:00 13.8 C 11.68 g/m*3 13.8 C 0 km/h
3040 10-07-2014 05:05:00 13.8 C 11.68 g/m*3 13.8 C 0 km/h
3041 10-07-2014 05:10:00 13.7 C 11.6 g/m*3 13.7 C 0 km/h
3042 10-07-2014 05:15:00 13.7 C 11.6 g/m*3 13.7 C 1.6 km/h
3043 10-07-2014 05:20:00 13.7 C 11.6 g/m*3 13.7 C 0 km/h
3044 10-07-2014 05:25:00 13.6 C 11.53 g/m*3 13.6 C 0 km/h
3045 10-07-2014 05:30:00 13.6 C 11.53 g/m*3 13.6 C 0 km/h
3046 10-07-2014 05:35:00 13.6 C 11.53 g/m*3 13.6 C 0 km/h
3047 10-07-2014 05:40:00 13.7 C 11.6 g/m*3 13.7 C 0 km/h
3048 10-07-2014 05:45:00 13.7 C 11.6 g/m*3 13.7 C 0 km/h
3049 10-07-2014 05:50:00 13.7 C 11.6 g/m*3 13.7 C 0 km/h
3050 10-07-2014 05:55:00 13.7 C 11.6 g/m*3 13.7 C 0 km/h
Sensor: Nr:Datum:Temp:Abs-Feuchte:Windchill:Wind:
Aussen-T/F 3051 10-07-2014 06:00:00 13.7 C 11.6 g/m*3 13.7 C 0 km/h
3052 10-07-2014 06:05:00 13.6 C 11.53 g/m*3 13.6 C 0 km/h
3053 10-07-2014 06:10:00 13.7 C 11.6 g/m*3 13.7 C 0 km/h
3054 10-07-2014 06:15:00 13.7 C 11.6 g/m*3 13.7 C 0 km/h
3055 10-07-2014 06:20:00 13.7 C 11.6 g/m*3 13.7 C 0 km/h
3056 10-07-2014 06:25:00 13.7 C 11.6 g/m*3 13.7 C 0 km/h
3057 10-07-2014 06:30:00 13.8 C 11.68 g/m*3 13.8 C 0 km/h
3058 10-07-2014 06:35:00 13.8 C 11.68 g/m*3 13.8 C 0 km/h
3059 10-07-2014 06:40:00 13.8 C 11.68 g/m*3 13.8 C 0 km/h
3060 10-07-2014 06:45:00 13.8 C 11.68 g/m*3 13.8 C 0 km/h
3061 10-07-2014 06:50:00 13.9 C 11.75 g/m*3 13.9 C 0 km/h
3062 10-07-2014 06:55:00 13.9 C 11.75 g/m*3 13.9 C 0 km/h
3063 10-07-2014 07:00:00 14 C 11.82 g/m*3 14 C 0 km/h
3064 10-07-2014 07:05:00 14.1 C 11.89 g/m*3 14.1 C 0 km/h
3065 10-07-2014 07:10:00 14.1 C 11.89 g/m*3 14.1 C 0 km/h
3066 10-07-2014 07:15:00 14.2 C 11.97 g/m*3 14.2 C 0 km/h
3067 10-07-2014 07:20:00 14.2 C 11.97 g/m*3 14.2 C 0 km/h
3068 10-07-2014 07:25:00 14.3 C 12.04 g/m*3 14.3 C 0 km/h
3069 10-07-2014 07:30:00 14.3 C 12.04 g/m*3 14.3 C 0 km/h
3070 10-07-2014 07:35:00 14.3 C 12.04 g/m*3 14.3 C 0 km/h
3071 10-07-2014 07:40:00 14.3 C 12.04 g/m*3 14.3 C 0 km/h
3072 10-07-2014 07:45:00 14.4 C 12.11 g/m*3 14.4 C 0 km/h
3073 10-07-2014 07:50:00 14.4 C 12.11 g/m*3 14.4 C 0 km/h
3074 10-07-2014 07:55:00 14.3 C 12.04 g/m*3 14.3 C 0 km/h
3075 10-07-2014 08:00:00 14.3 C 12.04 g/m*3 14.3 C 0 km/h
Sensor: Nr:Datum:Temp:Abs-Feuchte:Windchill:Wind:
Aussen-T/F 3076 10-07-2014 08:05:00 14.4 C 12.11 g/m*3 14.4 C 0 km/h
3077 10-07-2014 08:10:00 14.5 C 12.19 g/m*3 14.5 C 0 km/h
3078 10-07-2014 08:15:00 14.4 C 12.11 g/m*3 14.4 C 0 km/h
3079 10-07-2014 08:20:00 14.4 C 12.11 g/m*3 14.4 C 0 km/h
3080 10-07-2014 11:30:00 17.8 C 13.05 g/m*3 17.8 C 6.4 km/h
3081 10-07-2014 11:35:00 17.8 C 13.05 g/m*3 17.8 C 0 km/h
3082 10-07-2014 11:40:00 17.8 C 13.2 g/m*3 17.8 C 8.1 km/h
3083 10-07-2014 11:45:00 17.8 C 13.05 g/m*3 17.8 C 4.8 km/h
3084 10-07-2014 11:50:00 17.9 C 13.28 g/m*3 17.9 C 4.8 km/h
3085 10-07-2014 11:55:00 18.1 C 13.44 g/m*3 18.1 C 6.4 km/h
3086 10-07-2014 12:00:00 18.2 C 13.52 g/m*3 18.2 C 6.4 km/h
3087 10-07-2014 12:05:00 18.4 C 13.37 g/m*3 18.4 C 4.8 km/h
3088 10-07-2014 12:10:00 18.4 C 13.37 g/m*3 18.4 C 8.1 km/h
3089 10-07-2014 12:15:00 18.4 C 13.37 g/m*3 18.4 C 6.4 km/h
3090 10-07-2014 12:20:00 18.4 C 13.37 g/m*3 18.4 C 4.8 km/h
3091 10-07-2014 12:25:00 18.5 C 13.45 g/m*3 18.5 C 1.6 km/h
3092 10-07-2014 12:30:00 18.5 C 13.61 g/m*3 18.5 C 0 km/h
3093 10-07-2014 12:35:00 18.5 C 13.61 g/m*3 18.5 C 0 km/h
3094 10-07-2014 12:40:00 18.4 C 14 g/m*3 18.4 C 0 km/h
3095 10-07-2014 12:45:00 18.4 C 13.84 g/m*3 18.4 C 3.2 km/h
3096 10-07-2014 12:50:00 18.7 C 13.93 g/m*3 18.7 C 3.2 km/h
3097 10-07-2014 12:55:00 19.1 C 14.1 g/m*3 19.1 C 8.1 km/h
3098 10-07-2014 13:00:00 19.3 C 13.93 g/m*3 19.3 C 4.8 km/h
3099 10-07-2014 13:05:00 19.5 C 13.76 g/m*3 19.5 C 6.4 km/h
3100 10-07-2014 13:10:00 19.7 C 14.26 g/m*3 19.7 C 8.1 km/h
Sensor: Nr:Datum:Temp:Abs-Feuchte:Windchill:Wind:
Aussen-T/F 3101 10-07-2014 13:15:00 19.9 C 14.26 g/m*3 19.9 C 8.1 km/h
3102 10-07-2014 13:20:00 20.1 C 14.08 g/m*3 20.1 C 9.7 km/h
3103 10-07-2014 13:25:00 20.2 C 14.34 g/m*3 20.2 C 4.8 km/h
3104 10-07-2014 13:30:00 20.2 C 14.34 g/m*3 20.2 C 6.4 km/h
3105 10-07-2014 13:35:00 20.3 C 14.25 g/m*3 20.3 C 4.8 km/h
3106 10-07-2014 13:40:00 20.3 C 14.25 g/m*3 20.3 C 6.4 km/h
3107 10-07-2014 13:45:00 20.3 C 14.42 g/m*3 20.3 C 4.8 km/h
3108 10-07-2014 13:50:00 20.4 C 14.51 g/m*3 20.4 C 3.2 km/h
3109 10-07-2014 13:55:00 20.6 C 14.5 g/m*3 20.6 C 4.8 km/h
3110 10-07-2014 14:00:00 20.7 C 14.4 g/m*3 20.7 C 6.4 km/h
3111 10-07-2014 14:05:00 20.8 C 14.3 g/m*3 20.8 C 4.8 km/h
3112 10-07-2014 14:10:00 20.8 C 14.3 g/m*3 20.8 C 3.2 km/h
3113 10-07-2014 14:35:00 22.6 C 14.87 g/m*3 22.6 C 4.8 km/h
3114 10-07-2014 14:40:00 22.8 C 15.65 g/m*3 22.8 C 4.8 km/h
3115 10-07-2014 14:45:00 22.9 C 14.71 g/m*3 22.9 C 3.2 km/h
3116 10-07-2014 14:50:00 22.8 C 14.63 g/m*3 22.8 C 8.1 km/h
3117 10-07-2014 14:55:00 22.8 C 14.83 g/m*3 22.8 C 6.4 km/h
3118 10-07-2014 15:00:00 22.8 C 15.24 g/m*3 22.8 C 6.4 km/h
3119 10-07-2014 15:05:00 23.2 C 15.38 g/m*3 23.2 C 4.8 km/h
3120 10-07-2014 15:10:00 23.5 C 15.44 g/m*3 23.5 C 8.1 km/h
3121 10-07-2014 15:15:00 23.6 C 14.89 g/m*3 23.6 C 6.4 km/h
3122 10-07-2014 15:20:00 23.8 C 15.7 g/m*3 23.8 C 6.4 km/h
3123 10-07-2014 15:25:00 23.8 C 15.49 g/m*3 23.8 C 8.1 km/h
3124 10-07-2014 15:30:00 23.8 C 15.49 g/m*3 23.8 C 6.4 km/h
3125 10-07-2014 15:35:00 23.8 C 15.49 g/m*3 23.8 C 8.1 km/h
Sensor: Nr:Datum:Temp:Abs-Feuchte:Windchill:Wind:
Aussen-T/F 3126 10-07-2014 15:40:00 23.9 C 15.58 g/m*3 23.9 C 6.4 km/h
3127 10-07-2014 15:45:00 23.8 C 15.27 g/m*3 23.8 C 4.8 km/h
3128 10-07-2014 15:50:00 23.7 C 15.19 g/m*3 23.7 C 11.3 km/h
3129 10-07-2014 15:55:00 23.8 C 15.49 g/m*3 23.8 C 4.8 km/h
3130 10-07-2014 16:00:00 24 C 15.45 g/m*3 24 C 8.1 km/h
3131 10-07-2014 16:05:00 23.9 C 14.93 g/m*3 23.9 C 6.4 km/h
3132 10-07-2014 16:10:00 23.8 C 15.27 g/m*3 23.8 C 8.1 km/h
3133 10-07-2014 16:15:00 23.7 C 15.83 g/m*3 23.7 C 3.2 km/h
3134 10-07-2014 16:20:00 23.7 C 16.47 g/m*3 23.7 C 4.8 km/h
3135 10-07-2014 16:25:00 23.5 C 15.44 g/m*3 23.5 C 8.1 km/h
3136 10-07-2014 16:30:00 23.6 C 15.31 g/m*3 23.6 C 9.7 km/h
3137 10-07-2014 16:35:00 23.7 C 15.83 g/m*3 23.7 C 8.1 km/h
3138 10-07-2014 16:40:00 23.9 C 15.58 g/m*3 23.9 C 3.2 km/h
3139 10-07-2014 16:45:00 23.4 C 16.4 g/m*3 23.4 C 0 km/h
3140 10-07-2014 16:50:00 22.8 C 15.24 g/m*3 22.8 C 8.1 km/h
3141 10-07-2014 16:55:00 22.9 C 15.53 g/m*3 22.9 C 6.4 km/h
3142 10-07-2014 17:00:00 23 C 15.83 g/m*3 23 C 4.8 km/h
3143 10-07-2014 17:05:00 23.3 C 15.26 g/m*3 23.3 C 14.5 km/h
3144 10-07-2014 17:10:00 23.8 C 15.92 g/m*3 23.8 C 3.2 km/h
3145 10-07-2014 17:15:00 24.3 C 15.93 g/m*3 24.3 C 6.4 km/h
3146 10-07-2014 17:20:00 24.8 C 15.93 g/m*3 24.8 C 4.8 km/h
3147 10-07-2014 17:25:00 24.9 C 15.79 g/m*3 24.9 C 11.3 km/h
3148 10-07-2014 17:30:00 24.8 C 15.25 g/m*3 24.8 C 9.7 km/h
3149 10-07-2014 17:35:00 24.4 C 16.25 g/m*3 24.4 C 9.7 km/h
3150 10-07-2014 17:40:00 23.7 C 16.9 g/m*3 23.7 C 3.2 km/h
Sensor: Nr:Datum:Temp:Abs-Feuchte:Windchill:Wind:
Aussen-T/F 3151 10-07-2014 17:45:00 22.7 C 16.57 g/m*3 22.7 C 0 km/h
3152 10-07-2014 17:50:00 22.1 C 16.79 g/m*3 22.1 C 1.6 km/h
3153 10-07-2014 17:55:00 21.6 C 16.69 g/m*3 21.6 C 1.6 km/h
3154 10-07-2014 18:00:00 21.2 C 16.49 g/m*3 21.2 C 1.6 km/h
3155 10-07-2014 18:05:00 21.1 C 16.95 g/m*3 21.1 C 1.6 km/h
3156 10-07-2014 18:10:00 20.9 C 16.76 g/m*3 20.9 C 1.6 km/h
3157 10-07-2014 18:15:00 20.8 C 16.66 g/m*3 20.8 C 0 km/h
3158 10-07-2014 18:20:00 21.1 C 17.14 g/m*3 21.1 C 1.6 km/h
3159 10-07-2014 18:25:00 21.1 C 16.95 g/m*3 21.1 C 1.6 km/h
3160 10-07-2014 18:30:00 20.9 C 16.76 g/m*3 20.9 C 3.2 km/h
3161 10-07-2014 18:35:00 20.8 C 16.84 g/m*3 20.8 C 1.6 km/h
3162 10-07-2014 18:40:00 20.9 C 16.57 g/m*3 20.9 C 8.1 km/h
3163 10-07-2014 18:45:00 21.4 C 15.75 g/m*3 21.4 C 11.3 km/h
3164 10-07-2014 18:50:00 21.8 C 16.69 g/m*3 21.8 C 1.6 km/h
3165 10-07-2014 18:55:00 21.8 C 16.88 g/m*3 21.8 C 1.6 km/h
3166 10-07-2014 19:00:00 21.8 C 16.88 g/m*3 21.8 C 0 km/h
3167 10-07-2014 19:05:00 20.6 C 16.47 g/m*3 20.6 C 3.2 km/h
3168 10-07-2014 19:10:00 20.6 C 16.64 g/m*3 20.6 C 3.2 km/h
3169 10-07-2014 19:15:00 21 C 17.4 g/m*3 21 C 1.6 km/h
3170 10-07-2014 19:20:00 21.1 C 17.32 g/m*3 21.1 C 3.2 km/h
3171 10-07-2014 19:25:00 21.3 C 17.71 g/m*3 21.3 C 3.2 km/h
3172 10-07-2014 19:30:00 21.3 C 17.71 g/m*3 21.3 C 8.1 km/h
3173 10-07-2014 19:40:00 21.7 C 19.08 g/m*3 21.7 C 1.6 km/h
3174 10-07-2014 19:45:00 21.7 C 19.08 g/m*3 21.7 C 4.8 km/h
3175 10-07-2014 19:50:00 21.8 C 19.19 g/m*3 21.8 C 1.6 km/h
Sensor: Nr:Datum:Temp:Abs-Feuchte:Windchill:Wind:
Aussen-T/F 3176 10-07-2014 19:55:00 21.8 C 19.19 g/m*3 21.8 C 1.6 km/h
3177 10-07-2014 20:30:00 21.7 C 16.79 g/m*3 21.7 C 12.9 km/h
3178 10-07-2014 20:35:00 22.1 C 16.98 g/m*3 22.1 C 3.2 km/h
3179 10-07-2014 20:40:00 22.1 C 16.59 g/m*3 22.1 C 4.8 km/h
3180 10-07-2014 20:45:00 21.9 C 16.79 g/m*3 21.9 C 1.6 km/h
3181 10-07-2014 20:50:00 21.4 C 16.69 g/m*3 21.4 C 1.6 km/h
3182 10-07-2014 20:55:00 21.1 C 16.58 g/m*3 21.1 C 0 km/h
3183 10-07-2014 21:00:00 20.7 C 16.38 g/m*3 20.7 C 1.6 km/h
3184 10-07-2014 21:05:00 20.4 C 16.28 g/m*3 20.4 C 1.6 km/h
3185 10-07-2014 21:10:00 20.3 C 16.36 g/m*3 20.3 C 0 km/h
3186 10-07-2014 21:15:00 20.2 C 16.26 g/m*3 20.2 C 0 km/h
3187 10-07-2014 21:20:00 20.2 C 15.91 g/m*3 20.2 C 9.7 km/h
3188 10-07-2014 21:25:00 20.6 C 13.6 g/m*3 20.6 C 14.5 km/h
3189 10-07-2014 21:30:00 20.7 C 13.14 g/m*3 20.7 C 14.5 km/h
3190 10-07-2014 21:35:00 20.3 C 13.19 g/m*3 20.3 C 14.5 km/h
3191 10-07-2014 21:40:00 19.6 C 13.67 g/m*3 19.6 C 12.9 km/h
3192 10-07-2014 21:45:00 18.4 C 13.05 g/m*3 18.4 C 8.1 km/h
3193 10-07-2014 21:50:00 17.7 C 13.13 g/m*3 17.7 C 8.1 km/h
3194 10-07-2014 21:55:00 17.3 C 13.26 g/m*3 17.3 C 4.8 km/h
3195 10-07-2014 22:00:00 17.2 C 13.47 g/m*3 17.2 C 0 km/h
3196 10-07-2014 22:05:00 17 C 13.31 g/m*3 17 C 0 km/h
3197 10-07-2014 22:10:00 16.9 C 13.38 g/m*3 16.9 C 6.4 km/h
3198 10-07-2014 22:15:00 16.8 C 13.3 g/m*3 16.8 C 4.8 km/h
3199 10-07-2014 22:20:00 16.7 C 13.36 g/m*3 16.7 C 1.6 km/h
3200 10-07-2014 22:25:00 16.6 C 13.28 g/m*3 16.6 C 3.2 km/h
Sensor: Nr:Datum:Temp:Abs-Feuchte:Windchill:Wind:
Aussen-T/F 3201 10-07-2014 22:30:00 16.6 C 13.28 g/m*3 16.6 C 3.2 km/h
3202 10-07-2014 22:35:00 16.5 C 13.2 g/m*3 16.5 C 6.4 km/h
3203 10-07-2014 22:40:00 16.6 C 13.42 g/m*3 16.6 C 6.4 km/h
3204 10-07-2014 22:45:00 16.5 C 13.34 g/m*3 16.5 C 6.4 km/h
3205 10-07-2014 22:50:00 16.4 C 13.26 g/m*3 16.4 C 0 km/h
3206 10-07-2014 22:55:00 16.4 C 13.26 g/m*3 16.4 C 0 km/h
3207 10-07-2014 23:00:00 16.4 C 13.26 g/m*3 16.4 C 1.6 km/h
3208 10-07-2014 23:05:00 16.3 C 13.18 g/m*3 16.3 C 0 km/h
3209 10-07-2014 23:10:00 16.3 C 13.18 g/m*3 16.3 C 0 km/h
3210 10-07-2014 23:15:00 16.3 C 13.32 g/m*3 16.3 C